<?xml version="1.0" encoding="UTF-8" standalone="no" ?>
<gpx xmlns="http://www.topografix.com/GPX/1/1" xmlns:xsi="http://www.w3.org/2001/XMLSchema-instance" xsi:schemaLocation="http://www.topografix.com/GPX/1/1 http://www.topografix.com/GPX/1/1/gpx.xsd" version="1.1" creator="VisuGPX - https://www.visugpx.com">
  <metadata>
    <name>Le Tourniquet</name>
    <desc><![CDATA[Le fameux Tourniquet.]]></desc>
  </metadata>
  <trk>
    <name><![CDATA[Mountain Biking 10/7/12 9:06 am]]></name>
    <trkseg>
      <trkpt lat="44.56697" lon="6.50594">
        <ele>824</ele>
        <time>2012-10-07T08:06:45Z</time>
      </trkpt>
      <trkpt lat="44.5669" lon="6.50575">
        <ele>824</ele>
        <time>2012-10-07T08:06:46Z</time>
      </trkpt>
      <trkpt lat="44.5669" lon="6.50575">
        <ele>824</ele>
        <time>2012-10-07T08:06:56Z</time>
      </trkpt>
      <trkpt lat="44.56688" lon="6.50587">
        <ele>824</ele>
        <time>2012-10-07T08:07:52Z</time>
      </trkpt>
      <trkpt lat="44.56688" lon="6.50586">
        <ele>824</ele>
        <time>2012-10-07T08:08:03Z</time>
      </trkpt>
      <trkpt lat="44.56687" lon="6.50597">
        <ele>824</ele>
        <time>2012-10-07T08:08:42Z</time>
      </trkpt>
      <trkpt lat="44.56688" lon="6.50599">
        <ele>824</ele>
        <time>2012-10-07T08:08:53Z</time>
      </trkpt>
      <trkpt lat="44.5668" lon="6.50594">
        <ele>824</ele>
        <time>2012-10-07T08:09:40Z</time>
      </trkpt>
      <trkpt lat="44.56696" lon="6.50592">
        <ele>824</ele>
        <time>2012-10-07T08:09:48Z</time>
      </trkpt>
      <trkpt lat="44.56705" lon="6.50587">
        <ele>824</ele>
        <time>2012-10-07T08:09:52Z</time>
      </trkpt>
      <trkpt lat="44.56701" lon="6.50573">
        <ele>825.4</ele>
        <time>2012-10-07T08:09:58Z</time>
      </trkpt>
      <trkpt lat="44.5669" lon="6.50565">
        <ele>826.6</ele>
        <time>2012-10-07T08:10:01Z</time>
      </trkpt>
      <trkpt lat="44.56681" lon="6.50559">
        <ele>827.5</ele>
        <time>2012-10-07T08:10:04Z</time>
      </trkpt>
      <trkpt lat="44.5667" lon="6.50551">
        <ele>828.1</ele>
        <time>2012-10-07T08:10:08Z</time>
      </trkpt>
      <trkpt lat="44.56662" lon="6.50544">
        <ele>828.6</ele>
        <time>2012-10-07T08:10:11Z</time>
      </trkpt>
      <trkpt lat="44.56653" lon="6.50536">
        <ele>829.2</ele>
        <time>2012-10-07T08:10:15Z</time>
      </trkpt>
      <trkpt lat="44.56642" lon="6.50535">
        <ele>829.7</ele>
        <time>2012-10-07T08:10:18Z</time>
      </trkpt>
      <trkpt lat="44.56632" lon="6.50537">
        <ele>829.5</ele>
        <time>2012-10-07T08:10:20Z</time>
      </trkpt>
      <trkpt lat="44.5662" lon="6.5054">
        <ele>829.4</ele>
        <time>2012-10-07T08:10:22Z</time>
      </trkpt>
      <trkpt lat="44.56611" lon="6.50541">
        <ele>829.2</ele>
        <time>2012-10-07T08:10:23Z</time>
      </trkpt>
      <trkpt lat="44.56602" lon="6.50542">
        <ele>829</ele>
        <time>2012-10-07T08:10:24Z</time>
      </trkpt>
      <trkpt lat="44.56583" lon="6.50543">
        <ele>827.2</ele>
        <time>2012-10-07T08:10:26Z</time>
      </trkpt>
      <trkpt lat="44.56574" lon="6.50544">
        <ele>825.4</ele>
        <time>2012-10-07T08:10:27Z</time>
      </trkpt>
      <trkpt lat="44.56565" lon="6.50546">
        <ele>823.5</ele>
        <time>2012-10-07T08:10:28Z</time>
      </trkpt>
      <trkpt lat="44.56554" lon="6.50547">
        <ele>822.4</ele>
        <time>2012-10-07T08:10:29Z</time>
      </trkpt>
      <trkpt lat="44.56544" lon="6.50548">
        <ele>821.2</ele>
        <time>2012-10-07T08:10:30Z</time>
      </trkpt>
      <trkpt lat="44.56533" lon="6.5055">
        <ele>820</ele>
        <time>2012-10-07T08:10:31Z</time>
      </trkpt>
      <trkpt lat="44.56523" lon="6.50553">
        <ele>818.8</ele>
        <time>2012-10-07T08:10:32Z</time>
      </trkpt>
      <trkpt lat="44.56512" lon="6.50557">
        <ele>817.7</ele>
        <time>2012-10-07T08:10:33Z</time>
      </trkpt>
      <trkpt lat="44.56502" lon="6.50565">
        <ele>816.6</ele>
        <time>2012-10-07T08:10:34Z</time>
      </trkpt>
      <trkpt lat="44.56492" lon="6.50573">
        <ele>815.5</ele>
        <time>2012-10-07T08:10:35Z</time>
      </trkpt>
      <trkpt lat="44.56482" lon="6.50583">
        <ele>814.3</ele>
        <time>2012-10-07T08:10:36Z</time>
      </trkpt>
      <trkpt lat="44.56464" lon="6.50603">
        <ele>813.5</ele>
        <time>2012-10-07T08:10:38Z</time>
      </trkpt>
      <trkpt lat="44.56455" lon="6.50612">
        <ele>812.8</ele>
        <time>2012-10-07T08:10:39Z</time>
      </trkpt>
      <trkpt lat="44.56446" lon="6.50621">
        <ele>812.1</ele>
        <time>2012-10-07T08:10:40Z</time>
      </trkpt>
      <trkpt lat="44.56436" lon="6.50629">
        <ele>811.4</ele>
        <time>2012-10-07T08:10:41Z</time>
      </trkpt>
      <trkpt lat="44.56427" lon="6.50637">
        <ele>810.6</ele>
        <time>2012-10-07T08:10:42Z</time>
      </trkpt>
      <trkpt lat="44.56417" lon="6.50645">
        <ele>809.5</ele>
        <time>2012-10-07T08:10:43Z</time>
      </trkpt>
      <trkpt lat="44.56408" lon="6.50651">
        <ele>808.5</ele>
        <time>2012-10-07T08:10:44Z</time>
      </trkpt>
      <trkpt lat="44.56398" lon="6.50658">
        <ele>808</ele>
        <time>2012-10-07T08:10:45Z</time>
      </trkpt>
      <trkpt lat="44.56388" lon="6.50667">
        <ele>807.5</ele>
        <time>2012-10-07T08:10:46Z</time>
      </trkpt>
      <trkpt lat="44.56378" lon="6.50676">
        <ele>807.2</ele>
        <time>2012-10-07T08:10:47Z</time>
      </trkpt>
      <trkpt lat="44.56368" lon="6.50685">
        <ele>807.1</ele>
        <time>2012-10-07T08:10:48Z</time>
      </trkpt>
      <trkpt lat="44.56359" lon="6.50693">
        <ele>807</ele>
        <time>2012-10-07T08:10:49Z</time>
      </trkpt>
      <trkpt lat="44.5635" lon="6.50701">
        <ele>806.9</ele>
        <time>2012-10-07T08:10:50Z</time>
      </trkpt>
      <trkpt lat="44.56342" lon="6.50709">
        <ele>806.6</ele>
        <time>2012-10-07T08:10:51Z</time>
      </trkpt>
      <trkpt lat="44.56327" lon="6.50722">
        <ele>806.4</ele>
        <time>2012-10-07T08:10:53Z</time>
      </trkpt>
      <trkpt lat="44.56312" lon="6.50735">
        <ele>806.1</ele>
        <time>2012-10-07T08:10:55Z</time>
      </trkpt>
      <trkpt lat="44.56304" lon="6.50742">
        <ele>806.2</ele>
        <time>2012-10-07T08:10:56Z</time>
      </trkpt>
      <trkpt lat="44.56296" lon="6.50749">
        <ele>806.3</ele>
        <time>2012-10-07T08:10:57Z</time>
      </trkpt>
      <trkpt lat="44.56288" lon="6.50756">
        <ele>806.5</ele>
        <time>2012-10-07T08:10:58Z</time>
      </trkpt>
      <trkpt lat="44.5628" lon="6.50763">
        <ele>806.6</ele>
        <time>2012-10-07T08:10:59Z</time>
      </trkpt>
      <trkpt lat="44.56267" lon="6.50773">
        <ele>806.2</ele>
        <time>2012-10-07T08:11:01Z</time>
      </trkpt>
      <trkpt lat="44.56251" lon="6.50786">
        <ele>805.5</ele>
        <time>2012-10-07T08:11:03Z</time>
      </trkpt>
      <trkpt lat="44.56233" lon="6.50802">
        <ele>804.7</ele>
        <time>2012-10-07T08:11:05Z</time>
      </trkpt>
      <trkpt lat="44.56225" lon="6.5081">
        <ele>804</ele>
        <time>2012-10-07T08:11:06Z</time>
      </trkpt>
      <trkpt lat="44.56218" lon="6.5082">
        <ele>803.5</ele>
        <time>2012-10-07T08:11:07Z</time>
      </trkpt>
      <trkpt lat="44.56211" lon="6.50829">
        <ele>802.9</ele>
        <time>2012-10-07T08:11:08Z</time>
      </trkpt>
      <trkpt lat="44.56204" lon="6.50838">
        <ele>802.5</ele>
        <time>2012-10-07T08:11:09Z</time>
      </trkpt>
      <trkpt lat="44.56198" lon="6.50849">
        <ele>802</ele>
        <time>2012-10-07T08:11:10Z</time>
      </trkpt>
      <trkpt lat="44.56191" lon="6.5086">
        <ele>801.5</ele>
        <time>2012-10-07T08:11:11Z</time>
      </trkpt>
      <trkpt lat="44.56186" lon="6.5087">
        <ele>801</ele>
        <time>2012-10-07T08:11:12Z</time>
      </trkpt>
      <trkpt lat="44.5618" lon="6.50881">
        <ele>800.5</ele>
        <time>2012-10-07T08:11:13Z</time>
      </trkpt>
      <trkpt lat="44.56175" lon="6.50892">
        <ele>800.5</ele>
        <time>2012-10-07T08:11:14Z</time>
      </trkpt>
      <trkpt lat="44.56169" lon="6.50902">
        <ele>800.2</ele>
        <time>2012-10-07T08:11:15Z</time>
      </trkpt>
      <trkpt lat="44.56157" lon="6.50921">
        <ele>799.8</ele>
        <time>2012-10-07T08:11:17Z</time>
      </trkpt>
      <trkpt lat="44.5615" lon="6.50933">
        <ele>799.6</ele>
        <time>2012-10-07T08:11:18Z</time>
      </trkpt>
      <trkpt lat="44.56142" lon="6.50944">
        <ele>799.5</ele>
        <time>2012-10-07T08:11:19Z</time>
      </trkpt>
      <trkpt lat="44.56135" lon="6.50953">
        <ele>799.3</ele>
        <time>2012-10-07T08:11:20Z</time>
      </trkpt>
      <trkpt lat="44.56128" lon="6.5096">
        <ele>799</ele>
        <time>2012-10-07T08:11:21Z</time>
      </trkpt>
      <trkpt lat="44.5612" lon="6.50968">
        <ele>798.7</ele>
        <time>2012-10-07T08:11:22Z</time>
      </trkpt>
      <trkpt lat="44.56107" lon="6.50981">
        <ele>798.5</ele>
        <time>2012-10-07T08:11:24Z</time>
      </trkpt>
      <trkpt lat="44.56096" lon="6.50998">
        <ele>798.2</ele>
        <time>2012-10-07T08:11:26Z</time>
      </trkpt>
      <trkpt lat="44.56084" lon="6.51015">
        <ele>797.6</ele>
        <time>2012-10-07T08:11:28Z</time>
      </trkpt>
      <trkpt lat="44.56069" lon="6.51016">
        <ele>797.1</ele>
        <time>2012-10-07T08:11:30Z</time>
      </trkpt>
      <trkpt lat="44.56058" lon="6.51004">
        <ele>797</ele>
        <time>2012-10-07T08:11:32Z</time>
      </trkpt>
      <trkpt lat="44.5605" lon="6.50987">
        <ele>796.9</ele>
        <time>2012-10-07T08:11:34Z</time>
      </trkpt>
      <trkpt lat="44.56042" lon="6.5097">
        <ele>796.6</ele>
        <time>2012-10-07T08:11:36Z</time>
      </trkpt>
      <trkpt lat="44.56035" lon="6.50954">
        <ele>796.2</ele>
        <time>2012-10-07T08:11:38Z</time>
      </trkpt>
      <trkpt lat="44.56028" lon="6.50936">
        <ele>795.7</ele>
        <time>2012-10-07T08:11:40Z</time>
      </trkpt>
      <trkpt lat="44.56022" lon="6.50919">
        <ele>795.3</ele>
        <time>2012-10-07T08:11:42Z</time>
      </trkpt>
      <trkpt lat="44.56014" lon="6.50903">
        <ele>794.8</ele>
        <time>2012-10-07T08:11:44Z</time>
      </trkpt>
      <trkpt lat="44.56007" lon="6.50887">
        <ele>794.4</ele>
        <time>2012-10-07T08:11:46Z</time>
      </trkpt>
      <trkpt lat="44.56" lon="6.50874">
        <ele>793.9</ele>
        <time>2012-10-07T08:11:48Z</time>
      </trkpt>
      <trkpt lat="44.55992" lon="6.50859">
        <ele>794</ele>
        <time>2012-10-07T08:11:50Z</time>
      </trkpt>
      <trkpt lat="44.55984" lon="6.50842">
        <ele>794.1</ele>
        <time>2012-10-07T08:11:52Z</time>
      </trkpt>
      <trkpt lat="44.55978" lon="6.50829">
        <ele>794.2</ele>
        <time>2012-10-07T08:11:54Z</time>
      </trkpt>
      <trkpt lat="44.55971" lon="6.50814">
        <ele>794.3</ele>
        <time>2012-10-07T08:11:56Z</time>
      </trkpt>
      <trkpt lat="44.55964" lon="6.50801">
        <ele>794.4</ele>
        <time>2012-10-07T08:11:58Z</time>
      </trkpt>
      <trkpt lat="44.55958" lon="6.50788">
        <ele>794.4</ele>
        <time>2012-10-07T08:12:00Z</time>
      </trkpt>
      <trkpt lat="44.55951" lon="6.50774">
        <ele>794.4</ele>
        <time>2012-10-07T08:12:02Z</time>
      </trkpt>
      <trkpt lat="44.55944" lon="6.50761">
        <ele>794.4</ele>
        <time>2012-10-07T08:12:04Z</time>
      </trkpt>
      <trkpt lat="44.55937" lon="6.50745">
        <ele>794.4</ele>
        <time>2012-10-07T08:12:06Z</time>
      </trkpt>
      <trkpt lat="44.5593" lon="6.50731">
        <ele>794.4</ele>
        <time>2012-10-07T08:12:08Z</time>
      </trkpt>
      <trkpt lat="44.55923" lon="6.50718">
        <ele>794.4</ele>
        <time>2012-10-07T08:12:10Z</time>
      </trkpt>
      <trkpt lat="44.55915" lon="6.50703">
        <ele>794.1</ele>
        <time>2012-10-07T08:12:12Z</time>
      </trkpt>
      <trkpt lat="44.55909" lon="6.50689">
        <ele>793.9</ele>
        <time>2012-10-07T08:12:14Z</time>
      </trkpt>
      <trkpt lat="44.559" lon="6.50672">
        <ele>793.7</ele>
        <time>2012-10-07T08:12:16Z</time>
      </trkpt>
      <trkpt lat="44.55892" lon="6.50656">
        <ele>793.5</ele>
        <time>2012-10-07T08:12:18Z</time>
      </trkpt>
      <trkpt lat="44.55886" lon="6.50644">
        <ele>793.4</ele>
        <time>2012-10-07T08:12:20Z</time>
      </trkpt>
      <trkpt lat="44.55879" lon="6.5063">
        <ele>793.5</ele>
        <time>2012-10-07T08:12:22Z</time>
      </trkpt>
      <trkpt lat="44.55872" lon="6.50615">
        <ele>793.5</ele>
        <time>2012-10-07T08:12:24Z</time>
      </trkpt>
      <trkpt lat="44.55864" lon="6.506">
        <ele>793.5</ele>
        <time>2012-10-07T08:12:26Z</time>
      </trkpt>
      <trkpt lat="44.55857" lon="6.50585">
        <ele>793.5</ele>
        <time>2012-10-07T08:12:28Z</time>
      </trkpt>
      <trkpt lat="44.55852" lon="6.50571">
        <ele>793.5</ele>
        <time>2012-10-07T08:12:30Z</time>
      </trkpt>
      <trkpt lat="44.55845" lon="6.50557">
        <ele>793.5</ele>
        <time>2012-10-07T08:12:32Z</time>
      </trkpt>
      <trkpt lat="44.55837" lon="6.50544">
        <ele>793.5</ele>
        <time>2012-10-07T08:12:34Z</time>
      </trkpt>
      <trkpt lat="44.55828" lon="6.50529">
        <ele>793.3</ele>
        <time>2012-10-07T08:12:36Z</time>
      </trkpt>
      <trkpt lat="44.5582" lon="6.50514">
        <ele>793</ele>
        <time>2012-10-07T08:12:38Z</time>
      </trkpt>
      <trkpt lat="44.55814" lon="6.50499">
        <ele>792.7</ele>
        <time>2012-10-07T08:12:40Z</time>
      </trkpt>
      <trkpt lat="44.55808" lon="6.50486">
        <ele>792.5</ele>
        <time>2012-10-07T08:12:42Z</time>
      </trkpt>
      <trkpt lat="44.55801" lon="6.50474">
        <ele>792.2</ele>
        <time>2012-10-07T08:12:44Z</time>
      </trkpt>
      <trkpt lat="44.55793" lon="6.50459">
        <ele>791.9</ele>
        <time>2012-10-07T08:12:46Z</time>
      </trkpt>
      <trkpt lat="44.55786" lon="6.50445">
        <ele>792</ele>
        <time>2012-10-07T08:12:48Z</time>
      </trkpt>
      <trkpt lat="44.5578" lon="6.50432">
        <ele>792.1</ele>
        <time>2012-10-07T08:12:50Z</time>
      </trkpt>
      <trkpt lat="44.55774" lon="6.50418">
        <ele>792.2</ele>
        <time>2012-10-07T08:12:52Z</time>
      </trkpt>
      <trkpt lat="44.55768" lon="6.50405">
        <ele>792.3</ele>
        <time>2012-10-07T08:12:54Z</time>
      </trkpt>
      <trkpt lat="44.55761" lon="6.50393">
        <ele>792.4</ele>
        <time>2012-10-07T08:12:56Z</time>
      </trkpt>
      <trkpt lat="44.55754" lon="6.50377">
        <ele>792.6</ele>
        <time>2012-10-07T08:12:58Z</time>
      </trkpt>
      <trkpt lat="44.55747" lon="6.50364">
        <ele>793</ele>
        <time>2012-10-07T08:13:00Z</time>
      </trkpt>
      <trkpt lat="44.55738" lon="6.50347">
        <ele>793</ele>
        <time>2012-10-07T08:13:02Z</time>
      </trkpt>
      <trkpt lat="44.55732" lon="6.50333">
        <ele>793</ele>
        <time>2012-10-07T08:13:04Z</time>
      </trkpt>
      <trkpt lat="44.55726" lon="6.50318">
        <ele>793</ele>
        <time>2012-10-07T08:13:06Z</time>
      </trkpt>
      <trkpt lat="44.5572" lon="6.50302">
        <ele>793</ele>
        <time>2012-10-07T08:13:08Z</time>
      </trkpt>
      <trkpt lat="44.55714" lon="6.50287">
        <ele>792.6</ele>
        <time>2012-10-07T08:13:10Z</time>
      </trkpt>
      <trkpt lat="44.55708" lon="6.50272">
        <ele>792.3</ele>
        <time>2012-10-07T08:13:12Z</time>
      </trkpt>
      <trkpt lat="44.55702" lon="6.50258">
        <ele>791.9</ele>
        <time>2012-10-07T08:13:14Z</time>
      </trkpt>
      <trkpt lat="44.55697" lon="6.50244">
        <ele>791.5</ele>
        <time>2012-10-07T08:13:16Z</time>
      </trkpt>
      <trkpt lat="44.55691" lon="6.50227">
        <ele>791.2</ele>
        <time>2012-10-07T08:13:18Z</time>
      </trkpt>
      <trkpt lat="44.55686" lon="6.50213">
        <ele>790.8</ele>
        <time>2012-10-07T08:13:20Z</time>
      </trkpt>
      <trkpt lat="44.55682" lon="6.50201">
        <ele>790.3</ele>
        <time>2012-10-07T08:13:22Z</time>
      </trkpt>
      <trkpt lat="44.55677" lon="6.50184">
        <ele>790.1</ele>
        <time>2012-10-07T08:13:24Z</time>
      </trkpt>
      <trkpt lat="44.55673" lon="6.50168">
        <ele>789.9</ele>
        <time>2012-10-07T08:13:26Z</time>
      </trkpt>
      <trkpt lat="44.55667" lon="6.50152">
        <ele>789.7</ele>
        <time>2012-10-07T08:13:28Z</time>
      </trkpt>
      <trkpt lat="44.55661" lon="6.50138">
        <ele>789.5</ele>
        <time>2012-10-07T08:13:30Z</time>
      </trkpt>
      <trkpt lat="44.55655" lon="6.5012">
        <ele>789.5</ele>
        <time>2012-10-07T08:13:33Z</time>
      </trkpt>
      <trkpt lat="44.55649" lon="6.50105">
        <ele>789.4</ele>
        <time>2012-10-07T08:13:34Z</time>
      </trkpt>
      <trkpt lat="44.55644" lon="6.5009">
        <ele>789.3</ele>
        <time>2012-10-07T08:13:36Z</time>
      </trkpt>
      <trkpt lat="44.55638" lon="6.50075">
        <ele>789.2</ele>
        <time>2012-10-07T08:13:38Z</time>
      </trkpt>
      <trkpt lat="44.55632" lon="6.5006">
        <ele>789.1</ele>
        <time>2012-10-07T08:13:40Z</time>
      </trkpt>
      <trkpt lat="44.55626" lon="6.50042">
        <ele>789</ele>
        <time>2012-10-07T08:13:42Z</time>
      </trkpt>
      <trkpt lat="44.5562" lon="6.50027">
        <ele>789</ele>
        <time>2012-10-07T08:13:44Z</time>
      </trkpt>
      <trkpt lat="44.55614" lon="6.50012">
        <ele>789</ele>
        <time>2012-10-07T08:13:46Z</time>
      </trkpt>
      <trkpt lat="44.55608" lon="6.49997">
        <ele>789</ele>
        <time>2012-10-07T08:13:48Z</time>
      </trkpt>
      <trkpt lat="44.55602" lon="6.49979">
        <ele>789</ele>
        <time>2012-10-07T08:13:50Z</time>
      </trkpt>
      <trkpt lat="44.55597" lon="6.49964">
        <ele>789</ele>
        <time>2012-10-07T08:13:52Z</time>
      </trkpt>
      <trkpt lat="44.55591" lon="6.49948">
        <ele>788.9</ele>
        <time>2012-10-07T08:13:54Z</time>
      </trkpt>
      <trkpt lat="44.55586" lon="6.49934">
        <ele>788.8</ele>
        <time>2012-10-07T08:13:56Z</time>
      </trkpt>
      <trkpt lat="44.5558" lon="6.49917">
        <ele>788.7</ele>
        <time>2012-10-07T08:13:58Z</time>
      </trkpt>
      <trkpt lat="44.55574" lon="6.49903">
        <ele>788.6</ele>
        <time>2012-10-07T08:14:00Z</time>
      </trkpt>
      <trkpt lat="44.55569" lon="6.49888">
        <ele>788.5</ele>
        <time>2012-10-07T08:14:02Z</time>
      </trkpt>
      <trkpt lat="44.55565" lon="6.49875">
        <ele>788.5</ele>
        <time>2012-10-07T08:14:04Z</time>
      </trkpt>
      <trkpt lat="44.55559" lon="6.49859">
        <ele>788.4</ele>
        <time>2012-10-07T08:14:06Z</time>
      </trkpt>
      <trkpt lat="44.55555" lon="6.49846">
        <ele>788.3</ele>
        <time>2012-10-07T08:14:08Z</time>
      </trkpt>
      <trkpt lat="44.55549" lon="6.49831">
        <ele>788.2</ele>
        <time>2012-10-07T08:14:10Z</time>
      </trkpt>
      <trkpt lat="44.55544" lon="6.49817">
        <ele>788.1</ele>
        <time>2012-10-07T08:14:12Z</time>
      </trkpt>
      <trkpt lat="44.55538" lon="6.49804">
        <ele>788</ele>
        <time>2012-10-07T08:14:14Z</time>
      </trkpt>
      <trkpt lat="44.55532" lon="6.49789">
        <ele>788.1</ele>
        <time>2012-10-07T08:14:16Z</time>
      </trkpt>
      <trkpt lat="44.55526" lon="6.49772">
        <ele>788.2</ele>
        <time>2012-10-07T08:14:18Z</time>
      </trkpt>
      <trkpt lat="44.55522" lon="6.49758">
        <ele>788.3</ele>
        <time>2012-10-07T08:14:20Z</time>
      </trkpt>
      <trkpt lat="44.55516" lon="6.49742">
        <ele>788.4</ele>
        <time>2012-10-07T08:14:22Z</time>
      </trkpt>
      <trkpt lat="44.55511" lon="6.49727">
        <ele>788.5</ele>
        <time>2012-10-07T08:14:24Z</time>
      </trkpt>
      <trkpt lat="44.55507" lon="6.49711">
        <ele>788.5</ele>
        <time>2012-10-07T08:14:26Z</time>
      </trkpt>
      <trkpt lat="44.55504" lon="6.49698">
        <ele>788.5</ele>
        <time>2012-10-07T08:14:28Z</time>
      </trkpt>
      <trkpt lat="44.55501" lon="6.49683">
        <ele>788.4</ele>
        <time>2012-10-07T08:14:30Z</time>
      </trkpt>
      <trkpt lat="44.55498" lon="6.49665">
        <ele>788.3</ele>
        <time>2012-10-07T08:14:32Z</time>
      </trkpt>
      <trkpt lat="44.55496" lon="6.49649">
        <ele>788.2</ele>
        <time>2012-10-07T08:14:34Z</time>
      </trkpt>
      <trkpt lat="44.55493" lon="6.49632">
        <ele>788.1</ele>
        <time>2012-10-07T08:14:36Z</time>
      </trkpt>
      <trkpt lat="44.5549" lon="6.49616">
        <ele>787.7</ele>
        <time>2012-10-07T08:14:38Z</time>
      </trkpt>
      <trkpt lat="44.55486" lon="6.49598">
        <ele>787.4</ele>
        <time>2012-10-07T08:14:40Z</time>
      </trkpt>
      <trkpt lat="44.55483" lon="6.49582">
        <ele>787</ele>
        <time>2012-10-07T08:14:42Z</time>
      </trkpt>
      <trkpt lat="44.5548" lon="6.49566">
        <ele>786.6</ele>
        <time>2012-10-07T08:14:44Z</time>
      </trkpt>
      <trkpt lat="44.55476" lon="6.4955">
        <ele>786.3</ele>
        <time>2012-10-07T08:14:46Z</time>
      </trkpt>
      <trkpt lat="44.55473" lon="6.49533">
        <ele>786.1</ele>
        <time>2012-10-07T08:14:48Z</time>
      </trkpt>
      <trkpt lat="44.55469" lon="6.49517">
        <ele>786.1</ele>
        <time>2012-10-07T08:14:51Z</time>
      </trkpt>
      <trkpt lat="44.55467" lon="6.49501">
        <ele>786.1</ele>
        <time>2012-10-07T08:14:53Z</time>
      </trkpt>
      <trkpt lat="44.55465" lon="6.49487">
        <ele>786.1</ele>
        <time>2012-10-07T08:14:55Z</time>
      </trkpt>
      <trkpt lat="44.55461" lon="6.49469">
        <ele>786.1</ele>
        <time>2012-10-07T08:14:57Z</time>
      </trkpt>
      <trkpt lat="44.55456" lon="6.49451">
        <ele>786.2</ele>
        <time>2012-10-07T08:14:59Z</time>
      </trkpt>
      <trkpt lat="44.55452" lon="6.49437">
        <ele>786.5</ele>
        <time>2012-10-07T08:15:01Z</time>
      </trkpt>
      <trkpt lat="44.55448" lon="6.4942">
        <ele>786.7</ele>
        <time>2012-10-07T08:15:03Z</time>
      </trkpt>
      <trkpt lat="44.55445" lon="6.49405">
        <ele>787</ele>
        <time>2012-10-07T08:15:05Z</time>
      </trkpt>
      <trkpt lat="44.55442" lon="6.4939">
        <ele>787.3</ele>
        <time>2012-10-07T08:15:07Z</time>
      </trkpt>
      <trkpt lat="44.55438" lon="6.49374">
        <ele>787.5</ele>
        <time>2012-10-07T08:15:09Z</time>
      </trkpt>
      <trkpt lat="44.55435" lon="6.4936">
        <ele>787.5</ele>
        <time>2012-10-07T08:15:11Z</time>
      </trkpt>
      <trkpt lat="44.55431" lon="6.49344">
        <ele>787.5</ele>
        <time>2012-10-07T08:15:13Z</time>
      </trkpt>
      <trkpt lat="44.55427" lon="6.49328">
        <ele>787.5</ele>
        <time>2012-10-07T08:15:15Z</time>
      </trkpt>
      <trkpt lat="44.55424" lon="6.49312">
        <ele>787.5</ele>
        <time>2012-10-07T08:15:17Z</time>
      </trkpt>
      <trkpt lat="44.5542" lon="6.49297">
        <ele>787.5</ele>
        <time>2012-10-07T08:15:19Z</time>
      </trkpt>
      <trkpt lat="44.55416" lon="6.49279">
        <ele>787.4</ele>
        <time>2012-10-07T08:15:21Z</time>
      </trkpt>
      <trkpt lat="44.55412" lon="6.49262">
        <ele>787.3</ele>
        <time>2012-10-07T08:15:23Z</time>
      </trkpt>
      <trkpt lat="44.55408" lon="6.49246">
        <ele>787.2</ele>
        <time>2012-10-07T08:15:25Z</time>
      </trkpt>
      <trkpt lat="44.55406" lon="6.49231">
        <ele>787.1</ele>
        <time>2012-10-07T08:15:27Z</time>
      </trkpt>
      <trkpt lat="44.55403" lon="6.49217">
        <ele>787</ele>
        <time>2012-10-07T08:15:29Z</time>
      </trkpt>
      <trkpt lat="44.554" lon="6.49201">
        <ele>786.8</ele>
        <time>2012-10-07T08:15:31Z</time>
      </trkpt>
      <trkpt lat="44.55396" lon="6.49185">
        <ele>786.5</ele>
        <time>2012-10-07T08:15:33Z</time>
      </trkpt>
      <trkpt lat="44.55392" lon="6.49168">
        <ele>786.1</ele>
        <time>2012-10-07T08:15:35Z</time>
      </trkpt>
      <trkpt lat="44.55389" lon="6.49151">
        <ele>785.7</ele>
        <time>2012-10-07T08:15:37Z</time>
      </trkpt>
      <trkpt lat="44.55385" lon="6.49134">
        <ele>785.4</ele>
        <time>2012-10-07T08:15:39Z</time>
      </trkpt>
      <trkpt lat="44.55382" lon="6.49119">
        <ele>785.2</ele>
        <time>2012-10-07T08:15:41Z</time>
      </trkpt>
      <trkpt lat="44.55378" lon="6.49105">
        <ele>785</ele>
        <time>2012-10-07T08:15:43Z</time>
      </trkpt>
      <trkpt lat="44.55375" lon="6.49092">
        <ele>784.8</ele>
        <time>2012-10-07T08:15:45Z</time>
      </trkpt>
      <trkpt lat="44.55371" lon="6.49074">
        <ele>784.6</ele>
        <time>2012-10-07T08:15:47Z</time>
      </trkpt>
      <trkpt lat="44.55369" lon="6.49059">
        <ele>784.5</ele>
        <time>2012-10-07T08:15:49Z</time>
      </trkpt>
      <trkpt lat="44.55365" lon="6.49041">
        <ele>784.5</ele>
        <time>2012-10-07T08:15:51Z</time>
      </trkpt>
      <trkpt lat="44.55361" lon="6.49023">
        <ele>784.8</ele>
        <time>2012-10-07T08:15:53Z</time>
      </trkpt>
      <trkpt lat="44.55358" lon="6.49008">
        <ele>785.3</ele>
        <time>2012-10-07T08:15:55Z</time>
      </trkpt>
      <trkpt lat="44.55354" lon="6.48991">
        <ele>785.7</ele>
        <time>2012-10-07T08:15:57Z</time>
      </trkpt>
      <trkpt lat="44.55351" lon="6.48977">
        <ele>786.2</ele>
        <time>2012-10-07T08:15:59Z</time>
      </trkpt>
      <trkpt lat="44.55348" lon="6.48961">
        <ele>786.6</ele>
        <time>2012-10-07T08:16:01Z</time>
      </trkpt>
      <trkpt lat="44.55344" lon="6.48947">
        <ele>786.7</ele>
        <time>2012-10-07T08:16:03Z</time>
      </trkpt>
      <trkpt lat="44.55341" lon="6.48933">
        <ele>786.8</ele>
        <time>2012-10-07T08:16:05Z</time>
      </trkpt>
      <trkpt lat="44.55337" lon="6.48918">
        <ele>786.9</ele>
        <time>2012-10-07T08:16:07Z</time>
      </trkpt>
      <trkpt lat="44.55333" lon="6.48905">
        <ele>787</ele>
        <time>2012-10-07T08:16:09Z</time>
      </trkpt>
      <trkpt lat="44.55328" lon="6.48889">
        <ele>787.1</ele>
        <time>2012-10-07T08:16:11Z</time>
      </trkpt>
      <trkpt lat="44.55323" lon="6.48873">
        <ele>786.8</ele>
        <time>2012-10-07T08:16:13Z</time>
      </trkpt>
      <trkpt lat="44.55317" lon="6.48858">
        <ele>786.5</ele>
        <time>2012-10-07T08:16:15Z</time>
      </trkpt>
      <trkpt lat="44.55312" lon="6.48843">
        <ele>786.1</ele>
        <time>2012-10-07T08:16:17Z</time>
      </trkpt>
      <trkpt lat="44.55307" lon="6.48829">
        <ele>785.7</ele>
        <time>2012-10-07T08:16:19Z</time>
      </trkpt>
      <trkpt lat="44.55302" lon="6.48815">
        <ele>785.4</ele>
        <time>2012-10-07T08:16:21Z</time>
      </trkpt>
      <trkpt lat="44.55298" lon="6.488">
        <ele>785</ele>
        <time>2012-10-07T08:16:23Z</time>
      </trkpt>
      <trkpt lat="44.55292" lon="6.48784">
        <ele>784.9</ele>
        <time>2012-10-07T08:16:25Z</time>
      </trkpt>
      <trkpt lat="44.55286" lon="6.4877">
        <ele>784.8</ele>
        <time>2012-10-07T08:16:27Z</time>
      </trkpt>
      <trkpt lat="44.5528" lon="6.48756">
        <ele>784.7</ele>
        <time>2012-10-07T08:16:29Z</time>
      </trkpt>
      <trkpt lat="44.55274" lon="6.48742">
        <ele>784.6</ele>
        <time>2012-10-07T08:16:31Z</time>
      </trkpt>
      <trkpt lat="44.55267" lon="6.48728">
        <ele>784.5</ele>
        <time>2012-10-07T08:16:33Z</time>
      </trkpt>
      <trkpt lat="44.55261" lon="6.48715">
        <ele>784.5</ele>
        <time>2012-10-07T08:16:35Z</time>
      </trkpt>
      <trkpt lat="44.55254" lon="6.48701">
        <ele>784.6</ele>
        <time>2012-10-07T08:16:37Z</time>
      </trkpt>
      <trkpt lat="44.55249" lon="6.48687">
        <ele>784.7</ele>
        <time>2012-10-07T08:16:39Z</time>
      </trkpt>
      <trkpt lat="44.55242" lon="6.48674">
        <ele>784.7</ele>
        <time>2012-10-07T08:16:41Z</time>
      </trkpt>
      <trkpt lat="44.55235" lon="6.48662">
        <ele>784.7</ele>
        <time>2012-10-07T08:16:43Z</time>
      </trkpt>
      <trkpt lat="44.55229" lon="6.4865">
        <ele>784.7</ele>
        <time>2012-10-07T08:16:46Z</time>
      </trkpt>
      <trkpt lat="44.55223" lon="6.48637">
        <ele>784.6</ele>
        <time>2012-10-07T08:16:48Z</time>
      </trkpt>
      <trkpt lat="44.55217" lon="6.48628">
        <ele>784.5</ele>
        <time>2012-10-07T08:16:50Z</time>
      </trkpt>
      <trkpt lat="44.55209" lon="6.48616">
        <ele>784.5</ele>
        <time>2012-10-07T08:16:52Z</time>
      </trkpt>
      <trkpt lat="44.55202" lon="6.48606">
        <ele>784.4</ele>
        <time>2012-10-07T08:16:54Z</time>
      </trkpt>
      <trkpt lat="44.55194" lon="6.48597">
        <ele>784.5</ele>
        <time>2012-10-07T08:16:56Z</time>
      </trkpt>
      <trkpt lat="44.55188" lon="6.48586">
        <ele>784.7</ele>
        <time>2012-10-07T08:16:58Z</time>
      </trkpt>
      <trkpt lat="44.5518" lon="6.48574">
        <ele>784.9</ele>
        <time>2012-10-07T08:17:00Z</time>
      </trkpt>
      <trkpt lat="44.55172" lon="6.48561">
        <ele>785.1</ele>
        <time>2012-10-07T08:17:02Z</time>
      </trkpt>
      <trkpt lat="44.55164" lon="6.48548">
        <ele>785</ele>
        <time>2012-10-07T08:17:04Z</time>
      </trkpt>
      <trkpt lat="44.55157" lon="6.48537">
        <ele>784.9</ele>
        <time>2012-10-07T08:17:06Z</time>
      </trkpt>
      <trkpt lat="44.55151" lon="6.48527">
        <ele>784.8</ele>
        <time>2012-10-07T08:17:08Z</time>
      </trkpt>
      <trkpt lat="44.55142" lon="6.48515">
        <ele>784.7</ele>
        <time>2012-10-07T08:17:10Z</time>
      </trkpt>
      <trkpt lat="44.55132" lon="6.48502">
        <ele>784.6</ele>
        <time>2012-10-07T08:17:12Z</time>
      </trkpt>
      <trkpt lat="44.55122" lon="6.48491">
        <ele>784.7</ele>
        <time>2012-10-07T08:17:14Z</time>
      </trkpt>
      <trkpt lat="44.55113" lon="6.48482">
        <ele>784.8</ele>
        <time>2012-10-07T08:17:16Z</time>
      </trkpt>
      <trkpt lat="44.55105" lon="6.48474">
        <ele>784.6</ele>
        <time>2012-10-07T08:17:18Z</time>
      </trkpt>
      <trkpt lat="44.55096" lon="6.48469">
        <ele>784.5</ele>
        <time>2012-10-07T08:17:20Z</time>
      </trkpt>
      <trkpt lat="44.55087" lon="6.48465">
        <ele>784.3</ele>
        <time>2012-10-07T08:17:22Z</time>
      </trkpt>
      <trkpt lat="44.55076" lon="6.48457">
        <ele>784.1</ele>
        <time>2012-10-07T08:17:24Z</time>
      </trkpt>
      <trkpt lat="44.55067" lon="6.48449">
        <ele>784.3</ele>
        <time>2012-10-07T08:17:26Z</time>
      </trkpt>
      <trkpt lat="44.55062" lon="6.48436">
        <ele>784.3</ele>
        <time>2012-10-07T08:17:28Z</time>
      </trkpt>
      <trkpt lat="44.55058" lon="6.48422">
        <ele>784.3</ele>
        <time>2012-10-07T08:17:30Z</time>
      </trkpt>
      <trkpt lat="44.55053" lon="6.48409">
        <ele>784.3</ele>
        <time>2012-10-07T08:17:33Z</time>
      </trkpt>
      <trkpt lat="44.55046" lon="6.48394">
        <ele>784.3</ele>
        <time>2012-10-07T08:17:36Z</time>
      </trkpt>
      <trkpt lat="44.55037" lon="6.48381">
        <ele>784.1</ele>
        <time>2012-10-07T08:17:39Z</time>
      </trkpt>
      <trkpt lat="44.55028" lon="6.48371">
        <ele>783.9</ele>
        <time>2012-10-07T08:17:41Z</time>
      </trkpt>
      <trkpt lat="44.55019" lon="6.48357">
        <ele>783.7</ele>
        <time>2012-10-07T08:17:43Z</time>
      </trkpt>
      <trkpt lat="44.5501" lon="6.48343">
        <ele>783.5</ele>
        <time>2012-10-07T08:17:45Z</time>
      </trkpt>
      <trkpt lat="44.55001" lon="6.48331">
        <ele>783.4</ele>
        <time>2012-10-07T08:17:47Z</time>
      </trkpt>
      <trkpt lat="44.54994" lon="6.4832">
        <ele>783.2</ele>
        <time>2012-10-07T08:17:49Z</time>
      </trkpt>
      <trkpt lat="44.54986" lon="6.48309">
        <ele>782.6</ele>
        <time>2012-10-07T08:17:51Z</time>
      </trkpt>
      <trkpt lat="44.54981" lon="6.48299">
        <ele>782.3</ele>
        <time>2012-10-07T08:17:53Z</time>
      </trkpt>
      <trkpt lat="44.54973" lon="6.48286">
        <ele>781.9</ele>
        <time>2012-10-07T08:17:55Z</time>
      </trkpt>
      <trkpt lat="44.54967" lon="6.48275">
        <ele>781.5</ele>
        <time>2012-10-07T08:17:57Z</time>
      </trkpt>
      <trkpt lat="44.54961" lon="6.48261">
        <ele>781.2</ele>
        <time>2012-10-07T08:17:59Z</time>
      </trkpt>
      <trkpt lat="44.54957" lon="6.4825">
        <ele>780.8</ele>
        <time>2012-10-07T08:18:01Z</time>
      </trkpt>
      <trkpt lat="44.54951" lon="6.48237">
        <ele>780.5</ele>
        <time>2012-10-07T08:18:03Z</time>
      </trkpt>
      <trkpt lat="44.54946" lon="6.48225">
        <ele>780.1</ele>
        <time>2012-10-07T08:18:05Z</time>
      </trkpt>
      <trkpt lat="44.54941" lon="6.4821">
        <ele>779.7</ele>
        <time>2012-10-07T08:18:07Z</time>
      </trkpt>
      <trkpt lat="44.54936" lon="6.48199">
        <ele>779.5</ele>
        <time>2012-10-07T08:18:09Z</time>
      </trkpt>
      <trkpt lat="44.54929" lon="6.48181">
        <ele>779.4</ele>
        <time>2012-10-07T08:18:12Z</time>
      </trkpt>
      <trkpt lat="44.54925" lon="6.48166">
        <ele>779.5</ele>
        <time>2012-10-07T08:18:14Z</time>
      </trkpt>
      <trkpt lat="44.54922" lon="6.48153">
        <ele>779.7</ele>
        <time>2012-10-07T08:18:16Z</time>
      </trkpt>
      <trkpt lat="44.54918" lon="6.48137">
        <ele>779.9</ele>
        <time>2012-10-07T08:18:18Z</time>
      </trkpt>
      <trkpt lat="44.54915" lon="6.48124">
        <ele>780.1</ele>
        <time>2012-10-07T08:18:20Z</time>
      </trkpt>
      <trkpt lat="44.54912" lon="6.4811">
        <ele>780.4</ele>
        <time>2012-10-07T08:18:22Z</time>
      </trkpt>
      <trkpt lat="44.54909" lon="6.48095">
        <ele>780.6</ele>
        <time>2012-10-07T08:18:24Z</time>
      </trkpt>
      <trkpt lat="44.54907" lon="6.48083">
        <ele>780.9</ele>
        <time>2012-10-07T08:18:26Z</time>
      </trkpt>
      <trkpt lat="44.54904" lon="6.48069">
        <ele>781.2</ele>
        <time>2012-10-07T08:18:28Z</time>
      </trkpt>
      <trkpt lat="44.54901" lon="6.48054">
        <ele>781.5</ele>
        <time>2012-10-07T08:18:30Z</time>
      </trkpt>
      <trkpt lat="44.54899" lon="6.48039">
        <ele>781.2</ele>
        <time>2012-10-07T08:18:32Z</time>
      </trkpt>
      <trkpt lat="44.54896" lon="6.48024">
        <ele>780.9</ele>
        <time>2012-10-07T08:18:34Z</time>
      </trkpt>
      <trkpt lat="44.54894" lon="6.48011">
        <ele>780.6</ele>
        <time>2012-10-07T08:18:36Z</time>
      </trkpt>
      <trkpt lat="44.5489" lon="6.47993">
        <ele>780.5</ele>
        <time>2012-10-07T08:18:38Z</time>
      </trkpt>
      <trkpt lat="44.54888" lon="6.47981">
        <ele>780.5</ele>
        <time>2012-10-07T08:18:40Z</time>
      </trkpt>
      <trkpt lat="44.54885" lon="6.47968">
        <ele>780.4</ele>
        <time>2012-10-07T08:18:42Z</time>
      </trkpt>
      <trkpt lat="44.54883" lon="6.47956">
        <ele>780</ele>
        <time>2012-10-07T08:18:44Z</time>
      </trkpt>
      <trkpt lat="44.5488" lon="6.47942">
        <ele>779.6</ele>
        <time>2012-10-07T08:18:46Z</time>
      </trkpt>
      <trkpt lat="44.54876" lon="6.47929">
        <ele>779.3</ele>
        <time>2012-10-07T08:18:48Z</time>
      </trkpt>
      <trkpt lat="44.54873" lon="6.47913">
        <ele>778.9</ele>
        <time>2012-10-07T08:18:50Z</time>
      </trkpt>
      <trkpt lat="44.54869" lon="6.47899">
        <ele>778.5</ele>
        <time>2012-10-07T08:18:52Z</time>
      </trkpt>
      <trkpt lat="44.54866" lon="6.47882">
        <ele>778.5</ele>
        <time>2012-10-07T08:18:54Z</time>
      </trkpt>
      <trkpt lat="44.54864" lon="6.47866">
        <ele>778.5</ele>
        <time>2012-10-07T08:18:57Z</time>
      </trkpt>
      <trkpt lat="44.54862" lon="6.47853">
        <ele>778.5</ele>
        <time>2012-10-07T08:18:59Z</time>
      </trkpt>
      <trkpt lat="44.54859" lon="6.47836">
        <ele>778.4</ele>
        <time>2012-10-07T08:19:01Z</time>
      </trkpt>
      <trkpt lat="44.54856" lon="6.47821">
        <ele>778.2</ele>
        <time>2012-10-07T08:19:03Z</time>
      </trkpt>
      <trkpt lat="44.54853" lon="6.47807">
        <ele>778</ele>
        <time>2012-10-07T08:19:05Z</time>
      </trkpt>
      <trkpt lat="44.5485" lon="6.47795">
        <ele>778.1</ele>
        <time>2012-10-07T08:19:07Z</time>
      </trkpt>
      <trkpt lat="44.54847" lon="6.47783">
        <ele>778.2</ele>
        <time>2012-10-07T08:19:09Z</time>
      </trkpt>
      <trkpt lat="44.54844" lon="6.47767">
        <ele>778.3</ele>
        <time>2012-10-07T08:19:11Z</time>
      </trkpt>
      <trkpt lat="44.5484" lon="6.47748">
        <ele>778.4</ele>
        <time>2012-10-07T08:19:14Z</time>
      </trkpt>
      <trkpt lat="44.54838" lon="6.47736">
        <ele>778.5</ele>
        <time>2012-10-07T08:19:16Z</time>
      </trkpt>
      <trkpt lat="44.54834" lon="6.47722">
        <ele>778.5</ele>
        <time>2012-10-07T08:19:18Z</time>
      </trkpt>
      <trkpt lat="44.54832" lon="6.47708">
        <ele>778.6</ele>
        <time>2012-10-07T08:19:20Z</time>
      </trkpt>
      <trkpt lat="44.54829" lon="6.47691">
        <ele>778.5</ele>
        <time>2012-10-07T08:19:23Z</time>
      </trkpt>
      <trkpt lat="44.54826" lon="6.47676">
        <ele>778.5</ele>
        <time>2012-10-07T08:19:25Z</time>
      </trkpt>
      <trkpt lat="44.54822" lon="6.47659">
        <ele>778.4</ele>
        <time>2012-10-07T08:19:28Z</time>
      </trkpt>
      <trkpt lat="44.54818" lon="6.47641">
        <ele>778.3</ele>
        <time>2012-10-07T08:19:31Z</time>
      </trkpt>
      <trkpt lat="44.54815" lon="6.47627">
        <ele>778.1</ele>
        <time>2012-10-07T08:19:33Z</time>
      </trkpt>
      <trkpt lat="44.54813" lon="6.47613">
        <ele>777.8</ele>
        <time>2012-10-07T08:19:35Z</time>
      </trkpt>
      <trkpt lat="44.54809" lon="6.47593">
        <ele>777.6</ele>
        <time>2012-10-07T08:19:38Z</time>
      </trkpt>
      <trkpt lat="44.54805" lon="6.47574">
        <ele>777.5</ele>
        <time>2012-10-07T08:19:41Z</time>
      </trkpt>
      <trkpt lat="44.54802" lon="6.47561">
        <ele>777.3</ele>
        <time>2012-10-07T08:19:43Z</time>
      </trkpt>
      <trkpt lat="44.54799" lon="6.47548">
        <ele>777.1</ele>
        <time>2012-10-07T08:19:45Z</time>
      </trkpt>
      <trkpt lat="44.54796" lon="6.4753">
        <ele>776.9</ele>
        <time>2012-10-07T08:19:48Z</time>
      </trkpt>
      <trkpt lat="44.54793" lon="6.47517">
        <ele>776.9</ele>
        <time>2012-10-07T08:19:50Z</time>
      </trkpt>
      <trkpt lat="44.5479" lon="6.47504">
        <ele>776.9</ele>
        <time>2012-10-07T08:19:52Z</time>
      </trkpt>
      <trkpt lat="44.54787" lon="6.47492">
        <ele>776.9</ele>
        <time>2012-10-07T08:19:54Z</time>
      </trkpt>
      <trkpt lat="44.54784" lon="6.47478">
        <ele>776.9</ele>
        <time>2012-10-07T08:19:56Z</time>
      </trkpt>
      <trkpt lat="44.54781" lon="6.47465">
        <ele>776.9</ele>
        <time>2012-10-07T08:19:58Z</time>
      </trkpt>
      <trkpt lat="44.54777" lon="6.47447">
        <ele>777</ele>
        <time>2012-10-07T08:20:01Z</time>
      </trkpt>
      <trkpt lat="44.54774" lon="6.47434">
        <ele>777</ele>
        <time>2012-10-07T08:20:03Z</time>
      </trkpt>
      <trkpt lat="44.54771" lon="6.4742">
        <ele>777</ele>
        <time>2012-10-07T08:20:05Z</time>
      </trkpt>
      <trkpt lat="44.54769" lon="6.47407">
        <ele>777</ele>
        <time>2012-10-07T08:20:07Z</time>
      </trkpt>
      <trkpt lat="44.54766" lon="6.47394">
        <ele>777</ele>
        <time>2012-10-07T08:20:09Z</time>
      </trkpt>
      <trkpt lat="44.54761" lon="6.47376">
        <ele>777</ele>
        <time>2012-10-07T08:20:12Z</time>
      </trkpt>
      <trkpt lat="44.54757" lon="6.47359">
        <ele>777</ele>
        <time>2012-10-07T08:20:15Z</time>
      </trkpt>
      <trkpt lat="44.54754" lon="6.47341">
        <ele>777</ele>
        <time>2012-10-07T08:20:18Z</time>
      </trkpt>
      <trkpt lat="44.54752" lon="6.47328">
        <ele>777</ele>
        <time>2012-10-07T08:20:20Z</time>
      </trkpt>
      <trkpt lat="44.54749" lon="6.47316">
        <ele>777</ele>
        <time>2012-10-07T08:20:22Z</time>
      </trkpt>
      <trkpt lat="44.54746" lon="6.47304">
        <ele>777</ele>
        <time>2012-10-07T08:20:24Z</time>
      </trkpt>
      <trkpt lat="44.54741" lon="6.47287">
        <ele>776.9</ele>
        <time>2012-10-07T08:20:27Z</time>
      </trkpt>
      <trkpt lat="44.54738" lon="6.47274">
        <ele>776.8</ele>
        <time>2012-10-07T08:20:29Z</time>
      </trkpt>
      <trkpt lat="44.54735" lon="6.47256">
        <ele>776.7</ele>
        <time>2012-10-07T08:20:32Z</time>
      </trkpt>
      <trkpt lat="44.54732" lon="6.47238">
        <ele>776.6</ele>
        <time>2012-10-07T08:20:35Z</time>
      </trkpt>
      <trkpt lat="44.5473" lon="6.47225">
        <ele>776.5</ele>
        <time>2012-10-07T08:20:37Z</time>
      </trkpt>
      <trkpt lat="44.54727" lon="6.47213">
        <ele>776.5</ele>
        <time>2012-10-07T08:20:39Z</time>
      </trkpt>
      <trkpt lat="44.54724" lon="6.472">
        <ele>776.4</ele>
        <time>2012-10-07T08:20:41Z</time>
      </trkpt>
      <trkpt lat="44.54722" lon="6.47187">
        <ele>776.3</ele>
        <time>2012-10-07T08:20:43Z</time>
      </trkpt>
      <trkpt lat="44.54718" lon="6.47169">
        <ele>776.2</ele>
        <time>2012-10-07T08:20:46Z</time>
      </trkpt>
      <trkpt lat="44.54716" lon="6.47157">
        <ele>776.1</ele>
        <time>2012-10-07T08:20:48Z</time>
      </trkpt>
      <trkpt lat="44.54713" lon="6.47138">
        <ele>776</ele>
        <time>2012-10-07T08:20:51Z</time>
      </trkpt>
      <trkpt lat="44.54709" lon="6.47123">
        <ele>776</ele>
        <time>2012-10-07T08:20:53Z</time>
      </trkpt>
      <trkpt lat="44.54706" lon="6.47109">
        <ele>776</ele>
        <time>2012-10-07T08:20:55Z</time>
      </trkpt>
      <trkpt lat="44.54703" lon="6.47096">
        <ele>776</ele>
        <time>2012-10-07T08:20:57Z</time>
      </trkpt>
      <trkpt lat="44.54701" lon="6.47079">
        <ele>776</ele>
        <time>2012-10-07T08:21:00Z</time>
      </trkpt>
      <trkpt lat="44.54698" lon="6.47062">
        <ele>776</ele>
        <time>2012-10-07T08:21:03Z</time>
      </trkpt>
      <trkpt lat="44.54695" lon="6.47048">
        <ele>776</ele>
        <time>2012-10-07T08:21:05Z</time>
      </trkpt>
      <trkpt lat="44.54692" lon="6.47035">
        <ele>776.1</ele>
        <time>2012-10-07T08:21:07Z</time>
      </trkpt>
      <trkpt lat="44.54689" lon="6.47023">
        <ele>776.2</ele>
        <time>2012-10-07T08:21:09Z</time>
      </trkpt>
      <trkpt lat="44.54685" lon="6.4701">
        <ele>776.3</ele>
        <time>2012-10-07T08:21:11Z</time>
      </trkpt>
      <trkpt lat="44.54683" lon="6.46996">
        <ele>776.4</ele>
        <time>2012-10-07T08:21:13Z</time>
      </trkpt>
      <trkpt lat="44.54679" lon="6.46979">
        <ele>776.5</ele>
        <time>2012-10-07T08:21:16Z</time>
      </trkpt>
      <trkpt lat="44.54676" lon="6.46966">
        <ele>776.5</ele>
        <time>2012-10-07T08:21:18Z</time>
      </trkpt>
      <trkpt lat="44.54672" lon="6.46948">
        <ele>776.9</ele>
        <time>2012-10-07T08:21:21Z</time>
      </trkpt>
      <trkpt lat="44.5467" lon="6.46934">
        <ele>777.3</ele>
        <time>2012-10-07T08:21:23Z</time>
      </trkpt>
      <trkpt lat="44.54667" lon="6.46918">
        <ele>777.6</ele>
        <time>2012-10-07T08:21:25Z</time>
      </trkpt>
      <trkpt lat="44.54664" lon="6.46906">
        <ele>778</ele>
        <time>2012-10-07T08:21:27Z</time>
      </trkpt>
      <trkpt lat="44.54661" lon="6.46888">
        <ele>778.4</ele>
        <time>2012-10-07T08:21:30Z</time>
      </trkpt>
      <trkpt lat="44.54659" lon="6.46875">
        <ele>778.5</ele>
        <time>2012-10-07T08:21:32Z</time>
      </trkpt>
      <trkpt lat="44.54657" lon="6.46863">
        <ele>778.5</ele>
        <time>2012-10-07T08:21:34Z</time>
      </trkpt>
      <trkpt lat="44.54656" lon="6.46847">
        <ele>778.6</ele>
        <time>2012-10-07T08:21:36Z</time>
      </trkpt>
      <trkpt lat="44.54656" lon="6.46831">
        <ele>778.7</ele>
        <time>2012-10-07T08:21:38Z</time>
      </trkpt>
      <trkpt lat="44.54658" lon="6.46812">
        <ele>778.8</ele>
        <time>2012-10-07T08:21:41Z</time>
      </trkpt>
      <trkpt lat="44.5466" lon="6.46799">
        <ele>778.9</ele>
        <time>2012-10-07T08:21:43Z</time>
      </trkpt>
      <trkpt lat="44.54663" lon="6.46785">
        <ele>778.7</ele>
        <time>2012-10-07T08:21:45Z</time>
      </trkpt>
      <trkpt lat="44.54668" lon="6.46768">
        <ele>778.3</ele>
        <time>2012-10-07T08:21:48Z</time>
      </trkpt>
      <trkpt lat="44.54675" lon="6.46758">
        <ele>778.5</ele>
        <time>2012-10-07T08:21:50Z</time>
      </trkpt>
      <trkpt lat="44.54682" lon="6.46747">
        <ele>778.8</ele>
        <time>2012-10-07T08:21:52Z</time>
      </trkpt>
      <trkpt lat="44.5469" lon="6.46737">
        <ele>779.1</ele>
        <time>2012-10-07T08:21:54Z</time>
      </trkpt>
      <trkpt lat="44.54699" lon="6.46728">
        <ele>779.5</ele>
        <time>2012-10-07T08:21:56Z</time>
      </trkpt>
      <trkpt lat="44.54708" lon="6.46718">
        <ele>780</ele>
        <time>2012-10-07T08:21:58Z</time>
      </trkpt>
      <trkpt lat="44.54715" lon="6.46709">
        <ele>780.5</ele>
        <time>2012-10-07T08:22:00Z</time>
      </trkpt>
      <trkpt lat="44.54723" lon="6.46699">
        <ele>780.9</ele>
        <time>2012-10-07T08:22:02Z</time>
      </trkpt>
      <trkpt lat="44.5473" lon="6.4669">
        <ele>781.4</ele>
        <time>2012-10-07T08:22:04Z</time>
      </trkpt>
      <trkpt lat="44.54738" lon="6.46683">
        <ele>781.8</ele>
        <time>2012-10-07T08:22:06Z</time>
      </trkpt>
      <trkpt lat="44.54749" lon="6.46676">
        <ele>782.8</ele>
        <time>2012-10-07T08:22:09Z</time>
      </trkpt>
      <trkpt lat="44.54758" lon="6.46671">
        <ele>784.1</ele>
        <time>2012-10-07T08:22:11Z</time>
      </trkpt>
      <trkpt lat="44.54771" lon="6.46664">
        <ele>784.6</ele>
        <time>2012-10-07T08:22:14Z</time>
      </trkpt>
      <trkpt lat="44.5478" lon="6.46659">
        <ele>785.2</ele>
        <time>2012-10-07T08:22:16Z</time>
      </trkpt>
      <trkpt lat="44.54789" lon="6.46656">
        <ele>785.7</ele>
        <time>2012-10-07T08:22:18Z</time>
      </trkpt>
      <trkpt lat="44.54799" lon="6.46656">
        <ele>786.3</ele>
        <time>2012-10-07T08:22:21Z</time>
      </trkpt>
      <trkpt lat="44.54808" lon="6.46655">
        <ele>786.8</ele>
        <time>2012-10-07T08:22:24Z</time>
      </trkpt>
      <trkpt lat="44.5482" lon="6.46653">
        <ele>787.4</ele>
        <time>2012-10-07T08:22:27Z</time>
      </trkpt>
      <trkpt lat="44.54831" lon="6.4665">
        <ele>787.9</ele>
        <time>2012-10-07T08:22:30Z</time>
      </trkpt>
      <trkpt lat="44.54843" lon="6.46647">
        <ele>788.9</ele>
        <time>2012-10-07T08:22:33Z</time>
      </trkpt>
      <trkpt lat="44.54853" lon="6.46647">
        <ele>789.5</ele>
        <time>2012-10-07T08:22:36Z</time>
      </trkpt>
      <trkpt lat="44.54865" lon="6.46648">
        <ele>789.6</ele>
        <time>2012-10-07T08:22:39Z</time>
      </trkpt>
      <trkpt lat="44.54873" lon="6.4664">
        <ele>789.7</ele>
        <time>2012-10-07T08:22:42Z</time>
      </trkpt>
      <trkpt lat="44.54878" lon="6.46626">
        <ele>789.8</ele>
        <time>2012-10-07T08:22:46Z</time>
      </trkpt>
      <trkpt lat="44.54879" lon="6.46611">
        <ele>790.1</ele>
        <time>2012-10-07T08:22:50Z</time>
      </trkpt>
      <trkpt lat="44.54875" lon="6.46597">
        <ele>790.4</ele>
        <time>2012-10-07T08:22:54Z</time>
      </trkpt>
      <trkpt lat="44.54872" lon="6.46582">
        <ele>790.6</ele>
        <time>2012-10-07T08:22:58Z</time>
      </trkpt>
      <trkpt lat="44.54868" lon="6.46569">
        <ele>790.9</ele>
        <time>2012-10-07T08:23:01Z</time>
      </trkpt>
      <trkpt lat="44.54864" lon="6.46556">
        <ele>791.2</ele>
        <time>2012-10-07T08:23:04Z</time>
      </trkpt>
      <trkpt lat="44.5486" lon="6.46541">
        <ele>791.9</ele>
        <time>2012-10-07T08:23:07Z</time>
      </trkpt>
      <trkpt lat="44.54855" lon="6.46524">
        <ele>792.2</ele>
        <time>2012-10-07T08:23:10Z</time>
      </trkpt>
      <trkpt lat="44.54851" lon="6.46507">
        <ele>792.8</ele>
        <time>2012-10-07T08:23:13Z</time>
      </trkpt>
      <trkpt lat="44.54848" lon="6.46494">
        <ele>793.5</ele>
        <time>2012-10-07T08:23:15Z</time>
      </trkpt>
      <trkpt lat="44.54845" lon="6.46476">
        <ele>794.1</ele>
        <time>2012-10-07T08:23:18Z</time>
      </trkpt>
      <trkpt lat="44.54841" lon="6.4646">
        <ele>794.7</ele>
        <time>2012-10-07T08:23:21Z</time>
      </trkpt>
      <trkpt lat="44.54839" lon="6.46446">
        <ele>795.7</ele>
        <time>2012-10-07T08:23:24Z</time>
      </trkpt>
      <trkpt lat="44.54835" lon="6.46433">
        <ele>796.7</ele>
        <time>2012-10-07T08:23:28Z</time>
      </trkpt>
      <trkpt lat="44.54831" lon="6.46418">
        <ele>797.7</ele>
        <time>2012-10-07T08:23:30Z</time>
      </trkpt>
      <trkpt lat="44.54826" lon="6.46403">
        <ele>798.7</ele>
        <time>2012-10-07T08:23:33Z</time>
      </trkpt>
      <trkpt lat="44.54821" lon="6.46388">
        <ele>799.7</ele>
        <time>2012-10-07T08:23:36Z</time>
      </trkpt>
      <trkpt lat="44.54815" lon="6.46373">
        <ele>798.9</ele>
        <time>2012-10-07T08:23:39Z</time>
      </trkpt>
      <trkpt lat="44.54809" lon="6.46357">
        <ele>798.6</ele>
        <time>2012-10-07T08:23:42Z</time>
      </trkpt>
      <trkpt lat="44.54804" lon="6.4634">
        <ele>798.4</ele>
        <time>2012-10-07T08:23:45Z</time>
      </trkpt>
      <trkpt lat="44.548" lon="6.46329">
        <ele>798.1</ele>
        <time>2012-10-07T08:23:47Z</time>
      </trkpt>
      <trkpt lat="44.54796" lon="6.46317">
        <ele>797.8</ele>
        <time>2012-10-07T08:23:49Z</time>
      </trkpt>
      <trkpt lat="44.54792" lon="6.46306">
        <ele>797.5</ele>
        <time>2012-10-07T08:23:51Z</time>
      </trkpt>
      <trkpt lat="44.54786" lon="6.46291">
        <ele>796.9</ele>
        <time>2012-10-07T08:23:54Z</time>
      </trkpt>
      <trkpt lat="44.54781" lon="6.46276">
        <ele>796.3</ele>
        <time>2012-10-07T08:23:57Z</time>
      </trkpt>
      <trkpt lat="44.54776" lon="6.4626">
        <ele>795.6</ele>
        <time>2012-10-07T08:24:00Z</time>
      </trkpt>
      <trkpt lat="44.54771" lon="6.46243">
        <ele>795</ele>
        <time>2012-10-07T08:24:03Z</time>
      </trkpt>
      <trkpt lat="44.54765" lon="6.46226">
        <ele>794.4</ele>
        <time>2012-10-07T08:24:06Z</time>
      </trkpt>
      <trkpt lat="44.54761" lon="6.46215">
        <ele>795.1</ele>
        <time>2012-10-07T08:24:08Z</time>
      </trkpt>
      <trkpt lat="44.54756" lon="6.46198">
        <ele>795.5</ele>
        <time>2012-10-07T08:24:11Z</time>
      </trkpt>
      <trkpt lat="44.54752" lon="6.46182">
        <ele>796</ele>
        <time>2012-10-07T08:24:14Z</time>
      </trkpt>
      <trkpt lat="44.54748" lon="6.46166">
        <ele>796.5</ele>
        <time>2012-10-07T08:24:17Z</time>
      </trkpt>
      <trkpt lat="44.54744" lon="6.46153">
        <ele>796.9</ele>
        <time>2012-10-07T08:24:19Z</time>
      </trkpt>
      <trkpt lat="44.54741" lon="6.46141">
        <ele>797.4</ele>
        <time>2012-10-07T08:24:21Z</time>
      </trkpt>
      <trkpt lat="44.54738" lon="6.46127">
        <ele>797.6</ele>
        <time>2012-10-07T08:24:23Z</time>
      </trkpt>
      <trkpt lat="44.54735" lon="6.46112">
        <ele>798</ele>
        <time>2012-10-07T08:24:25Z</time>
      </trkpt>
      <trkpt lat="44.54734" lon="6.46099">
        <ele>798.4</ele>
        <time>2012-10-07T08:24:27Z</time>
      </trkpt>
      <trkpt lat="44.54732" lon="6.46086">
        <ele>798.7</ele>
        <time>2012-10-07T08:24:29Z</time>
      </trkpt>
      <trkpt lat="44.54729" lon="6.46067">
        <ele>799.1</ele>
        <time>2012-10-07T08:24:32Z</time>
      </trkpt>
      <trkpt lat="44.54727" lon="6.46054">
        <ele>798.5</ele>
        <time>2012-10-07T08:24:34Z</time>
      </trkpt>
      <trkpt lat="44.54725" lon="6.46041">
        <ele>797.5</ele>
        <time>2012-10-07T08:24:36Z</time>
      </trkpt>
      <trkpt lat="44.54723" lon="6.46025">
        <ele>796.6</ele>
        <time>2012-10-07T08:24:38Z</time>
      </trkpt>
      <trkpt lat="44.54719" lon="6.46005">
        <ele>795.7</ele>
        <time>2012-10-07T08:24:40Z</time>
      </trkpt>
      <trkpt lat="44.54716" lon="6.45984">
        <ele>794.8</ele>
        <time>2012-10-07T08:24:42Z</time>
      </trkpt>
      <trkpt lat="44.54713" lon="6.45964">
        <ele>794.1</ele>
        <time>2012-10-07T08:24:44Z</time>
      </trkpt>
      <trkpt lat="44.54711" lon="6.45943">
        <ele>793.4</ele>
        <time>2012-10-07T08:24:46Z</time>
      </trkpt>
      <trkpt lat="44.54708" lon="6.45925">
        <ele>792.5</ele>
        <time>2012-10-07T08:24:48Z</time>
      </trkpt>
      <trkpt lat="44.54706" lon="6.45908">
        <ele>791.7</ele>
        <time>2012-10-07T08:24:50Z</time>
      </trkpt>
      <trkpt lat="44.54704" lon="6.45891">
        <ele>790.8</ele>
        <time>2012-10-07T08:24:52Z</time>
      </trkpt>
      <trkpt lat="44.54701" lon="6.45869">
        <ele>789.9</ele>
        <time>2012-10-07T08:24:54Z</time>
      </trkpt>
      <trkpt lat="44.54699" lon="6.45849">
        <ele>790</ele>
        <time>2012-10-07T08:24:56Z</time>
      </trkpt>
      <trkpt lat="44.54697" lon="6.45832">
        <ele>790.1</ele>
        <time>2012-10-07T08:24:58Z</time>
      </trkpt>
      <trkpt lat="44.54696" lon="6.45816">
        <ele>790.2</ele>
        <time>2012-10-07T08:25:00Z</time>
      </trkpt>
      <trkpt lat="44.54693" lon="6.45796">
        <ele>790.2</ele>
        <time>2012-10-07T08:25:02Z</time>
      </trkpt>
      <trkpt lat="44.54691" lon="6.45777">
        <ele>790.2</ele>
        <time>2012-10-07T08:25:04Z</time>
      </trkpt>
      <trkpt lat="44.54688" lon="6.45758">
        <ele>790</ele>
        <time>2012-10-07T08:25:06Z</time>
      </trkpt>
      <trkpt lat="44.54684" lon="6.4574">
        <ele>789.8</ele>
        <time>2012-10-07T08:25:08Z</time>
      </trkpt>
      <trkpt lat="44.54678" lon="6.45719">
        <ele>789.6</ele>
        <time>2012-10-07T08:25:10Z</time>
      </trkpt>
      <trkpt lat="44.54674" lon="6.45696">
        <ele>789.5</ele>
        <time>2012-10-07T08:25:12Z</time>
      </trkpt>
      <trkpt lat="44.54671" lon="6.45677">
        <ele>789.4</ele>
        <time>2012-10-07T08:25:14Z</time>
      </trkpt>
      <trkpt lat="44.54668" lon="6.45658">
        <ele>789.3</ele>
        <time>2012-10-07T08:25:16Z</time>
      </trkpt>
      <trkpt lat="44.54668" lon="6.45643">
        <ele>789.2</ele>
        <time>2012-10-07T08:25:18Z</time>
      </trkpt>
      <trkpt lat="44.54668" lon="6.45626">
        <ele>789.5</ele>
        <time>2012-10-07T08:25:20Z</time>
      </trkpt>
      <trkpt lat="44.54664" lon="6.45608">
        <ele>789.7</ele>
        <time>2012-10-07T08:25:22Z</time>
      </trkpt>
      <trkpt lat="44.54661" lon="6.45589">
        <ele>790.1</ele>
        <time>2012-10-07T08:25:24Z</time>
      </trkpt>
      <trkpt lat="44.54659" lon="6.45571">
        <ele>790.5</ele>
        <time>2012-10-07T08:25:26Z</time>
      </trkpt>
      <trkpt lat="44.54654" lon="6.45553">
        <ele>790.8</ele>
        <time>2012-10-07T08:25:28Z</time>
      </trkpt>
      <trkpt lat="44.54649" lon="6.45538">
        <ele>789.7</ele>
        <time>2012-10-07T08:25:30Z</time>
      </trkpt>
      <trkpt lat="44.54644" lon="6.45523">
        <ele>788.6</ele>
        <time>2012-10-07T08:25:32Z</time>
      </trkpt>
      <trkpt lat="44.54639" lon="6.45505">
        <ele>787.5</ele>
        <time>2012-10-07T08:25:34Z</time>
      </trkpt>
      <trkpt lat="44.54635" lon="6.45487">
        <ele>786.5</ele>
        <time>2012-10-07T08:25:36Z</time>
      </trkpt>
      <trkpt lat="44.54632" lon="6.45469">
        <ele>785.4</ele>
        <time>2012-10-07T08:25:38Z</time>
      </trkpt>
      <trkpt lat="44.54631" lon="6.45452">
        <ele>784.5</ele>
        <time>2012-10-07T08:25:40Z</time>
      </trkpt>
      <trkpt lat="44.5463" lon="6.45435">
        <ele>783.2</ele>
        <time>2012-10-07T08:25:42Z</time>
      </trkpt>
      <trkpt lat="44.54628" lon="6.45419">
        <ele>781.9</ele>
        <time>2012-10-07T08:25:44Z</time>
      </trkpt>
      <trkpt lat="44.54626" lon="6.45401">
        <ele>780.6</ele>
        <time>2012-10-07T08:25:46Z</time>
      </trkpt>
      <trkpt lat="44.54621" lon="6.45387">
        <ele>779.4</ele>
        <time>2012-10-07T08:25:48Z</time>
      </trkpt>
      <trkpt lat="44.54616" lon="6.45373">
        <ele>778.1</ele>
        <time>2012-10-07T08:25:50Z</time>
      </trkpt>
      <trkpt lat="44.54611" lon="6.4536">
        <ele>778.6</ele>
        <time>2012-10-07T08:25:52Z</time>
      </trkpt>
      <trkpt lat="44.54607" lon="6.45345">
        <ele>779.2</ele>
        <time>2012-10-07T08:25:54Z</time>
      </trkpt>
      <trkpt lat="44.54604" lon="6.45333">
        <ele>779.7</ele>
        <time>2012-10-07T08:25:56Z</time>
      </trkpt>
      <trkpt lat="44.546" lon="6.45321">
        <ele>780.3</ele>
        <time>2012-10-07T08:25:58Z</time>
      </trkpt>
      <trkpt lat="44.54596" lon="6.45305">
        <ele>780.8</ele>
        <time>2012-10-07T08:26:01Z</time>
      </trkpt>
      <trkpt lat="44.54591" lon="6.45289">
        <ele>781.2</ele>
        <time>2012-10-07T08:26:04Z</time>
      </trkpt>
      <trkpt lat="44.54586" lon="6.45277">
        <ele>781.7</ele>
        <time>2012-10-07T08:26:06Z</time>
      </trkpt>
      <trkpt lat="44.54581" lon="6.45264">
        <ele>782.3</ele>
        <time>2012-10-07T08:26:09Z</time>
      </trkpt>
      <trkpt lat="44.54575" lon="6.45251">
        <ele>782.8</ele>
        <time>2012-10-07T08:26:12Z</time>
      </trkpt>
      <trkpt lat="44.5457" lon="6.4524">
        <ele>783.4</ele>
        <time>2012-10-07T08:26:14Z</time>
      </trkpt>
      <trkpt lat="44.54567" lon="6.45228">
        <ele>783.9</ele>
        <time>2012-10-07T08:26:16Z</time>
      </trkpt>
      <trkpt lat="44.54562" lon="6.45214">
        <ele>784.1</ele>
        <time>2012-10-07T08:26:19Z</time>
      </trkpt>
      <trkpt lat="44.54556" lon="6.45201">
        <ele>784.4</ele>
        <time>2012-10-07T08:26:22Z</time>
      </trkpt>
      <trkpt lat="44.54552" lon="6.45184">
        <ele>784.6</ele>
        <time>2012-10-07T08:26:25Z</time>
      </trkpt>
      <trkpt lat="44.54551" lon="6.45171">
        <ele>784.9</ele>
        <time>2012-10-07T08:26:27Z</time>
      </trkpt>
      <trkpt lat="44.54554" lon="6.45152">
        <ele>785.2</ele>
        <time>2012-10-07T08:26:30Z</time>
      </trkpt>
      <trkpt lat="44.5456" lon="6.45139">
        <ele>785.5</ele>
        <time>2012-10-07T08:26:33Z</time>
      </trkpt>
      <trkpt lat="44.5456" lon="6.45126">
        <ele>785.5</ele>
        <time>2012-10-07T08:26:38Z</time>
      </trkpt>
      <trkpt lat="44.54563" lon="6.45112">
        <ele>785.6</ele>
        <time>2012-10-07T08:26:44Z</time>
      </trkpt>
      <trkpt lat="44.54572" lon="6.45104">
        <ele>785.7</ele>
        <time>2012-10-07T08:26:48Z</time>
      </trkpt>
      <trkpt lat="44.54568" lon="6.45092">
        <ele>785.5</ele>
        <time>2012-10-07T08:26:53Z</time>
      </trkpt>
      <trkpt lat="44.54563" lon="6.45079">
        <ele>785.2</ele>
        <time>2012-10-07T08:26:57Z</time>
      </trkpt>
      <trkpt lat="44.54563" lon="6.45065">
        <ele>785.7</ele>
        <time>2012-10-07T08:27:02Z</time>
      </trkpt>
      <trkpt lat="44.54553" lon="6.45061">
        <ele>786.8</ele>
        <time>2012-10-07T08:27:07Z</time>
      </trkpt>
      <trkpt lat="44.54543" lon="6.45064">
        <ele>787.9</ele>
        <time>2012-10-07T08:27:10Z</time>
      </trkpt>
      <trkpt lat="44.54533" lon="6.45065">
        <ele>789</ele>
        <time>2012-10-07T08:27:14Z</time>
      </trkpt>
      <trkpt lat="44.5453" lon="6.45052">
        <ele>789.5</ele>
        <time>2012-10-07T08:27:20Z</time>
      </trkpt>
      <trkpt lat="44.54539" lon="6.45047">
        <ele>789.9</ele>
        <time>2012-10-07T08:27:26Z</time>
      </trkpt>
      <trkpt lat="44.54547" lon="6.45042">
        <ele>790.4</ele>
        <time>2012-10-07T08:27:30Z</time>
      </trkpt>
      <trkpt lat="44.54552" lon="6.45031">
        <ele>790.8</ele>
        <time>2012-10-07T08:27:37Z</time>
      </trkpt>
      <trkpt lat="44.54544" lon="6.45023">
        <ele>791.3</ele>
        <time>2012-10-07T08:27:44Z</time>
      </trkpt>
      <trkpt lat="44.54534" lon="6.45019">
        <ele>792.1</ele>
        <time>2012-10-07T08:27:50Z</time>
      </trkpt>
      <trkpt lat="44.54525" lon="6.4502">
        <ele>792.9</ele>
        <time>2012-10-07T08:27:55Z</time>
      </trkpt>
      <trkpt lat="44.54515" lon="6.4502">
        <ele>793.7</ele>
        <time>2012-10-07T08:28:01Z</time>
      </trkpt>
      <trkpt lat="44.5451" lon="6.45008">
        <ele>793.9</ele>
        <time>2012-10-07T08:28:07Z</time>
      </trkpt>
      <trkpt lat="44.54511" lon="6.44995">
        <ele>795.5</ele>
        <time>2012-10-07T08:28:13Z</time>
      </trkpt>
      <trkpt lat="44.54516" lon="6.44982">
        <ele>797</ele>
        <time>2012-10-07T08:28:19Z</time>
      </trkpt>
      <trkpt lat="44.54523" lon="6.44972">
        <ele>799.2</ele>
        <time>2012-10-07T08:28:25Z</time>
      </trkpt>
      <trkpt lat="44.54532" lon="6.44964">
        <ele>801.4</ele>
        <time>2012-10-07T08:28:30Z</time>
      </trkpt>
      <trkpt lat="44.5454" lon="6.44956">
        <ele>803.5</ele>
        <time>2012-10-07T08:28:36Z</time>
      </trkpt>
      <trkpt lat="44.54548" lon="6.44948">
        <ele>805.7</ele>
        <time>2012-10-07T08:28:42Z</time>
      </trkpt>
      <trkpt lat="44.54556" lon="6.44941">
        <ele>809</ele>
        <time>2012-10-07T08:28:48Z</time>
      </trkpt>
      <trkpt lat="44.54563" lon="6.44932">
        <ele>812.3</ele>
        <time>2012-10-07T08:28:54Z</time>
      </trkpt>
      <trkpt lat="44.5457" lon="6.44923">
        <ele>815.5</ele>
        <time>2012-10-07T08:29:00Z</time>
      </trkpt>
      <trkpt lat="44.54576" lon="6.44913">
        <ele>818</ele>
        <time>2012-10-07T08:29:06Z</time>
      </trkpt>
      <trkpt lat="44.54578" lon="6.44899">
        <ele>820.5</ele>
        <time>2012-10-07T08:29:14Z</time>
      </trkpt>
      <trkpt lat="44.5458" lon="6.44886">
        <ele>820.4</ele>
        <time>2012-10-07T08:29:20Z</time>
      </trkpt>
      <trkpt lat="44.54575" lon="6.44875">
        <ele>820.3</ele>
        <time>2012-10-07T08:29:27Z</time>
      </trkpt>
      <trkpt lat="44.54566" lon="6.44882">
        <ele>820.2</ele>
        <time>2012-10-07T08:29:41Z</time>
      </trkpt>
      <trkpt lat="44.54555" lon="6.44885">
        <ele>820.1</ele>
        <time>2012-10-07T08:29:45Z</time>
      </trkpt>
      <trkpt lat="44.54545" lon="6.44883">
        <ele>820</ele>
        <time>2012-10-07T08:29:49Z</time>
      </trkpt>
      <trkpt lat="44.54535" lon="6.44879">
        <ele>819.9</ele>
        <time>2012-10-07T08:29:55Z</time>
      </trkpt>
      <trkpt lat="44.54527" lon="6.44872">
        <ele>818.7</ele>
        <time>2012-10-07T08:30:00Z</time>
      </trkpt>
      <trkpt lat="44.54517" lon="6.4487">
        <ele>818.7</ele>
        <time>2012-10-07T08:30:06Z</time>
      </trkpt>
      <trkpt lat="44.54512" lon="6.44859">
        <ele>818.7</ele>
        <time>2012-10-07T08:30:15Z</time>
      </trkpt>
      <trkpt lat="44.54519" lon="6.44847">
        <ele>818.7</ele>
        <time>2012-10-07T08:30:22Z</time>
      </trkpt>
      <trkpt lat="44.54528" lon="6.44847">
        <ele>818.7</ele>
        <time>2012-10-07T08:30:31Z</time>
      </trkpt>
      <trkpt lat="44.54536" lon="6.44853">
        <ele>819.9</ele>
        <time>2012-10-07T08:30:38Z</time>
      </trkpt>
      <trkpt lat="44.54545" lon="6.44857">
        <ele>821.1</ele>
        <time>2012-10-07T08:30:45Z</time>
      </trkpt>
      <trkpt lat="44.54553" lon="6.44849">
        <ele>822.3</ele>
        <time>2012-10-07T08:30:51Z</time>
      </trkpt>
      <trkpt lat="44.54559" lon="6.44838">
        <ele>823.5</ele>
        <time>2012-10-07T08:30:58Z</time>
      </trkpt>
      <trkpt lat="44.54566" lon="6.44827">
        <ele>824.6</ele>
        <time>2012-10-07T08:31:05Z</time>
      </trkpt>
      <trkpt lat="44.54573" lon="6.4482">
        <ele>825.8</ele>
        <time>2012-10-07T08:31:14Z</time>
      </trkpt>
      <trkpt lat="44.54584" lon="6.4482">
        <ele>827</ele>
        <time>2012-10-07T08:31:20Z</time>
      </trkpt>
      <trkpt lat="44.54592" lon="6.44826">
        <ele>829.2</ele>
        <time>2012-10-07T08:31:28Z</time>
      </trkpt>
      <trkpt lat="44.54599" lon="6.44835">
        <ele>831.4</ele>
        <time>2012-10-07T08:31:34Z</time>
      </trkpt>
      <trkpt lat="44.54607" lon="6.44838">
        <ele>833.5</ele>
        <time>2012-10-07T08:31:42Z</time>
      </trkpt>
      <trkpt lat="44.54614" lon="6.44828">
        <ele>835.7</ele>
        <time>2012-10-07T08:31:50Z</time>
      </trkpt>
      <trkpt lat="44.54613" lon="6.44815">
        <ele>837.9</ele>
        <time>2012-10-07T08:31:56Z</time>
      </trkpt>
      <trkpt lat="44.54608" lon="6.44803">
        <ele>840.1</ele>
        <time>2012-10-07T08:32:03Z</time>
      </trkpt>
      <trkpt lat="44.54601" lon="6.44794">
        <ele>842.3</ele>
        <time>2012-10-07T08:32:10Z</time>
      </trkpt>
      <trkpt lat="44.54593" lon="6.44788">
        <ele>844.5</ele>
        <time>2012-10-07T08:32:18Z</time>
      </trkpt>
      <trkpt lat="44.54582" lon="6.44785">
        <ele>844.4</ele>
        <time>2012-10-07T08:32:26Z</time>
      </trkpt>
      <trkpt lat="44.54572" lon="6.44785">
        <ele>844.3</ele>
        <time>2012-10-07T08:32:36Z</time>
      </trkpt>
      <trkpt lat="44.54563" lon="6.44786">
        <ele>844.2</ele>
        <time>2012-10-07T08:32:43Z</time>
      </trkpt>
      <trkpt lat="44.54553" lon="6.4479">
        <ele>841.9</ele>
        <time>2012-10-07T08:32:48Z</time>
      </trkpt>
      <trkpt lat="44.54544" lon="6.44797">
        <ele>839.6</ele>
        <time>2012-10-07T08:32:54Z</time>
      </trkpt>
      <trkpt lat="44.54535" lon="6.44802">
        <ele>837.4</ele>
        <time>2012-10-07T08:33:00Z</time>
      </trkpt>
      <trkpt lat="44.54526" lon="6.44799">
        <ele>835.1</ele>
        <time>2012-10-07T08:33:04Z</time>
      </trkpt>
      <trkpt lat="44.54518" lon="6.44793">
        <ele>832.8</ele>
        <time>2012-10-07T08:33:10Z</time>
      </trkpt>
      <trkpt lat="44.5451" lon="6.44785">
        <ele>832.8</ele>
        <time>2012-10-07T08:33:16Z</time>
      </trkpt>
      <trkpt lat="44.5451" lon="6.44771">
        <ele>832.8</ele>
        <time>2012-10-07T08:33:24Z</time>
      </trkpt>
      <trkpt lat="44.5452" lon="6.44772">
        <ele>832.8</ele>
        <time>2012-10-07T08:33:31Z</time>
      </trkpt>
      <trkpt lat="44.5453" lon="6.44775">
        <ele>835.1</ele>
        <time>2012-10-07T08:33:38Z</time>
      </trkpt>
      <trkpt lat="44.54539" lon="6.44771">
        <ele>837.4</ele>
        <time>2012-10-07T08:33:45Z</time>
      </trkpt>
      <trkpt lat="44.54549" lon="6.44765">
        <ele>839.6</ele>
        <time>2012-10-07T08:33:51Z</time>
      </trkpt>
      <trkpt lat="44.54557" lon="6.44757">
        <ele>841.9</ele>
        <time>2012-10-07T08:33:58Z</time>
      </trkpt>
      <trkpt lat="44.54567" lon="6.44753">
        <ele>844.2</ele>
        <time>2012-10-07T08:34:04Z</time>
      </trkpt>
      <trkpt lat="44.54576" lon="6.44747">
        <ele>846.5</ele>
        <time>2012-10-07T08:34:10Z</time>
      </trkpt>
      <trkpt lat="44.54584" lon="6.44739">
        <ele>848.7</ele>
        <time>2012-10-07T08:34:16Z</time>
      </trkpt>
      <trkpt lat="44.54591" lon="6.4473">
        <ele>852.4</ele>
        <time>2012-10-07T08:34:21Z</time>
      </trkpt>
      <trkpt lat="44.54598" lon="6.44721">
        <ele>853.7</ele>
        <time>2012-10-07T08:34:27Z</time>
      </trkpt>
      <trkpt lat="44.54606" lon="6.44713">
        <ele>855.1</ele>
        <time>2012-10-07T08:34:34Z</time>
      </trkpt>
      <trkpt lat="44.54615" lon="6.44711">
        <ele>856.5</ele>
        <time>2012-10-07T08:34:41Z</time>
      </trkpt>
      <trkpt lat="44.54624" lon="6.44717">
        <ele>857.8</ele>
        <time>2012-10-07T08:34:47Z</time>
      </trkpt>
      <trkpt lat="44.54633" lon="6.44725">
        <ele>859.2</ele>
        <time>2012-10-07T08:34:54Z</time>
      </trkpt>
      <trkpt lat="44.54641" lon="6.44732">
        <ele>860.5</ele>
        <time>2012-10-07T08:35:00Z</time>
      </trkpt>
      <trkpt lat="44.54648" lon="6.44743">
        <ele>861.9</ele>
        <time>2012-10-07T08:35:06Z</time>
      </trkpt>
      <trkpt lat="44.54654" lon="6.44754">
        <ele>863.3</ele>
        <time>2012-10-07T08:35:14Z</time>
      </trkpt>
      <trkpt lat="44.54661" lon="6.44763">
        <ele>864.6</ele>
        <time>2012-10-07T08:35:20Z</time>
      </trkpt>
      <trkpt lat="44.5467" lon="6.4477">
        <ele>866</ele>
        <time>2012-10-07T08:35:28Z</time>
      </trkpt>
      <trkpt lat="44.54674" lon="6.44759">
        <ele>867.4</ele>
        <time>2012-10-07T08:35:39Z</time>
      </trkpt>
      <trkpt lat="44.54668" lon="6.44749">
        <ele>868.7</ele>
        <time>2012-10-07T08:35:45Z</time>
      </trkpt>
      <trkpt lat="44.54661" lon="6.44738">
        <ele>870.1</ele>
        <time>2012-10-07T08:35:51Z</time>
      </trkpt>
      <trkpt lat="44.5466" lon="6.44725">
        <ele>871.5</ele>
        <time>2012-10-07T08:35:57Z</time>
      </trkpt>
      <trkpt lat="44.54661" lon="6.4471">
        <ele>872.8</ele>
        <time>2012-10-07T08:36:03Z</time>
      </trkpt>
      <trkpt lat="44.54661" lon="6.44696">
        <ele>873.2</ele>
        <time>2012-10-07T08:36:10Z</time>
      </trkpt>
      <trkpt lat="44.54656" lon="6.44684">
        <ele>873.5</ele>
        <time>2012-10-07T08:36:16Z</time>
      </trkpt>
      <trkpt lat="44.5465" lon="6.44673">
        <ele>873.9</ele>
        <time>2012-10-07T08:36:22Z</time>
      </trkpt>
      <trkpt lat="44.54643" lon="6.44664">
        <ele>874.3</ele>
        <time>2012-10-07T08:36:28Z</time>
      </trkpt>
      <trkpt lat="44.54634" lon="6.4466">
        <ele>874.6</ele>
        <time>2012-10-07T08:36:35Z</time>
      </trkpt>
      <trkpt lat="44.54625" lon="6.44653">
        <ele>875</ele>
        <time>2012-10-07T08:36:41Z</time>
      </trkpt>
      <trkpt lat="44.54615" lon="6.44651">
        <ele>874</ele>
        <time>2012-10-07T08:36:50Z</time>
      </trkpt>
      <trkpt lat="44.54606" lon="6.44655">
        <ele>873.6</ele>
        <time>2012-10-07T08:36:57Z</time>
      </trkpt>
      <trkpt lat="44.54597" lon="6.44658">
        <ele>873.3</ele>
        <time>2012-10-07T08:37:04Z</time>
      </trkpt>
      <trkpt lat="44.54588" lon="6.44653">
        <ele>872.9</ele>
        <time>2012-10-07T08:37:09Z</time>
      </trkpt>
      <trkpt lat="44.54581" lon="6.44645">
        <ele>872.5</ele>
        <time>2012-10-07T08:37:14Z</time>
      </trkpt>
      <trkpt lat="44.54574" lon="6.44636">
        <ele>873.2</ele>
        <time>2012-10-07T08:37:20Z</time>
      </trkpt>
      <trkpt lat="44.54569" lon="6.44623">
        <ele>873.8</ele>
        <time>2012-10-07T08:37:27Z</time>
      </trkpt>
      <trkpt lat="44.54568" lon="6.4461">
        <ele>874.5</ele>
        <time>2012-10-07T08:37:33Z</time>
      </trkpt>
      <trkpt lat="44.54571" lon="6.44596">
        <ele>876</ele>
        <time>2012-10-07T08:37:39Z</time>
      </trkpt>
      <trkpt lat="44.54573" lon="6.44584">
        <ele>877.5</ele>
        <time>2012-10-07T08:37:44Z</time>
      </trkpt>
      <trkpt lat="44.54576" lon="6.44571">
        <ele>879.1</ele>
        <time>2012-10-07T08:37:49Z</time>
      </trkpt>
      <trkpt lat="44.54577" lon="6.44557">
        <ele>880.6</ele>
        <time>2012-10-07T08:37:56Z</time>
      </trkpt>
      <trkpt lat="44.54574" lon="6.44544">
        <ele>881.5</ele>
        <time>2012-10-07T08:38:01Z</time>
      </trkpt>
      <trkpt lat="44.54567" lon="6.44534">
        <ele>882.5</ele>
        <time>2012-10-07T08:38:07Z</time>
      </trkpt>
      <trkpt lat="44.54561" lon="6.44521">
        <ele>883.4</ele>
        <time>2012-10-07T08:38:13Z</time>
      </trkpt>
      <trkpt lat="44.54559" lon="6.44508">
        <ele>884.3</ele>
        <time>2012-10-07T08:38:19Z</time>
      </trkpt>
      <trkpt lat="44.54558" lon="6.44494">
        <ele>885.2</ele>
        <time>2012-10-07T08:38:25Z</time>
      </trkpt>
      <trkpt lat="44.54561" lon="6.4448">
        <ele>886.1</ele>
        <time>2012-10-07T08:38:32Z</time>
      </trkpt>
      <trkpt lat="44.54569" lon="6.44487">
        <ele>887</ele>
        <time>2012-10-07T08:38:41Z</time>
      </trkpt>
      <trkpt lat="44.54573" lon="6.44499">
        <ele>886.1</ele>
        <time>2012-10-07T08:38:46Z</time>
      </trkpt>
      <trkpt lat="44.54579" lon="6.4451">
        <ele>885.2</ele>
        <time>2012-10-07T08:38:52Z</time>
      </trkpt>
      <trkpt lat="44.54585" lon="6.4452">
        <ele>884.3</ele>
        <time>2012-10-07T08:38:57Z</time>
      </trkpt>
      <trkpt lat="44.54592" lon="6.44528">
        <ele>883.4</ele>
        <time>2012-10-07T08:39:03Z</time>
      </trkpt>
      <trkpt lat="44.546" lon="6.44537">
        <ele>884</ele>
        <time>2012-10-07T08:39:08Z</time>
      </trkpt>
      <trkpt lat="44.54607" lon="6.44547">
        <ele>884.6</ele>
        <time>2012-10-07T08:39:14Z</time>
      </trkpt>
      <trkpt lat="44.54615" lon="6.44555">
        <ele>885.3</ele>
        <time>2012-10-07T08:39:21Z</time>
      </trkpt>
      <trkpt lat="44.54623" lon="6.44562">
        <ele>885.9</ele>
        <time>2012-10-07T08:39:28Z</time>
      </trkpt>
      <trkpt lat="44.54631" lon="6.44569">
        <ele>886.5</ele>
        <time>2012-10-07T08:39:34Z</time>
      </trkpt>
      <trkpt lat="44.54641" lon="6.44571">
        <ele>887.2</ele>
        <time>2012-10-07T08:39:42Z</time>
      </trkpt>
      <trkpt lat="44.54651" lon="6.44567">
        <ele>889.5</ele>
        <time>2012-10-07T08:39:49Z</time>
      </trkpt>
      <trkpt lat="44.5466" lon="6.44561">
        <ele>892.8</ele>
        <time>2012-10-07T08:39:55Z</time>
      </trkpt>
      <trkpt lat="44.54668" lon="6.44555">
        <ele>896.1</ele>
        <time>2012-10-07T08:40:01Z</time>
      </trkpt>
      <trkpt lat="44.54678" lon="6.44551">
        <ele>899.4</ele>
        <time>2012-10-07T08:40:08Z</time>
      </trkpt>
      <trkpt lat="44.54688" lon="6.44548">
        <ele>902.6</ele>
        <time>2012-10-07T08:40:16Z</time>
      </trkpt>
      <trkpt lat="44.54685" lon="6.44536">
        <ele>904.4</ele>
        <time>2012-10-07T08:40:28Z</time>
      </trkpt>
      <trkpt lat="44.54675" lon="6.4454">
        <ele>906.1</ele>
        <time>2012-10-07T08:40:35Z</time>
      </trkpt>
      <trkpt lat="44.54665" lon="6.44539">
        <ele>907.8</ele>
        <time>2012-10-07T08:40:41Z</time>
      </trkpt>
      <trkpt lat="44.54657" lon="6.44532">
        <ele>909.5</ele>
        <time>2012-10-07T08:40:47Z</time>
      </trkpt>
      <trkpt lat="44.54652" lon="6.44521">
        <ele>911.9</ele>
        <time>2012-10-07T08:40:54Z</time>
      </trkpt>
      <trkpt lat="44.54648" lon="6.44508">
        <ele>914.3</ele>
        <time>2012-10-07T08:41:01Z</time>
      </trkpt>
      <trkpt lat="44.54645" lon="6.44495">
        <ele>914.9</ele>
        <time>2012-10-07T08:41:07Z</time>
      </trkpt>
      <trkpt lat="44.54642" lon="6.44483">
        <ele>915.5</ele>
        <time>2012-10-07T08:41:13Z</time>
      </trkpt>
      <trkpt lat="44.54639" lon="6.44471">
        <ele>916.2</ele>
        <time>2012-10-07T08:41:19Z</time>
      </trkpt>
      <trkpt lat="44.54637" lon="6.44458">
        <ele>916.8</ele>
        <time>2012-10-07T08:41:28Z</time>
      </trkpt>
      <trkpt lat="44.54636" lon="6.44444">
        <ele>918.4</ele>
        <time>2012-10-07T08:41:35Z</time>
      </trkpt>
      <trkpt lat="44.54633" lon="6.44431">
        <ele>919.9</ele>
        <time>2012-10-07T08:41:42Z</time>
      </trkpt>
      <trkpt lat="44.54632" lon="6.44416">
        <ele>921.5</ele>
        <time>2012-10-07T08:41:49Z</time>
      </trkpt>
      <trkpt lat="44.54633" lon="6.44403">
        <ele>923</ele>
        <time>2012-10-07T08:41:54Z</time>
      </trkpt>
      <trkpt lat="44.54636" lon="6.44391">
        <ele>924.5</ele>
        <time>2012-10-07T08:42:01Z</time>
      </trkpt>
      <trkpt lat="44.54637" lon="6.44378">
        <ele>925.5</ele>
        <time>2012-10-07T08:42:09Z</time>
      </trkpt>
      <trkpt lat="44.54637" lon="6.44364">
        <ele>926.6</ele>
        <time>2012-10-07T08:42:17Z</time>
      </trkpt>
      <trkpt lat="44.54637" lon="6.4435">
        <ele>927.8</ele>
        <time>2012-10-07T08:42:26Z</time>
      </trkpt>
      <trkpt lat="44.54637" lon="6.44337">
        <ele>929</ele>
        <time>2012-10-07T08:42:33Z</time>
      </trkpt>
      <trkpt lat="44.54638" lon="6.44324">
        <ele>930.2</ele>
        <time>2012-10-07T08:42:40Z</time>
      </trkpt>
      <trkpt lat="44.54641" lon="6.4431">
        <ele>931.4</ele>
        <time>2012-10-07T08:42:48Z</time>
      </trkpt>
      <trkpt lat="44.54643" lon="6.44297">
        <ele>931.6</ele>
        <time>2012-10-07T08:42:55Z</time>
      </trkpt>
      <trkpt lat="44.54646" lon="6.44285">
        <ele>931.9</ele>
        <time>2012-10-07T08:43:02Z</time>
      </trkpt>
      <trkpt lat="44.54648" lon="6.44272">
        <ele>932.2</ele>
        <time>2012-10-07T08:43:11Z</time>
      </trkpt>
      <trkpt lat="44.54649" lon="6.44258">
        <ele>932.5</ele>
        <time>2012-10-07T08:43:21Z</time>
      </trkpt>
      <trkpt lat="44.54649" lon="6.44245">
        <ele>932.7</ele>
        <time>2012-10-07T08:43:30Z</time>
      </trkpt>
      <trkpt lat="44.54649" lon="6.44231">
        <ele>933</ele>
        <time>2012-10-07T08:43:37Z</time>
      </trkpt>
      <trkpt lat="44.54654" lon="6.44219">
        <ele>933</ele>
        <time>2012-10-07T08:43:43Z</time>
      </trkpt>
      <trkpt lat="44.54662" lon="6.44225">
        <ele>933</ele>
        <time>2012-10-07T08:43:51Z</time>
      </trkpt>
      <trkpt lat="44.54664" lon="6.44239">
        <ele>932.7</ele>
        <time>2012-10-07T08:43:59Z</time>
      </trkpt>
      <trkpt lat="44.54667" lon="6.44252">
        <ele>932.5</ele>
        <time>2012-10-07T08:44:05Z</time>
      </trkpt>
      <trkpt lat="44.54669" lon="6.44265">
        <ele>932.2</ele>
        <time>2012-10-07T08:44:13Z</time>
      </trkpt>
      <trkpt lat="44.54674" lon="6.44278">
        <ele>931.9</ele>
        <time>2012-10-07T08:44:21Z</time>
      </trkpt>
      <trkpt lat="44.54678" lon="6.4429">
        <ele>931.6</ele>
        <time>2012-10-07T08:44:28Z</time>
      </trkpt>
      <trkpt lat="44.54681" lon="6.44303">
        <ele>931.4</ele>
        <time>2012-10-07T08:44:35Z</time>
      </trkpt>
      <trkpt lat="44.54685" lon="6.44315">
        <ele>933</ele>
        <time>2012-10-07T08:44:42Z</time>
      </trkpt>
      <trkpt lat="44.5469" lon="6.44327">
        <ele>934.6</ele>
        <time>2012-10-07T08:44:49Z</time>
      </trkpt>
      <trkpt lat="44.54697" lon="6.44336">
        <ele>936.3</ele>
        <time>2012-10-07T08:44:57Z</time>
      </trkpt>
      <trkpt lat="44.54704" lon="6.44345">
        <ele>937.9</ele>
        <time>2012-10-07T08:45:04Z</time>
      </trkpt>
      <trkpt lat="44.54711" lon="6.44354">
        <ele>939.5</ele>
        <time>2012-10-07T08:45:12Z</time>
      </trkpt>
      <trkpt lat="44.54718" lon="6.44362">
        <ele>941.5</ele>
        <time>2012-10-07T08:45:19Z</time>
      </trkpt>
      <trkpt lat="44.54727" lon="6.44369">
        <ele>943.4</ele>
        <time>2012-10-07T08:45:28Z</time>
      </trkpt>
      <trkpt lat="44.54733" lon="6.44358">
        <ele>946</ele>
        <time>2012-10-07T08:45:34Z</time>
      </trkpt>
      <trkpt lat="44.54731" lon="6.44343">
        <ele>948.6</ele>
        <time>2012-10-07T08:45:42Z</time>
      </trkpt>
      <trkpt lat="44.54726" lon="6.44332">
        <ele>951.3</ele>
        <time>2012-10-07T08:45:49Z</time>
      </trkpt>
      <trkpt lat="44.54725" lon="6.44319">
        <ele>953.9</ele>
        <time>2012-10-07T08:45:56Z</time>
      </trkpt>
      <trkpt lat="44.54723" lon="6.44306">
        <ele>954.6</ele>
        <time>2012-10-07T08:46:03Z</time>
      </trkpt>
      <trkpt lat="44.54722" lon="6.44292">
        <ele>955.4</ele>
        <time>2012-10-07T08:46:12Z</time>
      </trkpt>
      <trkpt lat="44.5472" lon="6.44278">
        <ele>956.6</ele>
        <time>2012-10-07T08:46:21Z</time>
      </trkpt>
      <trkpt lat="44.54723" lon="6.44265">
        <ele>957.9</ele>
        <time>2012-10-07T08:46:27Z</time>
      </trkpt>
      <trkpt lat="44.54724" lon="6.44252">
        <ele>959.2</ele>
        <time>2012-10-07T08:46:34Z</time>
      </trkpt>
      <trkpt lat="44.54724" lon="6.44237">
        <ele>960.5</ele>
        <time>2012-10-07T08:46:42Z</time>
      </trkpt>
      <trkpt lat="44.54726" lon="6.44223">
        <ele>961.7</ele>
        <time>2012-10-07T08:46:47Z</time>
      </trkpt>
      <trkpt lat="44.54726" lon="6.44208">
        <ele>962.3</ele>
        <time>2012-10-07T08:46:54Z</time>
      </trkpt>
      <trkpt lat="44.54725" lon="6.44195">
        <ele>963.5</ele>
        <time>2012-10-07T08:47:00Z</time>
      </trkpt>
      <trkpt lat="44.54724" lon="6.44181">
        <ele>964.8</ele>
        <time>2012-10-07T08:47:06Z</time>
      </trkpt>
      <trkpt lat="44.54723" lon="6.44168">
        <ele>966.1</ele>
        <time>2012-10-07T08:47:13Z</time>
      </trkpt>
      <trkpt lat="44.54726" lon="6.44153">
        <ele>967.4</ele>
        <time>2012-10-07T08:47:19Z</time>
      </trkpt>
      <trkpt lat="44.5473" lon="6.44141">
        <ele>966.2</ele>
        <time>2012-10-07T08:47:25Z</time>
      </trkpt>
      <trkpt lat="44.54731" lon="6.44127">
        <ele>964.5</ele>
        <time>2012-10-07T08:47:32Z</time>
      </trkpt>
      <trkpt lat="44.54726" lon="6.44114">
        <ele>962.9</ele>
        <time>2012-10-07T08:47:39Z</time>
      </trkpt>
      <trkpt lat="44.54721" lon="6.44102">
        <ele>961.4</ele>
        <time>2012-10-07T08:47:46Z</time>
      </trkpt>
      <trkpt lat="44.54717" lon="6.44089">
        <ele>959.8</ele>
        <time>2012-10-07T08:47:53Z</time>
      </trkpt>
      <trkpt lat="44.54713" lon="6.44076">
        <ele>958.3</ele>
        <time>2012-10-07T08:48:00Z</time>
      </trkpt>
      <trkpt lat="44.5471" lon="6.44063">
        <ele>956.7</ele>
        <time>2012-10-07T08:48:07Z</time>
      </trkpt>
      <trkpt lat="44.54709" lon="6.44049">
        <ele>954.5</ele>
        <time>2012-10-07T08:48:14Z</time>
      </trkpt>
      <trkpt lat="44.54709" lon="6.44035">
        <ele>952.5</ele>
        <time>2012-10-07T08:48:21Z</time>
      </trkpt>
      <trkpt lat="44.54709" lon="6.4402">
        <ele>952.4</ele>
        <time>2012-10-07T08:48:28Z</time>
      </trkpt>
      <trkpt lat="44.54709" lon="6.44007">
        <ele>952.3</ele>
        <time>2012-10-07T08:48:35Z</time>
      </trkpt>
      <trkpt lat="44.54709" lon="6.43993">
        <ele>954.6</ele>
        <time>2012-10-07T08:48:41Z</time>
      </trkpt>
      <trkpt lat="44.54711" lon="6.43979">
        <ele>957</ele>
        <time>2012-10-07T08:48:48Z</time>
      </trkpt>
      <trkpt lat="44.54712" lon="6.43966">
        <ele>959.2</ele>
        <time>2012-10-07T08:48:56Z</time>
      </trkpt>
      <trkpt lat="44.54716" lon="6.43952">
        <ele>961.4</ele>
        <time>2012-10-07T08:49:04Z</time>
      </trkpt>
      <trkpt lat="44.54723" lon="6.43942">
        <ele>963.5</ele>
        <time>2012-10-07T08:49:11Z</time>
      </trkpt>
      <trkpt lat="44.5473" lon="6.43931">
        <ele>965.7</ele>
        <time>2012-10-07T08:49:18Z</time>
      </trkpt>
      <trkpt lat="44.54737" lon="6.43921">
        <ele>967.9</ele>
        <time>2012-10-07T08:49:29Z</time>
      </trkpt>
      <trkpt lat="44.54746" lon="6.43913">
        <ele>970.1</ele>
        <time>2012-10-07T08:49:37Z</time>
      </trkpt>
      <trkpt lat="44.54756" lon="6.4391">
        <ele>974.3</ele>
        <time>2012-10-07T08:49:44Z</time>
      </trkpt>
      <trkpt lat="44.54765" lon="6.4391">
        <ele>975.5</ele>
        <time>2012-10-07T08:49:49Z</time>
      </trkpt>
      <trkpt lat="44.54774" lon="6.43908">
        <ele>976.6</ele>
        <time>2012-10-07T08:49:54Z</time>
      </trkpt>
      <trkpt lat="44.54783" lon="6.43903">
        <ele>977.8</ele>
        <time>2012-10-07T08:50:01Z</time>
      </trkpt>
      <trkpt lat="44.54791" lon="6.43896">
        <ele>979</ele>
        <time>2012-10-07T08:50:08Z</time>
      </trkpt>
      <trkpt lat="44.548" lon="6.43889">
        <ele>980.2</ele>
        <time>2012-10-07T08:50:14Z</time>
      </trkpt>
      <trkpt lat="44.54807" lon="6.43879">
        <ele>981.4</ele>
        <time>2012-10-07T08:50:21Z</time>
      </trkpt>
      <trkpt lat="44.54816" lon="6.43873">
        <ele>982.5</ele>
        <time>2012-10-07T08:50:27Z</time>
      </trkpt>
      <trkpt lat="44.54823" lon="6.43863">
        <ele>983.7</ele>
        <time>2012-10-07T08:50:34Z</time>
      </trkpt>
      <trkpt lat="44.5483" lon="6.43855">
        <ele>984.3</ele>
        <time>2012-10-07T08:50:39Z</time>
      </trkpt>
      <trkpt lat="44.54839" lon="6.43848">
        <ele>984.8</ele>
        <time>2012-10-07T08:50:46Z</time>
      </trkpt>
      <trkpt lat="44.54844" lon="6.43835">
        <ele>983.1</ele>
        <time>2012-10-07T08:50:52Z</time>
      </trkpt>
      <trkpt lat="44.54847" lon="6.43821">
        <ele>982.5</ele>
        <time>2012-10-07T08:50:57Z</time>
      </trkpt>
      <trkpt lat="44.54851" lon="6.43809">
        <ele>981.8</ele>
        <time>2012-10-07T08:51:03Z</time>
      </trkpt>
      <trkpt lat="44.54853" lon="6.43796">
        <ele>981.2</ele>
        <time>2012-10-07T08:51:11Z</time>
      </trkpt>
      <trkpt lat="44.54858" lon="6.43783">
        <ele>980.5</ele>
        <time>2012-10-07T08:51:17Z</time>
      </trkpt>
      <trkpt lat="44.54864" lon="6.43772">
        <ele>983.1</ele>
        <time>2012-10-07T08:51:23Z</time>
      </trkpt>
      <trkpt lat="44.5487" lon="6.43762">
        <ele>984.7</ele>
        <time>2012-10-07T08:51:30Z</time>
      </trkpt>
      <trkpt lat="44.54876" lon="6.4375">
        <ele>986.4</ele>
        <time>2012-10-07T08:51:38Z</time>
      </trkpt>
      <trkpt lat="44.54875" lon="6.43736">
        <ele>988</ele>
        <time>2012-10-07T08:51:46Z</time>
      </trkpt>
      <trkpt lat="44.54878" lon="6.43723">
        <ele>990.3</ele>
        <time>2012-10-07T08:51:55Z</time>
      </trkpt>
      <trkpt lat="44.54882" lon="6.4371">
        <ele>992.5</ele>
        <time>2012-10-07T08:52:01Z</time>
      </trkpt>
      <trkpt lat="44.54888" lon="6.43699">
        <ele>994.8</ele>
        <time>2012-10-07T08:52:08Z</time>
      </trkpt>
      <trkpt lat="44.54892" lon="6.43688">
        <ele>997.1</ele>
        <time>2012-10-07T08:52:15Z</time>
      </trkpt>
      <trkpt lat="44.54899" lon="6.43679">
        <ele>999.4</ele>
        <time>2012-10-07T08:52:23Z</time>
      </trkpt>
      <trkpt lat="44.54907" lon="6.43671">
        <ele>1000.5</ele>
        <time>2012-10-07T08:52:30Z</time>
      </trkpt>
      <trkpt lat="44.54914" lon="6.43662">
        <ele>1001.5</ele>
        <time>2012-10-07T08:52:37Z</time>
      </trkpt>
      <trkpt lat="44.54922" lon="6.43654">
        <ele>999.5</ele>
        <time>2012-10-07T08:52:43Z</time>
      </trkpt>
      <trkpt lat="44.54929" lon="6.43644">
        <ele>999.5</ele>
        <time>2012-10-07T08:52:51Z</time>
      </trkpt>
      <trkpt lat="44.54935" lon="6.43634">
        <ele>999.5</ele>
        <time>2012-10-07T08:52:57Z</time>
      </trkpt>
      <trkpt lat="44.54939" lon="6.43621">
        <ele>999.5</ele>
        <time>2012-10-07T08:53:04Z</time>
      </trkpt>
      <trkpt lat="44.54945" lon="6.43611">
        <ele>999.5</ele>
        <time>2012-10-07T08:53:10Z</time>
      </trkpt>
      <trkpt lat="44.54953" lon="6.43619">
        <ele>999.5</ele>
        <time>2012-10-07T08:53:16Z</time>
      </trkpt>
      <trkpt lat="44.54953" lon="6.43633">
        <ele>999.5</ele>
        <time>2012-10-07T08:53:23Z</time>
      </trkpt>
      <trkpt lat="44.54948" lon="6.43645">
        <ele>1000.4</ele>
        <time>2012-10-07T08:53:31Z</time>
      </trkpt>
      <trkpt lat="44.54942" lon="6.43657">
        <ele>1001.3</ele>
        <time>2012-10-07T08:53:37Z</time>
      </trkpt>
      <trkpt lat="44.54937" lon="6.43669">
        <ele>1003.4</ele>
        <time>2012-10-07T08:53:43Z</time>
      </trkpt>
      <trkpt lat="44.54935" lon="6.43682">
        <ele>1005.5</ele>
        <time>2012-10-07T08:53:49Z</time>
      </trkpt>
      <trkpt lat="44.54934" lon="6.43695">
        <ele>1007.5</ele>
        <time>2012-10-07T08:53:55Z</time>
      </trkpt>
      <trkpt lat="44.54933" lon="6.43709">
        <ele>1008.5</ele>
        <time>2012-10-07T08:54:03Z</time>
      </trkpt>
      <trkpt lat="44.54932" lon="6.43721">
        <ele>1009.4</ele>
        <time>2012-10-07T08:54:09Z</time>
      </trkpt>
      <trkpt lat="44.54931" lon="6.43736">
        <ele>1010.3</ele>
        <time>2012-10-07T08:54:15Z</time>
      </trkpt>
      <trkpt lat="44.54928" lon="6.43748">
        <ele>1011.1</ele>
        <time>2012-10-07T08:54:23Z</time>
      </trkpt>
      <trkpt lat="44.5493" lon="6.43762">
        <ele>1011.9</ele>
        <time>2012-10-07T08:54:32Z</time>
      </trkpt>
      <trkpt lat="44.54934" lon="6.43775">
        <ele>1012.7</ele>
        <time>2012-10-07T08:54:39Z</time>
      </trkpt>
      <trkpt lat="44.54936" lon="6.43787">
        <ele>1012.6</ele>
        <time>2012-10-07T08:54:46Z</time>
      </trkpt>
      <trkpt lat="44.54936" lon="6.438">
        <ele>1012.5</ele>
        <time>2012-10-07T08:54:53Z</time>
      </trkpt>
      <trkpt lat="44.5494" lon="6.43813">
        <ele>1012.5</ele>
        <time>2012-10-07T08:55:00Z</time>
      </trkpt>
      <trkpt lat="44.54943" lon="6.43827">
        <ele>1015.1</ele>
        <time>2012-10-07T08:55:08Z</time>
      </trkpt>
      <trkpt lat="44.54944" lon="6.4384">
        <ele>1017</ele>
        <time>2012-10-07T08:55:15Z</time>
      </trkpt>
      <trkpt lat="44.54946" lon="6.43854">
        <ele>1018.9</ele>
        <time>2012-10-07T08:55:22Z</time>
      </trkpt>
      <trkpt lat="44.5495" lon="6.43866">
        <ele>1020.8</ele>
        <time>2012-10-07T08:55:29Z</time>
      </trkpt>
      <trkpt lat="44.54957" lon="6.43876">
        <ele>1022.7</ele>
        <time>2012-10-07T08:55:36Z</time>
      </trkpt>
      <trkpt lat="44.54965" lon="6.43885">
        <ele>1024.7</ele>
        <time>2012-10-07T08:55:43Z</time>
      </trkpt>
      <trkpt lat="44.54974" lon="6.43892">
        <ele>1026.7</ele>
        <time>2012-10-07T08:55:50Z</time>
      </trkpt>
      <trkpt lat="44.54982" lon="6.439">
        <ele>1028.7</ele>
        <time>2012-10-07T08:55:57Z</time>
      </trkpt>
      <trkpt lat="44.5499" lon="6.43909">
        <ele>1030.7</ele>
        <time>2012-10-07T08:56:04Z</time>
      </trkpt>
      <trkpt lat="44.54996" lon="6.43919">
        <ele>1032.7</ele>
        <time>2012-10-07T08:56:12Z</time>
      </trkpt>
      <trkpt lat="44.55003" lon="6.43928">
        <ele>1034.7</ele>
        <time>2012-10-07T08:56:20Z</time>
      </trkpt>
      <trkpt lat="44.55012" lon="6.43937">
        <ele>1034.7</ele>
        <time>2012-10-07T08:56:28Z</time>
      </trkpt>
      <trkpt lat="44.5502" lon="6.43932">
        <ele>1035.5</ele>
        <time>2012-10-07T08:56:34Z</time>
      </trkpt>
      <trkpt lat="44.5502" lon="6.43917">
        <ele>1036.2</ele>
        <time>2012-10-07T08:56:41Z</time>
      </trkpt>
      <trkpt lat="44.55014" lon="6.43906">
        <ele>1036.9</ele>
        <time>2012-10-07T08:56:47Z</time>
      </trkpt>
      <trkpt lat="44.55008" lon="6.43895">
        <ele>1037.6</ele>
        <time>2012-10-07T08:56:55Z</time>
      </trkpt>
      <trkpt lat="44.55004" lon="6.43883">
        <ele>1038.4</ele>
        <time>2012-10-07T08:57:02Z</time>
      </trkpt>
      <trkpt lat="44.55002" lon="6.43869">
        <ele>1039.5</ele>
        <time>2012-10-07T08:57:10Z</time>
      </trkpt>
      <trkpt lat="44.54999" lon="6.43856">
        <ele>1040.5</ele>
        <time>2012-10-07T08:57:18Z</time>
      </trkpt>
      <trkpt lat="44.54997" lon="6.43844">
        <ele>1041.6</ele>
        <time>2012-10-07T08:57:24Z</time>
      </trkpt>
      <trkpt lat="44.54995" lon="6.4383">
        <ele>1042.7</ele>
        <time>2012-10-07T08:57:32Z</time>
      </trkpt>
      <trkpt lat="44.54993" lon="6.43818">
        <ele>1043.8</ele>
        <time>2012-10-07T08:57:40Z</time>
      </trkpt>
      <trkpt lat="44.54991" lon="6.43804">
        <ele>1044.2</ele>
        <time>2012-10-07T08:57:48Z</time>
      </trkpt>
      <trkpt lat="44.54989" lon="6.43791">
        <ele>1044.5</ele>
        <time>2012-10-07T08:57:56Z</time>
      </trkpt>
      <trkpt lat="44.54989" lon="6.43778">
        <ele>1044.9</ele>
        <time>2012-10-07T08:58:05Z</time>
      </trkpt>
      <trkpt lat="44.5499" lon="6.43764">
        <ele>1045.3</ele>
        <time>2012-10-07T08:58:13Z</time>
      </trkpt>
      <trkpt lat="44.54992" lon="6.43751">
        <ele>1045.6</ele>
        <time>2012-10-07T08:58:20Z</time>
      </trkpt>
      <trkpt lat="44.54997" lon="6.43739">
        <ele>1046</ele>
        <time>2012-10-07T08:58:27Z</time>
      </trkpt>
      <trkpt lat="44.55004" lon="6.4373">
        <ele>1046</ele>
        <time>2012-10-07T08:58:35Z</time>
      </trkpt>
      <trkpt lat="44.55013" lon="6.43735">
        <ele>1046</ele>
        <time>2012-10-07T08:58:41Z</time>
      </trkpt>
      <trkpt lat="44.55017" lon="6.43747">
        <ele>1045.6</ele>
        <time>2012-10-07T08:58:48Z</time>
      </trkpt>
      <trkpt lat="44.5502" lon="6.43759">
        <ele>1045.3</ele>
        <time>2012-10-07T08:58:55Z</time>
      </trkpt>
      <trkpt lat="44.55023" lon="6.43772">
        <ele>1047.5</ele>
        <time>2012-10-07T08:59:01Z</time>
      </trkpt>
      <trkpt lat="44.55026" lon="6.43785">
        <ele>1049.8</ele>
        <time>2012-10-07T08:59:08Z</time>
      </trkpt>
      <trkpt lat="44.55031" lon="6.43796">
        <ele>1051.8</ele>
        <time>2012-10-07T08:59:16Z</time>
      </trkpt>
      <trkpt lat="44.55036" lon="6.43807">
        <ele>1053.8</ele>
        <time>2012-10-07T08:59:23Z</time>
      </trkpt>
      <trkpt lat="44.55039" lon="6.43819">
        <ele>1055.8</ele>
        <time>2012-10-07T08:59:31Z</time>
      </trkpt>
      <trkpt lat="44.55047" lon="6.43825">
        <ele>1057.8</ele>
        <time>2012-10-07T08:59:38Z</time>
      </trkpt>
      <trkpt lat="44.55052" lon="6.43815">
        <ele>1059.8</ele>
        <time>2012-10-07T08:59:46Z</time>
      </trkpt>
      <trkpt lat="44.55052" lon="6.43801">
        <ele>1061.8</ele>
        <time>2012-10-07T08:59:51Z</time>
      </trkpt>
      <trkpt lat="44.55051" lon="6.43788">
        <ele>1063.8</ele>
        <time>2012-10-07T08:59:59Z</time>
      </trkpt>
      <trkpt lat="44.5505" lon="6.43773">
        <ele>1066.2</ele>
        <time>2012-10-07T09:00:06Z</time>
      </trkpt>
      <trkpt lat="44.55049" lon="6.43759">
        <ele>1068.5</ele>
        <time>2012-10-07T09:00:13Z</time>
      </trkpt>
      <trkpt lat="44.55049" lon="6.43746">
        <ele>1068.3</ele>
        <time>2012-10-07T09:00:19Z</time>
      </trkpt>
      <trkpt lat="44.55055" lon="6.43736">
        <ele>1068</ele>
        <time>2012-10-07T09:00:26Z</time>
      </trkpt>
      <trkpt lat="44.55063" lon="6.43744">
        <ele>1068.3</ele>
        <time>2012-10-07T09:00:32Z</time>
      </trkpt>
      <trkpt lat="44.55063" lon="6.43757">
        <ele>1068.5</ele>
        <time>2012-10-07T09:00:37Z</time>
      </trkpt>
      <trkpt lat="44.55063" lon="6.43769">
        <ele>1068.8</ele>
        <time>2012-10-07T09:00:43Z</time>
      </trkpt>
      <trkpt lat="44.55065" lon="6.43782">
        <ele>1069.1</ele>
        <time>2012-10-07T09:00:50Z</time>
      </trkpt>
      <trkpt lat="44.55069" lon="6.43796">
        <ele>1069.4</ele>
        <time>2012-10-07T09:00:57Z</time>
      </trkpt>
      <trkpt lat="44.55071" lon="6.43808">
        <ele>1069.6</ele>
        <time>2012-10-07T09:01:05Z</time>
      </trkpt>
      <trkpt lat="44.55073" lon="6.4382">
        <ele>1069.9</ele>
        <time>2012-10-07T09:01:13Z</time>
      </trkpt>
      <trkpt lat="44.55077" lon="6.43832">
        <ele>1069.6</ele>
        <time>2012-10-07T09:01:22Z</time>
      </trkpt>
      <trkpt lat="44.55079" lon="6.43845">
        <ele>1069.4</ele>
        <time>2012-10-07T09:01:30Z</time>
      </trkpt>
      <trkpt lat="44.55082" lon="6.43858">
        <ele>1069.1</ele>
        <time>2012-10-07T09:01:40Z</time>
      </trkpt>
      <trkpt lat="44.55087" lon="6.43869">
        <ele>1068.8</ele>
        <time>2012-10-07T09:01:48Z</time>
      </trkpt>
      <trkpt lat="44.55091" lon="6.43881">
        <ele>1068.3</ele>
        <time>2012-10-07T09:01:56Z</time>
      </trkpt>
      <trkpt lat="44.55096" lon="6.43892">
        <ele>1068</ele>
        <time>2012-10-07T09:02:05Z</time>
      </trkpt>
      <trkpt lat="44.55103" lon="6.43903">
        <ele>1067.7</ele>
        <time>2012-10-07T09:02:14Z</time>
      </trkpt>
      <trkpt lat="44.5511" lon="6.43912">
        <ele>1067.2</ele>
        <time>2012-10-07T09:02:23Z</time>
      </trkpt>
      <trkpt lat="44.55118" lon="6.43916">
        <ele>1066.7</ele>
        <time>2012-10-07T09:02:33Z</time>
      </trkpt>
      <trkpt lat="44.5512" lon="6.43917">
        <ele>1066</ele>
        <time>2012-10-07T09:02:39Z</time>
      </trkpt>
      <trkpt lat="44.5512" lon="6.43907">
        <ele>1068</ele>
        <time>2012-10-07T09:08:36Z</time>
      </trkpt>
      <trkpt lat="44.5512" lon="6.43902">
        <ele>1068.4</ele>
        <time>2012-10-07T09:08:39Z</time>
      </trkpt>
      <trkpt lat="44.55119" lon="6.43889">
        <ele>1068.8</ele>
        <time>2012-10-07T09:08:43Z</time>
      </trkpt>
      <trkpt lat="44.55119" lon="6.43876">
        <ele>1070.7</ele>
        <time>2012-10-07T09:08:51Z</time>
      </trkpt>
      <trkpt lat="44.5512" lon="6.43863">
        <ele>1072.2</ele>
        <time>2012-10-07T09:08:58Z</time>
      </trkpt>
      <trkpt lat="44.55123" lon="6.43851">
        <ele>1073.4</ele>
        <time>2012-10-07T09:09:05Z</time>
      </trkpt>
      <trkpt lat="44.55128" lon="6.4384">
        <ele>1075.2</ele>
        <time>2012-10-07T09:09:13Z</time>
      </trkpt>
      <trkpt lat="44.55131" lon="6.43827">
        <ele>1077</ele>
        <time>2012-10-07T09:09:19Z</time>
      </trkpt>
      <trkpt lat="44.55136" lon="6.43815">
        <ele>1078.8</ele>
        <time>2012-10-07T09:09:28Z</time>
      </trkpt>
      <trkpt lat="44.55143" lon="6.43805">
        <ele>1080.1</ele>
        <time>2012-10-07T09:09:35Z</time>
      </trkpt>
      <trkpt lat="44.55151" lon="6.43796">
        <ele>1081.4</ele>
        <time>2012-10-07T09:09:43Z</time>
      </trkpt>
      <trkpt lat="44.55158" lon="6.43786">
        <ele>1082.6</ele>
        <time>2012-10-07T09:09:51Z</time>
      </trkpt>
      <trkpt lat="44.55165" lon="6.43777">
        <ele>1083.9</ele>
        <time>2012-10-07T09:09:59Z</time>
      </trkpt>
      <trkpt lat="44.55173" lon="6.43768">
        <ele>1085.2</ele>
        <time>2012-10-07T09:10:07Z</time>
      </trkpt>
      <trkpt lat="44.5518" lon="6.4376">
        <ele>1085.9</ele>
        <time>2012-10-07T09:10:14Z</time>
      </trkpt>
      <trkpt lat="44.55187" lon="6.43751">
        <ele>1086.6</ele>
        <time>2012-10-07T09:10:23Z</time>
      </trkpt>
      <trkpt lat="44.55197" lon="6.43744">
        <ele>1087.5</ele>
        <time>2012-10-07T09:10:31Z</time>
      </trkpt>
      <trkpt lat="44.55204" lon="6.43736">
        <ele>1088.3</ele>
        <time>2012-10-07T09:10:38Z</time>
      </trkpt>
      <trkpt lat="44.55213" lon="6.43732">
        <ele>1089.1</ele>
        <time>2012-10-07T09:10:46Z</time>
      </trkpt>
      <trkpt lat="44.55223" lon="6.43731">
        <ele>1089.9</ele>
        <time>2012-10-07T09:10:54Z</time>
      </trkpt>
      <trkpt lat="44.55232" lon="6.4373">
        <ele>1090.7</ele>
        <time>2012-10-07T09:10:59Z</time>
      </trkpt>
      <trkpt lat="44.55242" lon="6.4373">
        <ele>1091.5</ele>
        <time>2012-10-07T09:11:06Z</time>
      </trkpt>
      <trkpt lat="44.55252" lon="6.4373">
        <ele>1093.3</ele>
        <time>2012-10-07T09:11:12Z</time>
      </trkpt>
      <trkpt lat="44.55261" lon="6.43733">
        <ele>1095</ele>
        <time>2012-10-07T09:11:18Z</time>
      </trkpt>
      <trkpt lat="44.5527" lon="6.43735">
        <ele>1096.7</ele>
        <time>2012-10-07T09:11:24Z</time>
      </trkpt>
      <trkpt lat="44.5528" lon="6.43737">
        <ele>1097.6</ele>
        <time>2012-10-07T09:11:30Z</time>
      </trkpt>
      <trkpt lat="44.55289" lon="6.43738">
        <ele>1098.5</ele>
        <time>2012-10-07T09:11:35Z</time>
      </trkpt>
      <trkpt lat="44.55299" lon="6.4374">
        <ele>1099.5</ele>
        <time>2012-10-07T09:11:41Z</time>
      </trkpt>
      <trkpt lat="44.5531" lon="6.43741">
        <ele>1100.4</ele>
        <time>2012-10-07T09:11:47Z</time>
      </trkpt>
      <trkpt lat="44.5532" lon="6.4374">
        <ele>1101.3</ele>
        <time>2012-10-07T09:11:52Z</time>
      </trkpt>
      <trkpt lat="44.5533" lon="6.43737">
        <ele>1103.6</ele>
        <time>2012-10-07T09:11:57Z</time>
      </trkpt>
      <trkpt lat="44.55339" lon="6.43731">
        <ele>1106</ele>
        <time>2012-10-07T09:12:03Z</time>
      </trkpt>
      <trkpt lat="44.55349" lon="6.43724">
        <ele>1108.4</ele>
        <time>2012-10-07T09:12:09Z</time>
      </trkpt>
      <trkpt lat="44.5536" lon="6.43721">
        <ele>1109.3</ele>
        <time>2012-10-07T09:12:15Z</time>
      </trkpt>
      <trkpt lat="44.55369" lon="6.43718">
        <ele>1110.2</ele>
        <time>2012-10-07T09:12:21Z</time>
      </trkpt>
      <trkpt lat="44.55379" lon="6.4372">
        <ele>1111.1</ele>
        <time>2012-10-07T09:12:27Z</time>
      </trkpt>
      <trkpt lat="44.55388" lon="6.43722">
        <ele>1112</ele>
        <time>2012-10-07T09:12:33Z</time>
      </trkpt>
      <trkpt lat="44.55397" lon="6.43718">
        <ele>1112.9</ele>
        <time>2012-10-07T09:12:39Z</time>
      </trkpt>
      <trkpt lat="44.55404" lon="6.43708">
        <ele>1113.8</ele>
        <time>2012-10-07T09:12:46Z</time>
      </trkpt>
      <trkpt lat="44.55407" lon="6.43695">
        <ele>1115.3</ele>
        <time>2012-10-07T09:12:52Z</time>
      </trkpt>
      <trkpt lat="44.55412" lon="6.43682">
        <ele>1116.7</ele>
        <time>2012-10-07T09:13:00Z</time>
      </trkpt>
      <trkpt lat="44.55421" lon="6.43676">
        <ele>1116.7</ele>
        <time>2012-10-07T09:13:08Z</time>
      </trkpt>
      <trkpt lat="44.55427" lon="6.43685">
        <ele>1116.7</ele>
        <time>2012-10-07T09:13:13Z</time>
      </trkpt>
      <trkpt lat="44.55427" lon="6.43699">
        <ele>1116.7</ele>
        <time>2012-10-07T09:13:19Z</time>
      </trkpt>
      <trkpt lat="44.55424" lon="6.43713">
        <ele>1117.3</ele>
        <time>2012-10-07T09:13:25Z</time>
      </trkpt>
      <trkpt lat="44.55421" lon="6.43725">
        <ele>1117.8</ele>
        <time>2012-10-07T09:13:30Z</time>
      </trkpt>
      <trkpt lat="44.55419" lon="6.43737">
        <ele>1118.7</ele>
        <time>2012-10-07T09:13:35Z</time>
      </trkpt>
      <trkpt lat="44.55417" lon="6.43751">
        <ele>1119.6</ele>
        <time>2012-10-07T09:13:40Z</time>
      </trkpt>
      <trkpt lat="44.55417" lon="6.43765">
        <ele>1120.5</ele>
        <time>2012-10-07T09:13:45Z</time>
      </trkpt>
      <trkpt lat="44.55416" lon="6.43779">
        <ele>1121.5</ele>
        <time>2012-10-07T09:13:50Z</time>
      </trkpt>
      <trkpt lat="44.55416" lon="6.43793">
        <ele>1121.8</ele>
        <time>2012-10-07T09:13:55Z</time>
      </trkpt>
      <trkpt lat="44.55415" lon="6.43808">
        <ele>1122.2</ele>
        <time>2012-10-07T09:14:01Z</time>
      </trkpt>
      <trkpt lat="44.55414" lon="6.43821">
        <ele>1122.5</ele>
        <time>2012-10-07T09:14:06Z</time>
      </trkpt>
      <trkpt lat="44.55412" lon="6.43835">
        <ele>1122.9</ele>
        <time>2012-10-07T09:14:11Z</time>
      </trkpt>
      <trkpt lat="44.55411" lon="6.4385">
        <ele>1123.3</ele>
        <time>2012-10-07T09:14:16Z</time>
      </trkpt>
      <trkpt lat="44.55411" lon="6.43865">
        <ele>1123.6</ele>
        <time>2012-10-07T09:14:21Z</time>
      </trkpt>
      <trkpt lat="44.55411" lon="6.43877">
        <ele>1124</ele>
        <time>2012-10-07T09:14:25Z</time>
      </trkpt>
      <trkpt lat="44.55411" lon="6.43891">
        <ele>1124</ele>
        <time>2012-10-07T09:14:30Z</time>
      </trkpt>
      <trkpt lat="44.55409" lon="6.43904">
        <ele>1124</ele>
        <time>2012-10-07T09:14:34Z</time>
      </trkpt>
      <trkpt lat="44.55408" lon="6.43917">
        <ele>1124</ele>
        <time>2012-10-07T09:14:38Z</time>
      </trkpt>
      <trkpt lat="44.55408" lon="6.43931">
        <ele>1124</ele>
        <time>2012-10-07T09:14:42Z</time>
      </trkpt>
      <trkpt lat="44.55409" lon="6.43944">
        <ele>1124</ele>
        <time>2012-10-07T09:14:45Z</time>
      </trkpt>
      <trkpt lat="44.5541" lon="6.4396">
        <ele>1124</ele>
        <time>2012-10-07T09:14:49Z</time>
      </trkpt>
      <trkpt lat="44.55411" lon="6.43973">
        <ele>1124</ele>
        <time>2012-10-07T09:14:53Z</time>
      </trkpt>
      <trkpt lat="44.55415" lon="6.43985">
        <ele>1124</ele>
        <time>2012-10-07T09:14:57Z</time>
      </trkpt>
      <trkpt lat="44.55418" lon="6.43997">
        <ele>1124.3</ele>
        <time>2012-10-07T09:15:02Z</time>
      </trkpt>
      <trkpt lat="44.5542" lon="6.4401">
        <ele>1124.5</ele>
        <time>2012-10-07T09:15:08Z</time>
      </trkpt>
      <trkpt lat="44.55421" lon="6.44023">
        <ele>1124.8</ele>
        <time>2012-10-07T09:15:14Z</time>
      </trkpt>
      <trkpt lat="44.55423" lon="6.44036">
        <ele>1125.1</ele>
        <time>2012-10-07T09:15:19Z</time>
      </trkpt>
      <trkpt lat="44.55425" lon="6.4405">
        <ele>1125.4</ele>
        <time>2012-10-07T09:15:25Z</time>
      </trkpt>
      <trkpt lat="44.55426" lon="6.44063">
        <ele>1125.6</ele>
        <time>2012-10-07T09:15:31Z</time>
      </trkpt>
      <trkpt lat="44.55427" lon="6.44076">
        <ele>1125.7</ele>
        <time>2012-10-07T09:15:38Z</time>
      </trkpt>
      <trkpt lat="44.55429" lon="6.44089">
        <ele>1125.8</ele>
        <time>2012-10-07T09:15:45Z</time>
      </trkpt>
      <trkpt lat="44.55433" lon="6.44101">
        <ele>1127.9</ele>
        <time>2012-10-07T09:15:52Z</time>
      </trkpt>
      <trkpt lat="44.5544" lon="6.44112">
        <ele>1130</ele>
        <time>2012-10-07T09:15:59Z</time>
      </trkpt>
      <trkpt lat="44.55446" lon="6.44122">
        <ele>1132.1</ele>
        <time>2012-10-07T09:16:06Z</time>
      </trkpt>
      <trkpt lat="44.55452" lon="6.44134">
        <ele>1133.9</ele>
        <time>2012-10-07T09:16:13Z</time>
      </trkpt>
      <trkpt lat="44.55457" lon="6.44145">
        <ele>1135.7</ele>
        <time>2012-10-07T09:16:19Z</time>
      </trkpt>
      <trkpt lat="44.55462" lon="6.44158">
        <ele>1137.1</ele>
        <time>2012-10-07T09:16:26Z</time>
      </trkpt>
      <trkpt lat="44.55465" lon="6.4417">
        <ele>1138.5</ele>
        <time>2012-10-07T09:16:32Z</time>
      </trkpt>
      <trkpt lat="44.55467" lon="6.44185">
        <ele>1139.8</ele>
        <time>2012-10-07T09:16:39Z</time>
      </trkpt>
      <trkpt lat="44.5547" lon="6.44198">
        <ele>1141.2</ele>
        <time>2012-10-07T09:16:45Z</time>
      </trkpt>
      <trkpt lat="44.55473" lon="6.44211">
        <ele>1142.7</ele>
        <time>2012-10-07T09:16:51Z</time>
      </trkpt>
      <trkpt lat="44.55477" lon="6.44224">
        <ele>1144.3</ele>
        <time>2012-10-07T09:16:57Z</time>
      </trkpt>
      <trkpt lat="44.55482" lon="6.44238">
        <ele>1143.2</ele>
        <time>2012-10-07T09:17:03Z</time>
      </trkpt>
      <trkpt lat="44.55486" lon="6.4425">
        <ele>1142.1</ele>
        <time>2012-10-07T09:17:08Z</time>
      </trkpt>
      <trkpt lat="44.55491" lon="6.44264">
        <ele>1141</ele>
        <time>2012-10-07T09:17:13Z</time>
      </trkpt>
      <trkpt lat="44.55496" lon="6.44276">
        <ele>1139.9</ele>
        <time>2012-10-07T09:17:17Z</time>
      </trkpt>
      <trkpt lat="44.55501" lon="6.44288">
        <ele>1138.8</ele>
        <time>2012-10-07T09:17:21Z</time>
      </trkpt>
      <trkpt lat="44.55506" lon="6.443">
        <ele>1138.2</ele>
        <time>2012-10-07T09:17:26Z</time>
      </trkpt>
      <trkpt lat="44.5551" lon="6.44313">
        <ele>1137.5</ele>
        <time>2012-10-07T09:17:29Z</time>
      </trkpt>
      <trkpt lat="44.55515" lon="6.44325">
        <ele>1136.8</ele>
        <time>2012-10-07T09:17:33Z</time>
      </trkpt>
      <trkpt lat="44.55519" lon="6.44338">
        <ele>1136.1</ele>
        <time>2012-10-07T09:17:37Z</time>
      </trkpt>
      <trkpt lat="44.55521" lon="6.44351">
        <ele>1135.4</ele>
        <time>2012-10-07T09:17:41Z</time>
      </trkpt>
      <trkpt lat="44.55524" lon="6.44365">
        <ele>1134.7</ele>
        <time>2012-10-07T09:17:45Z</time>
      </trkpt>
      <trkpt lat="44.55527" lon="6.44379">
        <ele>1134.7</ele>
        <time>2012-10-07T09:17:49Z</time>
      </trkpt>
      <trkpt lat="44.55528" lon="6.44395">
        <ele>1134.6</ele>
        <time>2012-10-07T09:17:54Z</time>
      </trkpt>
      <trkpt lat="44.55529" lon="6.44409">
        <ele>1134.6</ele>
        <time>2012-10-07T09:18:00Z</time>
      </trkpt>
      <trkpt lat="44.55534" lon="6.44417">
        <ele>1134.5</ele>
        <time>2012-10-07T09:18:14Z</time>
      </trkpt>
      <trkpt lat="44.55526" lon="6.44421">
        <ele>1134</ele>
        <time>2012-10-07T09:20:04Z</time>
      </trkpt>
      <trkpt lat="44.55524" lon="6.44422">
        <ele>1134</ele>
        <time>2012-10-07T09:20:15Z</time>
      </trkpt>
      <trkpt lat="44.55535" lon="6.44424">
        <ele>1131</ele>
        <time>2012-10-07T09:22:02Z</time>
      </trkpt>
      <trkpt lat="44.55536" lon="6.44431">
        <ele>1130.6</ele>
        <time>2012-10-07T09:22:04Z</time>
      </trkpt>
      <trkpt lat="44.55537" lon="6.4445">
        <ele>1132.4</ele>
        <time>2012-10-07T09:22:07Z</time>
      </trkpt>
      <trkpt lat="44.55538" lon="6.44464">
        <ele>1133.8</ele>
        <time>2012-10-07T09:22:09Z</time>
      </trkpt>
      <trkpt lat="44.55538" lon="6.44482">
        <ele>1134.9</ele>
        <time>2012-10-07T09:22:11Z</time>
      </trkpt>
      <trkpt lat="44.55539" lon="6.44504">
        <ele>1135.8</ele>
        <time>2012-10-07T09:22:13Z</time>
      </trkpt>
      <trkpt lat="44.55542" lon="6.44527">
        <ele>1136.8</ele>
        <time>2012-10-07T09:22:15Z</time>
      </trkpt>
      <trkpt lat="44.55545" lon="6.44552">
        <ele>1137.8</ele>
        <time>2012-10-07T09:22:17Z</time>
      </trkpt>
      <trkpt lat="44.55547" lon="6.44565">
        <ele>1138.2</ele>
        <time>2012-10-07T09:22:18Z</time>
      </trkpt>
      <trkpt lat="44.55548" lon="6.44578">
        <ele>1139.1</ele>
        <time>2012-10-07T09:22:19Z</time>
      </trkpt>
      <trkpt lat="44.5555" lon="6.44591">
        <ele>1140</ele>
        <time>2012-10-07T09:22:20Z</time>
      </trkpt>
      <trkpt lat="44.55552" lon="6.44605">
        <ele>1140.9</ele>
        <time>2012-10-07T09:22:21Z</time>
      </trkpt>
      <trkpt lat="44.55553" lon="6.44619">
        <ele>1141.8</ele>
        <time>2012-10-07T09:22:22Z</time>
      </trkpt>
      <trkpt lat="44.55554" lon="6.44634">
        <ele>1141.2</ele>
        <time>2012-10-07T09:22:23Z</time>
      </trkpt>
      <trkpt lat="44.55552" lon="6.44648">
        <ele>1140</ele>
        <time>2012-10-07T09:22:24Z</time>
      </trkpt>
      <trkpt lat="44.5555" lon="6.44662">
        <ele>1138.8</ele>
        <time>2012-10-07T09:22:25Z</time>
      </trkpt>
      <trkpt lat="44.55548" lon="6.44677">
        <ele>1137.6</ele>
        <time>2012-10-07T09:22:26Z</time>
      </trkpt>
      <trkpt lat="44.55546" lon="6.44691">
        <ele>1136.5</ele>
        <time>2012-10-07T09:22:27Z</time>
      </trkpt>
      <trkpt lat="44.55544" lon="6.44706">
        <ele>1135.3</ele>
        <time>2012-10-07T09:22:28Z</time>
      </trkpt>
      <trkpt lat="44.55546" lon="6.44723">
        <ele>1134.7</ele>
        <time>2012-10-07T09:22:29Z</time>
      </trkpt>
      <trkpt lat="44.55547" lon="6.44739">
        <ele>1133.9</ele>
        <time>2012-10-07T09:22:30Z</time>
      </trkpt>
      <trkpt lat="44.55548" lon="6.44755">
        <ele>1133.1</ele>
        <time>2012-10-07T09:22:31Z</time>
      </trkpt>
      <trkpt lat="44.55549" lon="6.4477">
        <ele>1130.5</ele>
        <time>2012-10-07T09:22:32Z</time>
      </trkpt>
      <trkpt lat="44.5555" lon="6.44787">
        <ele>1128</ele>
        <time>2012-10-07T09:22:33Z</time>
      </trkpt>
      <trkpt lat="44.55549" lon="6.44804">
        <ele>1124.9</ele>
        <time>2012-10-07T09:22:34Z</time>
      </trkpt>
      <trkpt lat="44.55546" lon="6.44821">
        <ele>1122.4</ele>
        <time>2012-10-07T09:22:35Z</time>
      </trkpt>
      <trkpt lat="44.55544" lon="6.44838">
        <ele>1119.8</ele>
        <time>2012-10-07T09:22:36Z</time>
      </trkpt>
      <trkpt lat="44.55541" lon="6.44854">
        <ele>1117</ele>
        <time>2012-10-07T09:22:37Z</time>
      </trkpt>
      <trkpt lat="44.55537" lon="6.44871">
        <ele>1114.2</ele>
        <time>2012-10-07T09:22:38Z</time>
      </trkpt>
      <trkpt lat="44.55534" lon="6.44888">
        <ele>1111.4</ele>
        <time>2012-10-07T09:22:39Z</time>
      </trkpt>
      <trkpt lat="44.55531" lon="6.44905">
        <ele>1108.5</ele>
        <time>2012-10-07T09:22:40Z</time>
      </trkpt>
      <trkpt lat="44.5553" lon="6.44923">
        <ele>1106</ele>
        <time>2012-10-07T09:22:42Z</time>
      </trkpt>
      <trkpt lat="44.55529" lon="6.44979">
        <ele>1102.5</ele>
        <time>2012-10-07T09:22:44Z</time>
      </trkpt>
      <trkpt lat="44.55529" lon="6.44997">
        <ele>1100.8</ele>
        <time>2012-10-07T09:22:45Z</time>
      </trkpt>
      <trkpt lat="44.5553" lon="6.45015">
        <ele>1099.1</ele>
        <time>2012-10-07T09:22:46Z</time>
      </trkpt>
      <trkpt lat="44.5553" lon="6.45032">
        <ele>1097.9</ele>
        <time>2012-10-07T09:22:47Z</time>
      </trkpt>
      <trkpt lat="44.55531" lon="6.45047">
        <ele>1096.7</ele>
        <time>2012-10-07T09:22:48Z</time>
      </trkpt>
      <trkpt lat="44.55531" lon="6.45061">
        <ele>1095.5</ele>
        <time>2012-10-07T09:22:49Z</time>
      </trkpt>
      <trkpt lat="44.55532" lon="6.45075">
        <ele>1095</ele>
        <time>2012-10-07T09:22:50Z</time>
      </trkpt>
      <trkpt lat="44.55533" lon="6.45089">
        <ele>1094.3</ele>
        <time>2012-10-07T09:22:51Z</time>
      </trkpt>
      <trkpt lat="44.55533" lon="6.4511">
        <ele>1093.5</ele>
        <time>2012-10-07T09:22:53Z</time>
      </trkpt>
      <trkpt lat="44.55534" lon="6.45124">
        <ele>1092.4</ele>
        <time>2012-10-07T09:22:55Z</time>
      </trkpt>
      <trkpt lat="44.55534" lon="6.4513">
        <ele>1091</ele>
        <time>2012-10-07T09:23:06Z</time>
      </trkpt>
      <trkpt lat="44.5553" lon="6.45141">
        <ele>1076</ele>
        <time>2012-10-07T09:25:35Z</time>
      </trkpt>
      <trkpt lat="44.55525" lon="6.45153">
        <ele>1076</ele>
        <time>2012-10-07T09:25:37Z</time>
      </trkpt>
      <trkpt lat="44.5552" lon="6.45167">
        <ele>1076</ele>
        <time>2012-10-07T09:25:40Z</time>
      </trkpt>
      <trkpt lat="44.55512" lon="6.45157">
        <ele>1076</ele>
        <time>2012-10-07T09:25:44Z</time>
      </trkpt>
      <trkpt lat="44.55502" lon="6.45157">
        <ele>1074.7</ele>
        <time>2012-10-07T09:25:48Z</time>
      </trkpt>
      <trkpt lat="44.55492" lon="6.45151">
        <ele>1073.6</ele>
        <time>2012-10-07T09:25:51Z</time>
      </trkpt>
      <trkpt lat="44.5548" lon="6.4515">
        <ele>1072.5</ele>
        <time>2012-10-07T09:25:55Z</time>
      </trkpt>
      <trkpt lat="44.55472" lon="6.4514">
        <ele>1071.3</ele>
        <time>2012-10-07T09:25:58Z</time>
      </trkpt>
      <trkpt lat="44.55461" lon="6.45136">
        <ele>1070.1</ele>
        <time>2012-10-07T09:26:01Z</time>
      </trkpt>
      <trkpt lat="44.55454" lon="6.4515">
        <ele>1068.9</ele>
        <time>2012-10-07T09:26:05Z</time>
      </trkpt>
      <trkpt lat="44.55445" lon="6.45153">
        <ele>1067.7</ele>
        <time>2012-10-07T09:26:10Z</time>
      </trkpt>
      <trkpt lat="44.55435" lon="6.45148">
        <ele>1066.5</ele>
        <time>2012-10-07T09:26:15Z</time>
      </trkpt>
      <trkpt lat="44.55425" lon="6.45148">
        <ele>1063.8</ele>
        <time>2012-10-07T09:26:20Z</time>
      </trkpt>
      <trkpt lat="44.55415" lon="6.45156">
        <ele>1061.1</ele>
        <time>2012-10-07T09:26:24Z</time>
      </trkpt>
      <trkpt lat="44.55407" lon="6.45166">
        <ele>1058.4</ele>
        <time>2012-10-07T09:26:28Z</time>
      </trkpt>
      <trkpt lat="44.55397" lon="6.45162">
        <ele>1056.8</ele>
        <time>2012-10-07T09:26:33Z</time>
      </trkpt>
      <trkpt lat="44.55389" lon="6.45169">
        <ele>1055.3</ele>
        <time>2012-10-07T09:26:40Z</time>
      </trkpt>
      <trkpt lat="44.55378" lon="6.45176">
        <ele>1053.7</ele>
        <time>2012-10-07T09:26:45Z</time>
      </trkpt>
      <trkpt lat="44.55365" lon="6.45178">
        <ele>1052.2</ele>
        <time>2012-10-07T09:26:48Z</time>
      </trkpt>
      <trkpt lat="44.55356" lon="6.45179">
        <ele>1050.6</ele>
        <time>2012-10-07T09:26:50Z</time>
      </trkpt>
      <trkpt lat="44.55344" lon="6.45181">
        <ele>1047.1</ele>
        <time>2012-10-07T09:26:53Z</time>
      </trkpt>
      <trkpt lat="44.55331" lon="6.45176">
        <ele>1043.5</ele>
        <time>2012-10-07T09:26:56Z</time>
      </trkpt>
      <trkpt lat="44.55322" lon="6.4517">
        <ele>1040</ele>
        <time>2012-10-07T09:26:58Z</time>
      </trkpt>
      <trkpt lat="44.55313" lon="6.45163">
        <ele>1038</ele>
        <time>2012-10-07T09:27:01Z</time>
      </trkpt>
      <trkpt lat="44.55304" lon="6.4516">
        <ele>1036</ele>
        <time>2012-10-07T09:27:06Z</time>
      </trkpt>
      <trkpt lat="44.55292" lon="6.45165">
        <ele>1034</ele>
        <time>2012-10-07T09:27:10Z</time>
      </trkpt>
      <trkpt lat="44.55282" lon="6.45173">
        <ele>1030.3</ele>
        <time>2012-10-07T09:27:14Z</time>
      </trkpt>
      <trkpt lat="44.55274" lon="6.45183">
        <ele>1026.5</ele>
        <time>2012-10-07T09:27:17Z</time>
      </trkpt>
      <trkpt lat="44.55266" lon="6.45193">
        <ele>1022.8</ele>
        <time>2012-10-07T09:27:20Z</time>
      </trkpt>
      <trkpt lat="44.55257" lon="6.45197">
        <ele>1020.8</ele>
        <time>2012-10-07T09:27:24Z</time>
      </trkpt>
      <trkpt lat="44.55248" lon="6.45209">
        <ele>1017.1</ele>
        <time>2012-10-07T09:27:27Z</time>
      </trkpt>
      <trkpt lat="44.55244" lon="6.45221">
        <ele>1015.4</ele>
        <time>2012-10-07T09:27:30Z</time>
      </trkpt>
      <trkpt lat="44.55241" lon="6.45234">
        <ele>1013.6</ele>
        <time>2012-10-07T09:27:34Z</time>
      </trkpt>
      <trkpt lat="44.55232" lon="6.45223">
        <ele>1009.5</ele>
        <time>2012-10-07T09:27:43Z</time>
      </trkpt>
      <trkpt lat="44.55228" lon="6.45211">
        <ele>1005.5</ele>
        <time>2012-10-07T09:27:46Z</time>
      </trkpt>
      <trkpt lat="44.55223" lon="6.45223">
        <ele>1001.4</ele>
        <time>2012-10-07T09:27:55Z</time>
      </trkpt>
      <trkpt lat="44.55223" lon="6.45242">
        <ele>997.3</ele>
        <time>2012-10-07T09:27:58Z</time>
      </trkpt>
      <trkpt lat="44.55223" lon="6.45256">
        <ele>994.9</ele>
        <time>2012-10-07T09:28:00Z</time>
      </trkpt>
      <trkpt lat="44.55213" lon="6.4525">
        <ele>992.5</ele>
        <time>2012-10-07T09:28:07Z</time>
      </trkpt>
      <trkpt lat="44.5521" lon="6.45238">
        <ele>990.2</ele>
        <time>2012-10-07T09:28:09Z</time>
      </trkpt>
      <trkpt lat="44.55204" lon="6.45227">
        <ele>986.1</ele>
        <time>2012-10-07T09:28:11Z</time>
      </trkpt>
      <trkpt lat="44.55197" lon="6.45235">
        <ele>983.7</ele>
        <time>2012-10-07T09:28:18Z</time>
      </trkpt>
      <trkpt lat="44.55195" lon="6.45249">
        <ele>981.4</ele>
        <time>2012-10-07T09:28:20Z</time>
      </trkpt>
      <trkpt lat="44.55195" lon="6.45262">
        <ele>979</ele>
        <time>2012-10-07T09:28:22Z</time>
      </trkpt>
      <trkpt lat="44.55191" lon="6.45277">
        <ele>977.6</ele>
        <time>2012-10-07T09:28:25Z</time>
      </trkpt>
      <trkpt lat="44.55188" lon="6.45263">
        <ele>976.3</ele>
        <time>2012-10-07T09:28:30Z</time>
      </trkpt>
      <trkpt lat="44.55178" lon="6.45273">
        <ele>974.9</ele>
        <time>2012-10-07T09:28:36Z</time>
      </trkpt>
      <trkpt lat="44.55169" lon="6.45281">
        <ele>973.5</ele>
        <time>2012-10-07T09:28:39Z</time>
      </trkpt>
      <trkpt lat="44.55164" lon="6.45293">
        <ele>972.2</ele>
        <time>2012-10-07T09:28:42Z</time>
      </trkpt>
      <trkpt lat="44.55159" lon="6.45304">
        <ele>970.8</ele>
        <time>2012-10-07T09:28:47Z</time>
      </trkpt>
      <trkpt lat="44.55153" lon="6.45316">
        <ele>966.3</ele>
        <time>2012-10-07T09:28:55Z</time>
      </trkpt>
      <trkpt lat="44.55143" lon="6.45319">
        <ele>961.7</ele>
        <time>2012-10-07T09:29:03Z</time>
      </trkpt>
      <trkpt lat="44.55137" lon="6.45331">
        <ele>957.2</ele>
        <time>2012-10-07T09:29:10Z</time>
      </trkpt>
      <trkpt lat="44.55137" lon="6.45346">
        <ele>952.9</ele>
        <time>2012-10-07T09:29:16Z</time>
      </trkpt>
      <trkpt lat="44.55135" lon="6.4536">
        <ele>948.6</ele>
        <time>2012-10-07T09:29:29Z</time>
      </trkpt>
      <trkpt lat="44.55124" lon="6.45361">
        <ele>945.5</ele>
        <time>2012-10-07T09:29:35Z</time>
      </trkpt>
      <trkpt lat="44.55115" lon="6.45358">
        <ele>942.5</ele>
        <time>2012-10-07T09:29:40Z</time>
      </trkpt>
      <trkpt lat="44.55122" lon="6.45373">
        <ele>939.6</ele>
        <time>2012-10-07T09:29:45Z</time>
      </trkpt>
      <trkpt lat="44.55129" lon="6.45388">
        <ele>936.7</ele>
        <time>2012-10-07T09:29:48Z</time>
      </trkpt>
      <trkpt lat="44.55116" lon="6.45384">
        <ele>933.8</ele>
        <time>2012-10-07T09:29:53Z</time>
      </trkpt>
      <trkpt lat="44.55105" lon="6.45379">
        <ele>930.9</ele>
        <time>2012-10-07T09:29:56Z</time>
      </trkpt>
      <trkpt lat="44.55096" lon="6.45381">
        <ele>931.2</ele>
        <time>2012-10-07T09:29:59Z</time>
      </trkpt>
      <trkpt lat="44.55101" lon="6.45391">
        <ele>931.5</ele>
        <time>2012-10-07T09:30:05Z</time>
      </trkpt>
      <trkpt lat="44.55104" lon="6.45409">
        <ele>931.7</ele>
        <time>2012-10-07T09:30:08Z</time>
      </trkpt>
      <trkpt lat="44.55107" lon="6.45424">
        <ele>931.7</ele>
        <time>2012-10-07T09:30:11Z</time>
      </trkpt>
      <trkpt lat="44.55099" lon="6.45414">
        <ele>931.7</ele>
        <time>2012-10-07T09:30:17Z</time>
      </trkpt>
      <trkpt lat="44.55087" lon="6.45415">
        <ele>932</ele>
        <time>2012-10-07T09:30:20Z</time>
      </trkpt>
      <trkpt lat="44.55078" lon="6.45418">
        <ele>932</ele>
        <time>2012-10-07T09:30:22Z</time>
      </trkpt>
      <trkpt lat="44.55069" lon="6.45417">
        <ele>932</ele>
        <time>2012-10-07T09:30:27Z</time>
      </trkpt>
      <trkpt lat="44.5508" lon="6.45417">
        <ele>932</ele>
        <time>2012-10-07T09:30:38Z</time>
      </trkpt>
      <trkpt lat="44.5509" lon="6.45422">
        <ele>932</ele>
        <time>2012-10-07T09:30:41Z</time>
      </trkpt>
      <trkpt lat="44.55095" lon="6.45435">
        <ele>932</ele>
        <time>2012-10-07T09:30:44Z</time>
      </trkpt>
      <trkpt lat="44.55102" lon="6.45444">
        <ele>932</ele>
        <time>2012-10-07T09:30:48Z</time>
      </trkpt>
      <trkpt lat="44.55099" lon="6.45456">
        <ele>932</ele>
        <time>2012-10-07T09:30:54Z</time>
      </trkpt>
      <trkpt lat="44.55093" lon="6.45446">
        <ele>932</ele>
        <time>2012-10-07T09:30:57Z</time>
      </trkpt>
      <trkpt lat="44.55085" lon="6.45438">
        <ele>929.9</ele>
        <time>2012-10-07T09:31:00Z</time>
      </trkpt>
      <trkpt lat="44.55083" lon="6.45452">
        <ele>927.8</ele>
        <time>2012-10-07T09:31:09Z</time>
      </trkpt>
      <trkpt lat="44.55074" lon="6.45456">
        <ele>925.7</ele>
        <time>2012-10-07T09:31:13Z</time>
      </trkpt>
      <trkpt lat="44.55064" lon="6.45455">
        <ele>921.7</ele>
        <time>2012-10-07T09:31:15Z</time>
      </trkpt>
      <trkpt lat="44.55054" lon="6.45454">
        <ele>917.7</ele>
        <time>2012-10-07T09:31:18Z</time>
      </trkpt>
      <trkpt lat="44.55063" lon="6.45466">
        <ele>913.7</ele>
        <time>2012-10-07T09:31:34Z</time>
      </trkpt>
      <trkpt lat="44.55055" lon="6.45475">
        <ele>909.7</ele>
        <time>2012-10-07T09:31:42Z</time>
      </trkpt>
      <trkpt lat="44.55043" lon="6.45473">
        <ele>905.7</ele>
        <time>2012-10-07T09:31:45Z</time>
      </trkpt>
      <trkpt lat="44.55033" lon="6.45473">
        <ele>901.7</ele>
        <time>2012-10-07T09:31:49Z</time>
      </trkpt>
      <trkpt lat="44.55035" lon="6.45487">
        <ele>895.9</ele>
        <time>2012-10-07T09:31:57Z</time>
      </trkpt>
      <trkpt lat="44.55034" lon="6.45501">
        <ele>890.1</ele>
        <time>2012-10-07T09:32:00Z</time>
      </trkpt>
      <trkpt lat="44.55031" lon="6.45518">
        <ele>886.4</ele>
        <time>2012-10-07T09:32:03Z</time>
      </trkpt>
      <trkpt lat="44.55025" lon="6.45533">
        <ele>882.6</ele>
        <time>2012-10-07T09:32:07Z</time>
      </trkpt>
      <trkpt lat="44.55014" lon="6.45542">
        <ele>877</ele>
        <time>2012-10-07T09:32:10Z</time>
      </trkpt>
      <trkpt lat="44.55001" lon="6.45545">
        <ele>873.3</ele>
        <time>2012-10-07T09:32:12Z</time>
      </trkpt>
      <trkpt lat="44.5499" lon="6.45547">
        <ele>869.5</ele>
        <time>2012-10-07T09:32:14Z</time>
      </trkpt>
      <trkpt lat="44.54979" lon="6.45551">
        <ele>865.8</ele>
        <time>2012-10-07T09:32:16Z</time>
      </trkpt>
      <trkpt lat="44.54968" lon="6.45557">
        <ele>862.1</ele>
        <time>2012-10-07T09:32:18Z</time>
      </trkpt>
      <trkpt lat="44.54955" lon="6.45558">
        <ele>858.4</ele>
        <time>2012-10-07T09:32:21Z</time>
      </trkpt>
      <trkpt lat="44.54946" lon="6.45557">
        <ele>855.4</ele>
        <time>2012-10-07T09:32:23Z</time>
      </trkpt>
      <trkpt lat="44.54936" lon="6.45557">
        <ele>854</ele>
        <time>2012-10-07T09:32:26Z</time>
      </trkpt>
      <trkpt lat="44.54926" lon="6.45554">
        <ele>852.2</ele>
        <time>2012-10-07T09:32:30Z</time>
      </trkpt>
      <trkpt lat="44.54918" lon="6.4555">
        <ele>850</ele>
        <time>2012-10-07T09:32:37Z</time>
      </trkpt>
      <trkpt lat="44.54915" lon="6.4556">
        <ele>847</ele>
        <time>2012-10-07T09:32:59Z</time>
      </trkpt>
      <trkpt lat="44.54906" lon="6.4556">
        <ele>843.7</ele>
        <time>2012-10-07T09:33:21Z</time>
      </trkpt>
      <trkpt lat="44.54904" lon="6.4556">
        <ele>841.3</ele>
        <time>2012-10-07T09:33:24Z</time>
      </trkpt>
      <trkpt lat="44.549" lon="6.45573">
        <ele>839.5</ele>
        <time>2012-10-07T09:33:34Z</time>
      </trkpt>
      <trkpt lat="44.54891" lon="6.45568">
        <ele>838.1</ele>
        <time>2012-10-07T09:33:41Z</time>
      </trkpt>
      <trkpt lat="44.54885" lon="6.45578">
        <ele>837</ele>
        <time>2012-10-07T09:33:46Z</time>
      </trkpt>
      <trkpt lat="44.54877" lon="6.45583">
        <ele>836.1</ele>
        <time>2012-10-07T09:33:53Z</time>
      </trkpt>
      <trkpt lat="44.54868" lon="6.45591">
        <ele>834.3</ele>
        <time>2012-10-07T09:33:57Z</time>
      </trkpt>
      <trkpt lat="44.54859" lon="6.45598">
        <ele>832.5</ele>
        <time>2012-10-07T09:34:00Z</time>
      </trkpt>
      <trkpt lat="44.54848" lon="6.456">
        <ele>830.6</ele>
        <time>2012-10-07T09:34:04Z</time>
      </trkpt>
      <trkpt lat="44.54846" lon="6.45585">
        <ele>828.8</ele>
        <time>2012-10-07T09:34:10Z</time>
      </trkpt>
      <trkpt lat="44.54834" lon="6.45588">
        <ele>827</ele>
        <time>2012-10-07T09:34:16Z</time>
      </trkpt>
      <trkpt lat="44.54827" lon="6.456">
        <ele>827</ele>
        <time>2012-10-07T09:34:19Z</time>
      </trkpt>
      <trkpt lat="44.54819" lon="6.45595">
        <ele>827</ele>
        <time>2012-10-07T09:34:24Z</time>
      </trkpt>
      <trkpt lat="44.54817" lon="6.45583">
        <ele>825.3</ele>
        <time>2012-10-07T09:34:27Z</time>
      </trkpt>
      <trkpt lat="44.54808" lon="6.45594">
        <ele>823.5</ele>
        <time>2012-10-07T09:34:36Z</time>
      </trkpt>
      <trkpt lat="44.54809" lon="6.45608">
        <ele>821.8</ele>
        <time>2012-10-07T09:34:39Z</time>
      </trkpt>
      <trkpt lat="44.54808" lon="6.45622">
        <ele>820.1</ele>
        <time>2012-10-07T09:34:43Z</time>
      </trkpt>
      <trkpt lat="44.54797" lon="6.45616">
        <ele>818.4</ele>
        <time>2012-10-07T09:34:46Z</time>
      </trkpt>
      <trkpt lat="44.54786" lon="6.45609">
        <ele>816.6</ele>
        <time>2012-10-07T09:34:48Z</time>
      </trkpt>
      <trkpt lat="44.54776" lon="6.45602">
        <ele>814.9</ele>
        <time>2012-10-07T09:34:50Z</time>
      </trkpt>
      <trkpt lat="44.54763" lon="6.45598">
        <ele>813.2</ele>
        <time>2012-10-07T09:34:53Z</time>
      </trkpt>
      <trkpt lat="44.54752" lon="6.45602">
        <ele>811.5</ele>
        <time>2012-10-07T09:34:55Z</time>
      </trkpt>
      <trkpt lat="44.54742" lon="6.45611">
        <ele>809.7</ele>
        <time>2012-10-07T09:34:57Z</time>
      </trkpt>
      <trkpt lat="44.54732" lon="6.45619">
        <ele>806.3</ele>
        <time>2012-10-07T09:34:59Z</time>
      </trkpt>
      <trkpt lat="44.54731" lon="6.45606">
        <ele>804.5</ele>
        <time>2012-10-07T09:35:05Z</time>
      </trkpt>
      <trkpt lat="44.54731" lon="6.4559">
        <ele>802.8</ele>
        <time>2012-10-07T09:35:08Z</time>
      </trkpt>
      <trkpt lat="44.54722" lon="6.45583">
        <ele>801.1</ele>
        <time>2012-10-07T09:35:11Z</time>
      </trkpt>
      <trkpt lat="44.54714" lon="6.45576">
        <ele>799.4</ele>
        <time>2012-10-07T09:35:13Z</time>
      </trkpt>
      <trkpt lat="44.54701" lon="6.45575">
        <ele>797.6</ele>
        <time>2012-10-07T09:35:15Z</time>
      </trkpt>
      <trkpt lat="44.54691" lon="6.45573">
        <ele>795.9</ele>
        <time>2012-10-07T09:35:17Z</time>
      </trkpt>
      <trkpt lat="44.54682" lon="6.45569">
        <ele>794.2</ele>
        <time>2012-10-07T09:35:19Z</time>
      </trkpt>
      <trkpt lat="44.54672" lon="6.45566">
        <ele>792.8</ele>
        <time>2012-10-07T09:35:21Z</time>
      </trkpt>
      <trkpt lat="44.54663" lon="6.45565">
        <ele>791.1</ele>
        <time>2012-10-07T09:35:23Z</time>
      </trkpt>
      <trkpt lat="44.5466" lon="6.45578">
        <ele>789</ele>
        <time>2012-10-07T09:35:31Z</time>
      </trkpt>
      <trkpt lat="44.54662" lon="6.45591">
        <ele>789</ele>
        <time>2012-10-07T09:35:35Z</time>
      </trkpt>
      <trkpt lat="44.54664" lon="6.45602">
        <ele>789</ele>
        <time>2012-10-07T09:35:47Z</time>
      </trkpt>
      <trkpt lat="44.54667" lon="6.45613">
        <ele>789</ele>
        <time>2012-10-07T09:36:15Z</time>
      </trkpt>
      <trkpt lat="44.54667" lon="6.45615">
        <ele>789</ele>
        <time>2012-10-07T09:36:26Z</time>
      </trkpt>
      <trkpt lat="44.5467" lon="6.45627">
        <ele>789</ele>
        <time>2012-10-07T09:38:10Z</time>
      </trkpt>
      <trkpt lat="44.5467" lon="6.4563">
        <ele>789</ele>
        <time>2012-10-07T09:38:11Z</time>
      </trkpt>
      <trkpt lat="44.54671" lon="6.45644">
        <ele>789.1</ele>
        <time>2012-10-07T09:38:15Z</time>
      </trkpt>
      <trkpt lat="44.54671" lon="6.45658">
        <ele>789.2</ele>
        <time>2012-10-07T09:38:18Z</time>
      </trkpt>
      <trkpt lat="44.54672" lon="6.45673">
        <ele>789.3</ele>
        <time>2012-10-07T09:38:21Z</time>
      </trkpt>
      <trkpt lat="44.54673" lon="6.45687">
        <ele>789.4</ele>
        <time>2012-10-07T09:38:24Z</time>
      </trkpt>
      <trkpt lat="44.54674" lon="6.45699">
        <ele>789.5</ele>
        <time>2012-10-07T09:38:26Z</time>
      </trkpt>
      <trkpt lat="44.54677" lon="6.45715">
        <ele>789.5</ele>
        <time>2012-10-07T09:38:29Z</time>
      </trkpt>
      <trkpt lat="44.5468" lon="6.45728">
        <ele>789.6</ele>
        <time>2012-10-07T09:38:32Z</time>
      </trkpt>
      <trkpt lat="44.54684" lon="6.45741">
        <ele>789.8</ele>
        <time>2012-10-07T09:38:36Z</time>
      </trkpt>
      <trkpt lat="44.54686" lon="6.45757">
        <ele>790</ele>
        <time>2012-10-07T09:38:40Z</time>
      </trkpt>
      <trkpt lat="44.54688" lon="6.45774">
        <ele>790.2</ele>
        <time>2012-10-07T09:38:44Z</time>
      </trkpt>
      <trkpt lat="44.5469" lon="6.45787">
        <ele>790.4</ele>
        <time>2012-10-07T09:38:47Z</time>
      </trkpt>
      <trkpt lat="44.54692" lon="6.45802">
        <ele>790.5</ele>
        <time>2012-10-07T09:38:50Z</time>
      </trkpt>
      <trkpt lat="44.54693" lon="6.45819">
        <ele>790.4</ele>
        <time>2012-10-07T09:38:53Z</time>
      </trkpt>
      <trkpt lat="44.54695" lon="6.45833">
        <ele>790.3</ele>
        <time>2012-10-07T09:38:56Z</time>
      </trkpt>
      <trkpt lat="44.54697" lon="6.45849">
        <ele>790.2</ele>
        <time>2012-10-07T09:38:59Z</time>
      </trkpt>
      <trkpt lat="44.54699" lon="6.45861">
        <ele>790.1</ele>
        <time>2012-10-07T09:39:02Z</time>
      </trkpt>
      <trkpt lat="44.54702" lon="6.45874">
        <ele>790</ele>
        <time>2012-10-07T09:39:05Z</time>
      </trkpt>
      <trkpt lat="44.54705" lon="6.45889">
        <ele>791</ele>
        <time>2012-10-07T09:39:08Z</time>
      </trkpt>
      <trkpt lat="44.54707" lon="6.45903">
        <ele>791.8</ele>
        <time>2012-10-07T09:39:11Z</time>
      </trkpt>
      <trkpt lat="44.54708" lon="6.45917">
        <ele>792.6</ele>
        <time>2012-10-07T09:39:14Z</time>
      </trkpt>
      <trkpt lat="44.5471" lon="6.45932">
        <ele>793.5</ele>
        <time>2012-10-07T09:39:17Z</time>
      </trkpt>
      <trkpt lat="44.54713" lon="6.45949">
        <ele>794.3</ele>
        <time>2012-10-07T09:39:20Z</time>
      </trkpt>
      <trkpt lat="44.54716" lon="6.45963">
        <ele>795.1</ele>
        <time>2012-10-07T09:39:23Z</time>
      </trkpt>
      <trkpt lat="44.54717" lon="6.45976">
        <ele>796.1</ele>
        <time>2012-10-07T09:39:26Z</time>
      </trkpt>
      <trkpt lat="44.54719" lon="6.45991">
        <ele>797</ele>
        <time>2012-10-07T09:39:30Z</time>
      </trkpt>
      <trkpt lat="44.54722" lon="6.46006">
        <ele>797.9</ele>
        <time>2012-10-07T09:39:33Z</time>
      </trkpt>
      <trkpt lat="44.54723" lon="6.46019">
        <ele>798.8</ele>
        <time>2012-10-07T09:39:36Z</time>
      </trkpt>
      <trkpt lat="44.54725" lon="6.46031">
        <ele>799.7</ele>
        <time>2012-10-07T09:39:39Z</time>
      </trkpt>
      <trkpt lat="44.54728" lon="6.46044">
        <ele>799.5</ele>
        <time>2012-10-07T09:39:42Z</time>
      </trkpt>
      <trkpt lat="44.5473" lon="6.46056">
        <ele>799.5</ele>
        <time>2012-10-07T09:39:45Z</time>
      </trkpt>
      <trkpt lat="44.54732" lon="6.46069">
        <ele>799.1</ele>
        <time>2012-10-07T09:39:48Z</time>
      </trkpt>
      <trkpt lat="44.54733" lon="6.46083">
        <ele>798.7</ele>
        <time>2012-10-07T09:39:51Z</time>
      </trkpt>
      <trkpt lat="44.54736" lon="6.46096">
        <ele>798.4</ele>
        <time>2012-10-07T09:39:54Z</time>
      </trkpt>
      <trkpt lat="44.54737" lon="6.4611">
        <ele>798</ele>
        <time>2012-10-07T09:39:57Z</time>
      </trkpt>
      <trkpt lat="44.54738" lon="6.46128">
        <ele>797.6</ele>
        <time>2012-10-07T09:40:00Z</time>
      </trkpt>
      <trkpt lat="44.54741" lon="6.46142">
        <ele>797.4</ele>
        <time>2012-10-07T09:40:03Z</time>
      </trkpt>
      <trkpt lat="44.54744" lon="6.46156">
        <ele>796.9</ele>
        <time>2012-10-07T09:40:06Z</time>
      </trkpt>
      <trkpt lat="44.54748" lon="6.46168">
        <ele>796.5</ele>
        <time>2012-10-07T09:40:09Z</time>
      </trkpt>
      <trkpt lat="44.54752" lon="6.46182">
        <ele>796</ele>
        <time>2012-10-07T09:40:12Z</time>
      </trkpt>
      <trkpt lat="44.54755" lon="6.46198">
        <ele>795.5</ele>
        <time>2012-10-07T09:40:15Z</time>
      </trkpt>
      <trkpt lat="44.54759" lon="6.46211">
        <ele>795.1</ele>
        <time>2012-10-07T09:40:17Z</time>
      </trkpt>
      <trkpt lat="44.54763" lon="6.46224">
        <ele>794.9</ele>
        <time>2012-10-07T09:40:19Z</time>
      </trkpt>
      <trkpt lat="44.54767" lon="6.46236">
        <ele>794.7</ele>
        <time>2012-10-07T09:40:21Z</time>
      </trkpt>
      <trkpt lat="44.5477" lon="6.46247">
        <ele>794</ele>
        <time>2012-10-07T09:40:23Z</time>
      </trkpt>
      <trkpt lat="44.54774" lon="6.46259">
        <ele>793.3</ele>
        <time>2012-10-07T09:40:25Z</time>
      </trkpt>
      <trkpt lat="44.54778" lon="6.46271">
        <ele>793.9</ele>
        <time>2012-10-07T09:40:27Z</time>
      </trkpt>
      <trkpt lat="44.54782" lon="6.46283">
        <ele>794.5</ele>
        <time>2012-10-07T09:40:29Z</time>
      </trkpt>
      <trkpt lat="44.54785" lon="6.46296">
        <ele>795.4</ele>
        <time>2012-10-07T09:40:31Z</time>
      </trkpt>
      <trkpt lat="44.5479" lon="6.46308">
        <ele>795.6</ele>
        <time>2012-10-07T09:40:33Z</time>
      </trkpt>
      <trkpt lat="44.54795" lon="6.46321">
        <ele>795.9</ele>
        <time>2012-10-07T09:40:35Z</time>
      </trkpt>
      <trkpt lat="44.54801" lon="6.46336">
        <ele>796.2</ele>
        <time>2012-10-07T09:40:37Z</time>
      </trkpt>
      <trkpt lat="44.54807" lon="6.46352">
        <ele>796.5</ele>
        <time>2012-10-07T09:40:39Z</time>
      </trkpt>
      <trkpt lat="44.54812" lon="6.46367">
        <ele>796.7</ele>
        <time>2012-10-07T09:40:41Z</time>
      </trkpt>
      <trkpt lat="44.54817" lon="6.46381">
        <ele>796.5</ele>
        <time>2012-10-07T09:40:43Z</time>
      </trkpt>
      <trkpt lat="44.54822" lon="6.46396">
        <ele>796.9</ele>
        <time>2012-10-07T09:40:45Z</time>
      </trkpt>
      <trkpt lat="44.54828" lon="6.46412">
        <ele>797.3</ele>
        <time>2012-10-07T09:40:47Z</time>
      </trkpt>
      <trkpt lat="44.54833" lon="6.46429">
        <ele>796.3</ele>
        <time>2012-10-07T09:40:49Z</time>
      </trkpt>
      <trkpt lat="44.54838" lon="6.46448">
        <ele>795.1</ele>
        <time>2012-10-07T09:40:51Z</time>
      </trkpt>
      <trkpt lat="44.54843" lon="6.46469">
        <ele>793.9</ele>
        <time>2012-10-07T09:40:53Z</time>
      </trkpt>
      <trkpt lat="44.54848" lon="6.46493">
        <ele>793.3</ele>
        <time>2012-10-07T09:40:55Z</time>
      </trkpt>
      <trkpt lat="44.54853" lon="6.46516">
        <ele>793</ele>
        <time>2012-10-07T09:40:57Z</time>
      </trkpt>
      <trkpt lat="44.54859" lon="6.46539">
        <ele>792.3</ele>
        <time>2012-10-07T09:40:59Z</time>
      </trkpt>
      <trkpt lat="44.54865" lon="6.46558">
        <ele>791.5</ele>
        <time>2012-10-07T09:41:01Z</time>
      </trkpt>
      <trkpt lat="44.54871" lon="6.46579">
        <ele>790.8</ele>
        <time>2012-10-07T09:41:03Z</time>
      </trkpt>
      <trkpt lat="44.54877" lon="6.466">
        <ele>790.5</ele>
        <time>2012-10-07T09:41:05Z</time>
      </trkpt>
      <trkpt lat="44.54881" lon="6.46618">
        <ele>790.3</ele>
        <time>2012-10-07T09:41:07Z</time>
      </trkpt>
      <trkpt lat="44.54879" lon="6.46632">
        <ele>790</ele>
        <time>2012-10-07T09:41:09Z</time>
      </trkpt>
      <trkpt lat="44.54875" lon="6.46645">
        <ele>789.7</ele>
        <time>2012-10-07T09:41:11Z</time>
      </trkpt>
      <trkpt lat="44.54867" lon="6.46652">
        <ele>789.6</ele>
        <time>2012-10-07T09:41:13Z</time>
      </trkpt>
      <trkpt lat="44.54857" lon="6.46653">
        <ele>789</ele>
        <time>2012-10-07T09:41:15Z</time>
      </trkpt>
      <trkpt lat="44.54845" lon="6.46655">
        <ele>788.4</ele>
        <time>2012-10-07T09:41:17Z</time>
      </trkpt>
      <trkpt lat="44.54832" lon="6.46656">
        <ele>787.4</ele>
        <time>2012-10-07T09:41:19Z</time>
      </trkpt>
      <trkpt lat="44.54819" lon="6.46659">
        <ele>786.8</ele>
        <time>2012-10-07T09:41:21Z</time>
      </trkpt>
      <trkpt lat="44.54806" lon="6.46662">
        <ele>786.3</ele>
        <time>2012-10-07T09:41:23Z</time>
      </trkpt>
      <trkpt lat="44.54793" lon="6.46665">
        <ele>785.7</ele>
        <time>2012-10-07T09:41:25Z</time>
      </trkpt>
      <trkpt lat="44.54777" lon="6.46669">
        <ele>785.4</ele>
        <time>2012-10-07T09:41:27Z</time>
      </trkpt>
      <trkpt lat="44.54764" lon="6.46674">
        <ele>785</ele>
        <time>2012-10-07T09:41:29Z</time>
      </trkpt>
      <trkpt lat="44.54754" lon="6.46679">
        <ele>784.5</ele>
        <time>2012-10-07T09:41:31Z</time>
      </trkpt>
      <trkpt lat="44.54744" lon="6.46686">
        <ele>783.9</ele>
        <time>2012-10-07T09:41:34Z</time>
      </trkpt>
      <trkpt lat="44.5474" lon="6.46691">
        <ele>783</ele>
        <time>2012-10-07T09:41:45Z</time>
      </trkpt>
      <trkpt lat="44.54732" lon="6.46696">
        <ele>780.5</ele>
        <time>2012-10-07T09:43:51Z</time>
      </trkpt>
      <trkpt lat="44.54726" lon="6.46701">
        <ele>780.1</ele>
        <time>2012-10-07T09:43:54Z</time>
      </trkpt>
      <trkpt lat="44.54719" lon="6.46711">
        <ele>779.9</ele>
        <time>2012-10-07T09:43:57Z</time>
      </trkpt>
      <trkpt lat="44.54711" lon="6.46723">
        <ele>779.7</ele>
        <time>2012-10-07T09:44:00Z</time>
      </trkpt>
      <trkpt lat="44.54703" lon="6.46733">
        <ele>779.5</ele>
        <time>2012-10-07T09:44:03Z</time>
      </trkpt>
      <trkpt lat="44.54695" lon="6.46741">
        <ele>779.5</ele>
        <time>2012-10-07T09:44:05Z</time>
      </trkpt>
      <trkpt lat="44.54687" lon="6.46749">
        <ele>779.3</ele>
        <time>2012-10-07T09:44:07Z</time>
      </trkpt>
      <trkpt lat="44.54678" lon="6.46761">
        <ele>779</ele>
        <time>2012-10-07T09:44:10Z</time>
      </trkpt>
      <trkpt lat="44.5467" lon="6.46776">
        <ele>778.7</ele>
        <time>2012-10-07T09:44:13Z</time>
      </trkpt>
      <trkpt lat="44.54664" lon="6.4679">
        <ele>778.9</ele>
        <time>2012-10-07T09:44:16Z</time>
      </trkpt>
      <trkpt lat="44.5466" lon="6.46806">
        <ele>778.8</ele>
        <time>2012-10-07T09:44:19Z</time>
      </trkpt>
      <trkpt lat="44.54658" lon="6.46822">
        <ele>778.7</ele>
        <time>2012-10-07T09:44:22Z</time>
      </trkpt>
      <trkpt lat="44.54658" lon="6.46836">
        <ele>778.6</ele>
        <time>2012-10-07T09:44:24Z</time>
      </trkpt>
      <trkpt lat="44.54658" lon="6.46855">
        <ele>778.5</ele>
        <time>2012-10-07T09:44:27Z</time>
      </trkpt>
      <trkpt lat="44.54659" lon="6.46871">
        <ele>778.5</ele>
        <time>2012-10-07T09:44:30Z</time>
      </trkpt>
      <trkpt lat="44.54661" lon="6.4689">
        <ele>778.4</ele>
        <time>2012-10-07T09:44:33Z</time>
      </trkpt>
      <trkpt lat="44.54664" lon="6.46907">
        <ele>778</ele>
        <time>2012-10-07T09:44:36Z</time>
      </trkpt>
      <trkpt lat="44.54668" lon="6.46921">
        <ele>777.6</ele>
        <time>2012-10-07T09:44:38Z</time>
      </trkpt>
      <trkpt lat="44.54671" lon="6.46934">
        <ele>777.3</ele>
        <time>2012-10-07T09:44:40Z</time>
      </trkpt>
      <trkpt lat="44.54674" lon="6.46946">
        <ele>776.9</ele>
        <time>2012-10-07T09:44:42Z</time>
      </trkpt>
      <trkpt lat="44.54677" lon="6.46965">
        <ele>776.5</ele>
        <time>2012-10-07T09:44:45Z</time>
      </trkpt>
      <trkpt lat="44.5468" lon="6.46977">
        <ele>776.5</ele>
        <time>2012-10-07T09:44:47Z</time>
      </trkpt>
      <trkpt lat="44.54682" lon="6.4699">
        <ele>776.4</ele>
        <time>2012-10-07T09:44:49Z</time>
      </trkpt>
      <trkpt lat="44.54686" lon="6.47006">
        <ele>776.3</ele>
        <time>2012-10-07T09:44:51Z</time>
      </trkpt>
      <trkpt lat="44.5469" lon="6.47024">
        <ele>776.2</ele>
        <time>2012-10-07T09:44:54Z</time>
      </trkpt>
      <trkpt lat="44.54694" lon="6.47041">
        <ele>776.1</ele>
        <time>2012-10-07T09:44:57Z</time>
      </trkpt>
      <trkpt lat="44.54697" lon="6.47055">
        <ele>776</ele>
        <time>2012-10-07T09:44:59Z</time>
      </trkpt>
      <trkpt lat="44.547" lon="6.47068">
        <ele>776</ele>
        <time>2012-10-07T09:45:01Z</time>
      </trkpt>
      <trkpt lat="44.54703" lon="6.47086">
        <ele>776</ele>
        <time>2012-10-07T09:45:04Z</time>
      </trkpt>
      <trkpt lat="44.54707" lon="6.47106">
        <ele>776</ele>
        <time>2012-10-07T09:45:07Z</time>
      </trkpt>
      <trkpt lat="44.54709" lon="6.47118">
        <ele>776</ele>
        <time>2012-10-07T09:45:09Z</time>
      </trkpt>
      <trkpt lat="44.54713" lon="6.47137">
        <ele>776</ele>
        <time>2012-10-07T09:45:13Z</time>
      </trkpt>
      <trkpt lat="44.54716" lon="6.47149">
        <ele>776.1</ele>
        <time>2012-10-07T09:45:14Z</time>
      </trkpt>
      <trkpt lat="44.54719" lon="6.47162">
        <ele>776.2</ele>
        <time>2012-10-07T09:45:16Z</time>
      </trkpt>
      <trkpt lat="44.54722" lon="6.47177">
        <ele>776.3</ele>
        <time>2012-10-07T09:45:18Z</time>
      </trkpt>
      <trkpt lat="44.54725" lon="6.47193">
        <ele>776.4</ele>
        <time>2012-10-07T09:45:21Z</time>
      </trkpt>
      <trkpt lat="44.54728" lon="6.47209">
        <ele>776.5</ele>
        <time>2012-10-07T09:45:23Z</time>
      </trkpt>
      <trkpt lat="44.54731" lon="6.47226">
        <ele>776.5</ele>
        <time>2012-10-07T09:45:26Z</time>
      </trkpt>
      <trkpt lat="44.54735" lon="6.4724">
        <ele>776.6</ele>
        <time>2012-10-07T09:45:28Z</time>
      </trkpt>
      <trkpt lat="44.54738" lon="6.47255">
        <ele>776.7</ele>
        <time>2012-10-07T09:45:30Z</time>
      </trkpt>
      <trkpt lat="44.5474" lon="6.47269">
        <ele>776.8</ele>
        <time>2012-10-07T09:45:32Z</time>
      </trkpt>
      <trkpt lat="44.54743" lon="6.47282">
        <ele>776.9</ele>
        <time>2012-10-07T09:45:34Z</time>
      </trkpt>
      <trkpt lat="44.54746" lon="6.47299">
        <ele>777</ele>
        <time>2012-10-07T09:45:37Z</time>
      </trkpt>
      <trkpt lat="44.54749" lon="6.47313">
        <ele>777</ele>
        <time>2012-10-07T09:45:39Z</time>
      </trkpt>
      <trkpt lat="44.54752" lon="6.4733">
        <ele>777</ele>
        <time>2012-10-07T09:45:41Z</time>
      </trkpt>
      <trkpt lat="44.54755" lon="6.47342">
        <ele>777</ele>
        <time>2012-10-07T09:45:43Z</time>
      </trkpt>
      <trkpt lat="44.54757" lon="6.47354">
        <ele>777</ele>
        <time>2012-10-07T09:45:45Z</time>
      </trkpt>
      <trkpt lat="44.5476" lon="6.4737">
        <ele>777</ele>
        <time>2012-10-07T09:45:47Z</time>
      </trkpt>
      <trkpt lat="44.54763" lon="6.47385">
        <ele>777</ele>
        <time>2012-10-07T09:45:49Z</time>
      </trkpt>
      <trkpt lat="44.54766" lon="6.474">
        <ele>777</ele>
        <time>2012-10-07T09:45:51Z</time>
      </trkpt>
      <trkpt lat="44.5477" lon="6.47417">
        <ele>777</ele>
        <time>2012-10-07T09:45:54Z</time>
      </trkpt>
      <trkpt lat="44.54774" lon="6.4743">
        <ele>777</ele>
        <time>2012-10-07T09:45:56Z</time>
      </trkpt>
      <trkpt lat="44.54778" lon="6.47445">
        <ele>777</ele>
        <time>2012-10-07T09:45:58Z</time>
      </trkpt>
      <trkpt lat="44.54781" lon="6.47458">
        <ele>777</ele>
        <time>2012-10-07T09:46:00Z</time>
      </trkpt>
      <trkpt lat="44.54784" lon="6.47471">
        <ele>776.9</ele>
        <time>2012-10-07T09:46:02Z</time>
      </trkpt>
      <trkpt lat="44.54786" lon="6.47484">
        <ele>776.9</ele>
        <time>2012-10-07T09:46:04Z</time>
      </trkpt>
      <trkpt lat="44.54788" lon="6.47499">
        <ele>776.9</ele>
        <time>2012-10-07T09:46:06Z</time>
      </trkpt>
      <trkpt lat="44.54791" lon="6.47511">
        <ele>776.9</ele>
        <time>2012-10-07T09:46:08Z</time>
      </trkpt>
      <trkpt lat="44.54794" lon="6.47526">
        <ele>776.9</ele>
        <time>2012-10-07T09:46:10Z</time>
      </trkpt>
      <trkpt lat="44.54797" lon="6.47543">
        <ele>776.9</ele>
        <time>2012-10-07T09:46:12Z</time>
      </trkpt>
      <trkpt lat="44.54799" lon="6.47556">
        <ele>777.1</ele>
        <time>2012-10-07T09:46:14Z</time>
      </trkpt>
      <trkpt lat="44.54804" lon="6.47576">
        <ele>777.3</ele>
        <time>2012-10-07T09:46:17Z</time>
      </trkpt>
      <trkpt lat="44.54806" lon="6.47589">
        <ele>777.5</ele>
        <time>2012-10-07T09:46:19Z</time>
      </trkpt>
      <trkpt lat="44.54809" lon="6.47603">
        <ele>777.6</ele>
        <time>2012-10-07T09:46:21Z</time>
      </trkpt>
      <trkpt lat="44.54812" lon="6.47618">
        <ele>777.8</ele>
        <time>2012-10-07T09:46:23Z</time>
      </trkpt>
      <trkpt lat="44.54815" lon="6.47633">
        <ele>778.1</ele>
        <time>2012-10-07T09:46:25Z</time>
      </trkpt>
      <trkpt lat="44.54819" lon="6.47647">
        <ele>778.2</ele>
        <time>2012-10-07T09:46:27Z</time>
      </trkpt>
      <trkpt lat="44.54822" lon="6.47662">
        <ele>778.3</ele>
        <time>2012-10-07T09:46:29Z</time>
      </trkpt>
      <trkpt lat="44.54826" lon="6.47675">
        <ele>778.4</ele>
        <time>2012-10-07T09:46:31Z</time>
      </trkpt>
      <trkpt lat="44.54831" lon="6.47694">
        <ele>778.5</ele>
        <time>2012-10-07T09:46:34Z</time>
      </trkpt>
      <trkpt lat="44.54833" lon="6.47708">
        <ele>778.5</ele>
        <time>2012-10-07T09:46:36Z</time>
      </trkpt>
      <trkpt lat="44.54834" lon="6.47726">
        <ele>778.5</ele>
        <time>2012-10-07T09:46:39Z</time>
      </trkpt>
      <trkpt lat="44.54835" lon="6.47739">
        <ele>778.4</ele>
        <time>2012-10-07T09:46:41Z</time>
      </trkpt>
      <trkpt lat="44.54838" lon="6.47753">
        <ele>778.3</ele>
        <time>2012-10-07T09:46:43Z</time>
      </trkpt>
      <trkpt lat="44.54842" lon="6.47767">
        <ele>778.2</ele>
        <time>2012-10-07T09:46:45Z</time>
      </trkpt>
      <trkpt lat="44.54846" lon="6.47781">
        <ele>778.1</ele>
        <time>2012-10-07T09:46:47Z</time>
      </trkpt>
      <trkpt lat="44.5485" lon="6.47795">
        <ele>778</ele>
        <time>2012-10-07T09:46:49Z</time>
      </trkpt>
      <trkpt lat="44.54853" lon="6.47813">
        <ele>778</ele>
        <time>2012-10-07T09:46:52Z</time>
      </trkpt>
      <trkpt lat="44.54856" lon="6.47825">
        <ele>778.2</ele>
        <time>2012-10-07T09:46:54Z</time>
      </trkpt>
      <trkpt lat="44.54861" lon="6.47843">
        <ele>778.4</ele>
        <time>2012-10-07T09:46:57Z</time>
      </trkpt>
      <trkpt lat="44.54863" lon="6.47856">
        <ele>778.5</ele>
        <time>2012-10-07T09:46:59Z</time>
      </trkpt>
      <trkpt lat="44.54866" lon="6.4787">
        <ele>778.5</ele>
        <time>2012-10-07T09:47:01Z</time>
      </trkpt>
      <trkpt lat="44.54867" lon="6.47883">
        <ele>778.5</ele>
        <time>2012-10-07T09:47:03Z</time>
      </trkpt>
      <trkpt lat="44.5487" lon="6.47902">
        <ele>778.9</ele>
        <time>2012-10-07T09:47:06Z</time>
      </trkpt>
      <trkpt lat="44.54873" lon="6.47915">
        <ele>779.3</ele>
        <time>2012-10-07T09:47:08Z</time>
      </trkpt>
      <trkpt lat="44.54876" lon="6.47932">
        <ele>779.6</ele>
        <time>2012-10-07T09:47:11Z</time>
      </trkpt>
      <trkpt lat="44.5488" lon="6.47949">
        <ele>780</ele>
        <time>2012-10-07T09:47:14Z</time>
      </trkpt>
      <trkpt lat="44.54882" lon="6.47963">
        <ele>780.4</ele>
        <time>2012-10-07T09:47:16Z</time>
      </trkpt>
      <trkpt lat="44.54885" lon="6.47975">
        <ele>780.7</ele>
        <time>2012-10-07T09:47:18Z</time>
      </trkpt>
      <trkpt lat="44.54888" lon="6.47988">
        <ele>780.8</ele>
        <time>2012-10-07T09:47:20Z</time>
      </trkpt>
      <trkpt lat="44.54891" lon="6.48001">
        <ele>780.9</ele>
        <time>2012-10-07T09:47:22Z</time>
      </trkpt>
      <trkpt lat="44.54894" lon="6.48014">
        <ele>781</ele>
        <time>2012-10-07T09:47:24Z</time>
      </trkpt>
      <trkpt lat="44.54898" lon="6.48026">
        <ele>781.3</ele>
        <time>2012-10-07T09:47:26Z</time>
      </trkpt>
      <trkpt lat="44.54901" lon="6.48039">
        <ele>781.5</ele>
        <time>2012-10-07T09:47:28Z</time>
      </trkpt>
      <trkpt lat="44.54904" lon="6.48051">
        <ele>781.5</ele>
        <time>2012-10-07T09:47:30Z</time>
      </trkpt>
      <trkpt lat="44.54906" lon="6.48064">
        <ele>781.2</ele>
        <time>2012-10-07T09:47:32Z</time>
      </trkpt>
      <trkpt lat="44.54908" lon="6.48077">
        <ele>780.9</ele>
        <time>2012-10-07T09:47:35Z</time>
      </trkpt>
      <trkpt lat="44.54909" lon="6.48089">
        <ele>780.6</ele>
        <time>2012-10-07T09:47:36Z</time>
      </trkpt>
      <trkpt lat="44.54913" lon="6.48107">
        <ele>780.4</ele>
        <time>2012-10-07T09:47:39Z</time>
      </trkpt>
      <trkpt lat="44.54916" lon="6.48125">
        <ele>780.1</ele>
        <time>2012-10-07T09:47:42Z</time>
      </trkpt>
      <trkpt lat="44.54919" lon="6.48141">
        <ele>779.9</ele>
        <time>2012-10-07T09:47:45Z</time>
      </trkpt>
      <trkpt lat="44.54924" lon="6.48159">
        <ele>779.7</ele>
        <time>2012-10-07T09:47:48Z</time>
      </trkpt>
      <trkpt lat="44.54929" lon="6.48175">
        <ele>779.5</ele>
        <time>2012-10-07T09:47:51Z</time>
      </trkpt>
      <trkpt lat="44.54934" lon="6.48191">
        <ele>779.7</ele>
        <time>2012-10-07T09:47:54Z</time>
      </trkpt>
      <trkpt lat="44.54939" lon="6.48207">
        <ele>779.9</ele>
        <time>2012-10-07T09:47:57Z</time>
      </trkpt>
      <trkpt lat="44.54945" lon="6.48223">
        <ele>780.1</ele>
        <time>2012-10-07T09:48:00Z</time>
      </trkpt>
      <trkpt lat="44.54951" lon="6.48238">
        <ele>780.5</ele>
        <time>2012-10-07T09:48:03Z</time>
      </trkpt>
      <trkpt lat="44.54958" lon="6.48253">
        <ele>780.8</ele>
        <time>2012-10-07T09:48:06Z</time>
      </trkpt>
      <trkpt lat="44.54965" lon="6.48268">
        <ele>781.2</ele>
        <time>2012-10-07T09:48:09Z</time>
      </trkpt>
      <trkpt lat="44.54973" lon="6.48282">
        <ele>781.5</ele>
        <time>2012-10-07T09:48:12Z</time>
      </trkpt>
      <trkpt lat="44.54981" lon="6.48296">
        <ele>781.9</ele>
        <time>2012-10-07T09:48:15Z</time>
      </trkpt>
      <trkpt lat="44.54989" lon="6.48311">
        <ele>782.3</ele>
        <time>2012-10-07T09:48:18Z</time>
      </trkpt>
      <trkpt lat="44.54996" lon="6.4832">
        <ele>782.6</ele>
        <time>2012-10-07T09:48:20Z</time>
      </trkpt>
      <trkpt lat="44.55002" lon="6.48329">
        <ele>783.2</ele>
        <time>2012-10-07T09:48:22Z</time>
      </trkpt>
      <trkpt lat="44.55009" lon="6.48339">
        <ele>783.4</ele>
        <time>2012-10-07T09:48:24Z</time>
      </trkpt>
      <trkpt lat="44.55015" lon="6.48349">
        <ele>783.5</ele>
        <time>2012-10-07T09:48:26Z</time>
      </trkpt>
      <trkpt lat="44.55022" lon="6.48359">
        <ele>783.7</ele>
        <time>2012-10-07T09:48:28Z</time>
      </trkpt>
      <trkpt lat="44.55029" lon="6.48368">
        <ele>783.9</ele>
        <time>2012-10-07T09:48:30Z</time>
      </trkpt>
      <trkpt lat="44.55038" lon="6.48381">
        <ele>784.1</ele>
        <time>2012-10-07T09:48:33Z</time>
      </trkpt>
      <trkpt lat="44.55044" lon="6.4839">
        <ele>784.3</ele>
        <time>2012-10-07T09:48:35Z</time>
      </trkpt>
      <trkpt lat="44.55052" lon="6.48404">
        <ele>784.3</ele>
        <time>2012-10-07T09:48:38Z</time>
      </trkpt>
      <trkpt lat="44.55059" lon="6.48417">
        <ele>784.3</ele>
        <time>2012-10-07T09:48:41Z</time>
      </trkpt>
      <trkpt lat="44.55061" lon="6.48429">
        <ele>784.3</ele>
        <time>2012-10-07T09:48:43Z</time>
      </trkpt>
      <trkpt lat="44.55065" lon="6.48445">
        <ele>784.3</ele>
        <time>2012-10-07T09:48:45Z</time>
      </trkpt>
      <trkpt lat="44.55075" lon="6.48457">
        <ele>784.1</ele>
        <time>2012-10-07T09:48:47Z</time>
      </trkpt>
      <trkpt lat="44.55083" lon="6.48463">
        <ele>784.3</ele>
        <time>2012-10-07T09:48:49Z</time>
      </trkpt>
      <trkpt lat="44.55093" lon="6.48468">
        <ele>784.5</ele>
        <time>2012-10-07T09:48:52Z</time>
      </trkpt>
      <trkpt lat="44.55105" lon="6.48475">
        <ele>784.6</ele>
        <time>2012-10-07T09:48:55Z</time>
      </trkpt>
      <trkpt lat="44.55115" lon="6.48483">
        <ele>784.8</ele>
        <time>2012-10-07T09:48:57Z</time>
      </trkpt>
      <trkpt lat="44.55124" lon="6.48491">
        <ele>785</ele>
        <time>2012-10-07T09:48:59Z</time>
      </trkpt>
      <trkpt lat="44.55132" lon="6.485">
        <ele>784.9</ele>
        <time>2012-10-07T09:49:01Z</time>
      </trkpt>
      <trkpt lat="44.55139" lon="6.48509">
        <ele>785</ele>
        <time>2012-10-07T09:49:03Z</time>
      </trkpt>
      <trkpt lat="44.55146" lon="6.4852">
        <ele>785.1</ele>
        <time>2012-10-07T09:49:06Z</time>
      </trkpt>
      <trkpt lat="44.55152" lon="6.4853">
        <ele>785.2</ele>
        <time>2012-10-07T09:49:10Z</time>
      </trkpt>
      <trkpt lat="44.55158" lon="6.4854">
        <ele>785.3</ele>
        <time>2012-10-07T09:49:16Z</time>
      </trkpt>
      <trkpt lat="44.55165" lon="6.48551">
        <ele>785.4</ele>
        <time>2012-10-07T09:49:20Z</time>
      </trkpt>
      <trkpt lat="44.55172" lon="6.48562">
        <ele>785.1</ele>
        <time>2012-10-07T09:49:23Z</time>
      </trkpt>
      <trkpt lat="44.55181" lon="6.48572">
        <ele>784.9</ele>
        <time>2012-10-07T09:49:26Z</time>
      </trkpt>
      <trkpt lat="44.55187" lon="6.48582">
        <ele>784.7</ele>
        <time>2012-10-07T09:49:28Z</time>
      </trkpt>
      <trkpt lat="44.55195" lon="6.48592">
        <ele>784.5</ele>
        <time>2012-10-07T09:49:30Z</time>
      </trkpt>
      <trkpt lat="44.55202" lon="6.48603">
        <ele>784.4</ele>
        <time>2012-10-07T09:49:32Z</time>
      </trkpt>
      <trkpt lat="44.55209" lon="6.48615">
        <ele>784.5</ele>
        <time>2012-10-07T09:49:34Z</time>
      </trkpt>
      <trkpt lat="44.55217" lon="6.48627">
        <ele>784.5</ele>
        <time>2012-10-07T09:49:36Z</time>
      </trkpt>
      <trkpt lat="44.55223" lon="6.48639">
        <ele>784.6</ele>
        <time>2012-10-07T09:49:38Z</time>
      </trkpt>
      <trkpt lat="44.5523" lon="6.48651">
        <ele>784.7</ele>
        <time>2012-10-07T09:49:40Z</time>
      </trkpt>
      <trkpt lat="44.55236" lon="6.48663">
        <ele>784.8</ele>
        <time>2012-10-07T09:49:42Z</time>
      </trkpt>
      <trkpt lat="44.55242" lon="6.48672">
        <ele>784.8</ele>
        <time>2012-10-07T09:49:44Z</time>
      </trkpt>
      <trkpt lat="44.55248" lon="6.48683">
        <ele>784.8</ele>
        <time>2012-10-07T09:49:46Z</time>
      </trkpt>
      <trkpt lat="44.55253" lon="6.48695">
        <ele>784.7</ele>
        <time>2012-10-07T09:49:48Z</time>
      </trkpt>
      <trkpt lat="44.55258" lon="6.48707">
        <ele>784.6</ele>
        <time>2012-10-07T09:49:50Z</time>
      </trkpt>
      <trkpt lat="44.55263" lon="6.48719">
        <ele>784.5</ele>
        <time>2012-10-07T09:49:52Z</time>
      </trkpt>
      <trkpt lat="44.55269" lon="6.48732">
        <ele>784.5</ele>
        <time>2012-10-07T09:49:54Z</time>
      </trkpt>
      <trkpt lat="44.55276" lon="6.48747">
        <ele>784.6</ele>
        <time>2012-10-07T09:49:57Z</time>
      </trkpt>
      <trkpt lat="44.55281" lon="6.48758">
        <ele>784.7</ele>
        <time>2012-10-07T09:49:59Z</time>
      </trkpt>
      <trkpt lat="44.55286" lon="6.48771">
        <ele>784.8</ele>
        <time>2012-10-07T09:50:01Z</time>
      </trkpt>
      <trkpt lat="44.55292" lon="6.48784">
        <ele>784.9</ele>
        <time>2012-10-07T09:50:03Z</time>
      </trkpt>
      <trkpt lat="44.55297" lon="6.48798">
        <ele>785</ele>
        <time>2012-10-07T09:50:05Z</time>
      </trkpt>
      <trkpt lat="44.55302" lon="6.4881">
        <ele>785.2</ele>
        <time>2012-10-07T09:50:07Z</time>
      </trkpt>
      <trkpt lat="44.55306" lon="6.48823">
        <ele>785.5</ele>
        <time>2012-10-07T09:50:09Z</time>
      </trkpt>
      <trkpt lat="44.55311" lon="6.48836">
        <ele>785.9</ele>
        <time>2012-10-07T09:50:11Z</time>
      </trkpt>
      <trkpt lat="44.55315" lon="6.4885">
        <ele>786.3</ele>
        <time>2012-10-07T09:50:13Z</time>
      </trkpt>
      <trkpt lat="44.5532" lon="6.48863">
        <ele>786.6</ele>
        <time>2012-10-07T09:50:15Z</time>
      </trkpt>
      <trkpt lat="44.55324" lon="6.48875">
        <ele>786.9</ele>
        <time>2012-10-07T09:50:18Z</time>
      </trkpt>
      <trkpt lat="44.55328" lon="6.48887">
        <ele>787.1</ele>
        <time>2012-10-07T09:50:19Z</time>
      </trkpt>
      <trkpt lat="44.55332" lon="6.48903">
        <ele>787</ele>
        <time>2012-10-07T09:50:22Z</time>
      </trkpt>
      <trkpt lat="44.55336" lon="6.48915">
        <ele>786.9</ele>
        <time>2012-10-07T09:50:24Z</time>
      </trkpt>
      <trkpt lat="44.55341" lon="6.48928">
        <ele>786.8</ele>
        <time>2012-10-07T09:50:27Z</time>
      </trkpt>
      <trkpt lat="44.55345" lon="6.48944">
        <ele>786.7</ele>
        <time>2012-10-07T09:50:30Z</time>
      </trkpt>
      <trkpt lat="44.5535" lon="6.48961">
        <ele>786.6</ele>
        <time>2012-10-07T09:50:33Z</time>
      </trkpt>
      <trkpt lat="44.55352" lon="6.48974">
        <ele>786.2</ele>
        <time>2012-10-07T09:50:35Z</time>
      </trkpt>
      <trkpt lat="44.55354" lon="6.48987">
        <ele>785.7</ele>
        <time>2012-10-07T09:50:37Z</time>
      </trkpt>
      <trkpt lat="44.55358" lon="6.49006">
        <ele>785.3</ele>
        <time>2012-10-07T09:50:40Z</time>
      </trkpt>
      <trkpt lat="44.5536" lon="6.4902">
        <ele>785</ele>
        <time>2012-10-07T09:50:42Z</time>
      </trkpt>
      <trkpt lat="44.55363" lon="6.49034">
        <ele>784.7</ele>
        <time>2012-10-07T09:50:44Z</time>
      </trkpt>
      <trkpt lat="44.55367" lon="6.49052">
        <ele>784.5</ele>
        <time>2012-10-07T09:50:46Z</time>
      </trkpt>
      <trkpt lat="44.55371" lon="6.49068">
        <ele>784.6</ele>
        <time>2012-10-07T09:50:48Z</time>
      </trkpt>
      <trkpt lat="44.55375" lon="6.49085">
        <ele>784.8</ele>
        <time>2012-10-07T09:50:50Z</time>
      </trkpt>
      <trkpt lat="44.55379" lon="6.491">
        <ele>785</ele>
        <time>2012-10-07T09:50:52Z</time>
      </trkpt>
      <trkpt lat="44.55383" lon="6.49116">
        <ele>785.2</ele>
        <time>2012-10-07T09:50:54Z</time>
      </trkpt>
      <trkpt lat="44.55386" lon="6.49131">
        <ele>785.4</ele>
        <time>2012-10-07T09:50:56Z</time>
      </trkpt>
      <trkpt lat="44.5539" lon="6.49145">
        <ele>785.7</ele>
        <time>2012-10-07T09:50:58Z</time>
      </trkpt>
      <trkpt lat="44.55392" lon="6.4916">
        <ele>786.1</ele>
        <time>2012-10-07T09:51:00Z</time>
      </trkpt>
      <trkpt lat="44.55395" lon="6.49174">
        <ele>786.5</ele>
        <time>2012-10-07T09:51:02Z</time>
      </trkpt>
      <trkpt lat="44.55399" lon="6.49189">
        <ele>786.6</ele>
        <time>2012-10-07T09:51:04Z</time>
      </trkpt>
      <trkpt lat="44.55402" lon="6.49204">
        <ele>786.8</ele>
        <time>2012-10-07T09:51:06Z</time>
      </trkpt>
      <trkpt lat="44.55405" lon="6.49218">
        <ele>787</ele>
        <time>2012-10-07T09:51:08Z</time>
      </trkpt>
      <trkpt lat="44.55408" lon="6.49233">
        <ele>787.1</ele>
        <time>2012-10-07T09:51:10Z</time>
      </trkpt>
      <trkpt lat="44.55411" lon="6.49247">
        <ele>787.2</ele>
        <time>2012-10-07T09:51:12Z</time>
      </trkpt>
      <trkpt lat="44.55414" lon="6.49261">
        <ele>787.3</ele>
        <time>2012-10-07T09:51:14Z</time>
      </trkpt>
      <trkpt lat="44.55417" lon="6.49274">
        <ele>787.4</ele>
        <time>2012-10-07T09:51:16Z</time>
      </trkpt>
      <trkpt lat="44.5542" lon="6.49288">
        <ele>787.5</ele>
        <time>2012-10-07T09:51:18Z</time>
      </trkpt>
      <trkpt lat="44.55423" lon="6.49303">
        <ele>787.5</ele>
        <time>2012-10-07T09:51:20Z</time>
      </trkpt>
      <trkpt lat="44.55427" lon="6.49318">
        <ele>787.5</ele>
        <time>2012-10-07T09:51:22Z</time>
      </trkpt>
      <trkpt lat="44.5543" lon="6.49332">
        <ele>787.5</ele>
        <time>2012-10-07T09:51:24Z</time>
      </trkpt>
      <trkpt lat="44.55432" lon="6.49344">
        <ele>787.5</ele>
        <time>2012-10-07T09:51:26Z</time>
      </trkpt>
      <trkpt lat="44.55435" lon="6.49358">
        <ele>787.5</ele>
        <time>2012-10-07T09:51:28Z</time>
      </trkpt>
      <trkpt lat="44.55438" lon="6.49373">
        <ele>787.5</ele>
        <time>2012-10-07T09:51:30Z</time>
      </trkpt>
      <trkpt lat="44.55442" lon="6.49387">
        <ele>787.5</ele>
        <time>2012-10-07T09:51:32Z</time>
      </trkpt>
      <trkpt lat="44.55444" lon="6.49401">
        <ele>787.2</ele>
        <time>2012-10-07T09:51:34Z</time>
      </trkpt>
      <trkpt lat="44.55447" lon="6.49414">
        <ele>786.9</ele>
        <time>2012-10-07T09:51:36Z</time>
      </trkpt>
      <trkpt lat="44.5545" lon="6.49428">
        <ele>786.6</ele>
        <time>2012-10-07T09:51:38Z</time>
      </trkpt>
      <trkpt lat="44.55454" lon="6.49442">
        <ele>786.4</ele>
        <time>2012-10-07T09:51:40Z</time>
      </trkpt>
      <trkpt lat="44.55457" lon="6.49455">
        <ele>786.1</ele>
        <time>2012-10-07T09:51:42Z</time>
      </trkpt>
      <trkpt lat="44.55461" lon="6.4947">
        <ele>785.9</ele>
        <time>2012-10-07T09:51:45Z</time>
      </trkpt>
      <trkpt lat="44.55464" lon="6.49484">
        <ele>785.9</ele>
        <time>2012-10-07T09:51:46Z</time>
      </trkpt>
      <trkpt lat="44.55467" lon="6.49498">
        <ele>785.9</ele>
        <time>2012-10-07T09:51:48Z</time>
      </trkpt>
      <trkpt lat="44.5547" lon="6.49512">
        <ele>785.9</ele>
        <time>2012-10-07T09:51:50Z</time>
      </trkpt>
      <trkpt lat="44.55472" lon="6.49526">
        <ele>785.9</ele>
        <time>2012-10-07T09:51:52Z</time>
      </trkpt>
      <trkpt lat="44.55475" lon="6.49542">
        <ele>785.9</ele>
        <time>2012-10-07T09:51:54Z</time>
      </trkpt>
      <trkpt lat="44.55478" lon="6.49557">
        <ele>786.3</ele>
        <time>2012-10-07T09:51:56Z</time>
      </trkpt>
      <trkpt lat="44.55481" lon="6.49571">
        <ele>786.6</ele>
        <time>2012-10-07T09:51:58Z</time>
      </trkpt>
      <trkpt lat="44.55485" lon="6.49584">
        <ele>787</ele>
        <time>2012-10-07T09:52:00Z</time>
      </trkpt>
      <trkpt lat="44.55487" lon="6.49598">
        <ele>787.4</ele>
        <time>2012-10-07T09:52:02Z</time>
      </trkpt>
      <trkpt lat="44.5549" lon="6.49614">
        <ele>787.7</ele>
        <time>2012-10-07T09:52:04Z</time>
      </trkpt>
      <trkpt lat="44.55493" lon="6.49629">
        <ele>788.1</ele>
        <time>2012-10-07T09:52:06Z</time>
      </trkpt>
      <trkpt lat="44.55496" lon="6.49644">
        <ele>788.3</ele>
        <time>2012-10-07T09:52:08Z</time>
      </trkpt>
      <trkpt lat="44.55498" lon="6.49658">
        <ele>788.4</ele>
        <time>2012-10-07T09:52:10Z</time>
      </trkpt>
      <trkpt lat="44.55501" lon="6.49672">
        <ele>788.5</ele>
        <time>2012-10-07T09:52:12Z</time>
      </trkpt>
      <trkpt lat="44.55504" lon="6.49687">
        <ele>788.5</ele>
        <time>2012-10-07T09:52:14Z</time>
      </trkpt>
      <trkpt lat="44.55508" lon="6.49702">
        <ele>788.6</ele>
        <time>2012-10-07T09:52:16Z</time>
      </trkpt>
      <trkpt lat="44.55512" lon="6.49717">
        <ele>788.5</ele>
        <time>2012-10-07T09:52:18Z</time>
      </trkpt>
      <trkpt lat="44.55515" lon="6.49732">
        <ele>788.6</ele>
        <time>2012-10-07T09:52:20Z</time>
      </trkpt>
      <trkpt lat="44.55519" lon="6.49746">
        <ele>788.5</ele>
        <time>2012-10-07T09:52:22Z</time>
      </trkpt>
      <trkpt lat="44.55523" lon="6.49761">
        <ele>788.5</ele>
        <time>2012-10-07T09:52:24Z</time>
      </trkpt>
      <trkpt lat="44.55528" lon="6.49775">
        <ele>788.4</ele>
        <time>2012-10-07T09:52:26Z</time>
      </trkpt>
      <trkpt lat="44.55534" lon="6.4979">
        <ele>788.3</ele>
        <time>2012-10-07T09:52:28Z</time>
      </trkpt>
      <trkpt lat="44.55538" lon="6.49805">
        <ele>788.2</ele>
        <time>2012-10-07T09:52:30Z</time>
      </trkpt>
      <trkpt lat="44.55544" lon="6.49821">
        <ele>788.3</ele>
        <time>2012-10-07T09:52:32Z</time>
      </trkpt>
      <trkpt lat="44.55549" lon="6.49836">
        <ele>788.4</ele>
        <time>2012-10-07T09:52:34Z</time>
      </trkpt>
      <trkpt lat="44.55555" lon="6.49851">
        <ele>788.5</ele>
        <time>2012-10-07T09:52:36Z</time>
      </trkpt>
      <trkpt lat="44.5556" lon="6.49865">
        <ele>788.5</ele>
        <time>2012-10-07T09:52:38Z</time>
      </trkpt>
      <trkpt lat="44.55565" lon="6.4988">
        <ele>788.6</ele>
        <time>2012-10-07T09:52:40Z</time>
      </trkpt>
      <trkpt lat="44.55571" lon="6.49894">
        <ele>788.5</ele>
        <time>2012-10-07T09:52:42Z</time>
      </trkpt>
      <trkpt lat="44.55577" lon="6.49909">
        <ele>788.6</ele>
        <time>2012-10-07T09:52:44Z</time>
      </trkpt>
      <trkpt lat="44.55583" lon="6.49922">
        <ele>788.7</ele>
        <time>2012-10-07T09:52:46Z</time>
      </trkpt>
      <trkpt lat="44.55587" lon="6.49936">
        <ele>788.8</ele>
        <time>2012-10-07T09:52:48Z</time>
      </trkpt>
      <trkpt lat="44.55592" lon="6.4995">
        <ele>788.9</ele>
        <time>2012-10-07T09:52:50Z</time>
      </trkpt>
      <trkpt lat="44.55598" lon="6.49965">
        <ele>789</ele>
        <time>2012-10-07T09:52:52Z</time>
      </trkpt>
      <trkpt lat="44.55602" lon="6.49979">
        <ele>789</ele>
        <time>2012-10-07T09:52:54Z</time>
      </trkpt>
      <trkpt lat="44.55607" lon="6.49992">
        <ele>788.9</ele>
        <time>2012-10-07T09:52:56Z</time>
      </trkpt>
      <trkpt lat="44.55612" lon="6.50005">
        <ele>788.9</ele>
        <time>2012-10-07T09:52:58Z</time>
      </trkpt>
      <trkpt lat="44.55616" lon="6.50018">
        <ele>788.9</ele>
        <time>2012-10-07T09:53:00Z</time>
      </trkpt>
      <trkpt lat="44.55621" lon="6.50032">
        <ele>788.9</ele>
        <time>2012-10-07T09:53:02Z</time>
      </trkpt>
      <trkpt lat="44.55625" lon="6.50045">
        <ele>788.9</ele>
        <time>2012-10-07T09:53:04Z</time>
      </trkpt>
      <trkpt lat="44.5563" lon="6.50058">
        <ele>788.9</ele>
        <time>2012-10-07T09:53:06Z</time>
      </trkpt>
      <trkpt lat="44.55634" lon="6.50071">
        <ele>789</ele>
        <time>2012-10-07T09:53:08Z</time>
      </trkpt>
      <trkpt lat="44.55639" lon="6.50084">
        <ele>789.1</ele>
        <time>2012-10-07T09:53:10Z</time>
      </trkpt>
      <trkpt lat="44.55644" lon="6.50098">
        <ele>789.2</ele>
        <time>2012-10-07T09:53:12Z</time>
      </trkpt>
      <trkpt lat="44.55649" lon="6.50113">
        <ele>789.3</ele>
        <time>2012-10-07T09:53:14Z</time>
      </trkpt>
      <trkpt lat="44.55654" lon="6.50127">
        <ele>789.4</ele>
        <time>2012-10-07T09:53:16Z</time>
      </trkpt>
      <trkpt lat="44.55658" lon="6.50138">
        <ele>789.5</ele>
        <time>2012-10-07T09:53:18Z</time>
      </trkpt>
      <trkpt lat="44.55663" lon="6.50151">
        <ele>789.7</ele>
        <time>2012-10-07T09:53:20Z</time>
      </trkpt>
      <trkpt lat="44.55669" lon="6.50165">
        <ele>789.9</ele>
        <time>2012-10-07T09:53:22Z</time>
      </trkpt>
      <trkpt lat="44.55674" lon="6.50178">
        <ele>790.1</ele>
        <time>2012-10-07T09:53:24Z</time>
      </trkpt>
      <trkpt lat="44.55679" lon="6.50191">
        <ele>790.3</ele>
        <time>2012-10-07T09:53:26Z</time>
      </trkpt>
      <trkpt lat="44.55683" lon="6.50204">
        <ele>790.5</ele>
        <time>2012-10-07T09:53:28Z</time>
      </trkpt>
      <trkpt lat="44.55689" lon="6.50219">
        <ele>790.9</ele>
        <time>2012-10-07T09:53:30Z</time>
      </trkpt>
      <trkpt lat="44.55694" lon="6.50231">
        <ele>791.3</ele>
        <time>2012-10-07T09:53:32Z</time>
      </trkpt>
      <trkpt lat="44.557" lon="6.50248">
        <ele>791.6</ele>
        <time>2012-10-07T09:53:35Z</time>
      </trkpt>
      <trkpt lat="44.55705" lon="6.50261">
        <ele>792</ele>
        <time>2012-10-07T09:53:37Z</time>
      </trkpt>
      <trkpt lat="44.5571" lon="6.50273">
        <ele>792.4</ele>
        <time>2012-10-07T09:53:39Z</time>
      </trkpt>
      <trkpt lat="44.55715" lon="6.50285">
        <ele>792.7</ele>
        <time>2012-10-07T09:53:41Z</time>
      </trkpt>
      <trkpt lat="44.55721" lon="6.50302">
        <ele>793</ele>
        <time>2012-10-07T09:53:44Z</time>
      </trkpt>
      <trkpt lat="44.55726" lon="6.50314">
        <ele>793</ele>
        <time>2012-10-07T09:53:46Z</time>
      </trkpt>
      <trkpt lat="44.55731" lon="6.50327">
        <ele>793</ele>
        <time>2012-10-07T09:53:48Z</time>
      </trkpt>
      <trkpt lat="44.55738" lon="6.50341">
        <ele>793</ele>
        <time>2012-10-07T09:53:50Z</time>
      </trkpt>
      <trkpt lat="44.55745" lon="6.50355">
        <ele>793</ele>
        <time>2012-10-07T09:53:52Z</time>
      </trkpt>
      <trkpt lat="44.55752" lon="6.50368">
        <ele>792.6</ele>
        <time>2012-10-07T09:53:54Z</time>
      </trkpt>
      <trkpt lat="44.55759" lon="6.50381">
        <ele>792.4</ele>
        <time>2012-10-07T09:53:56Z</time>
      </trkpt>
      <trkpt lat="44.55764" lon="6.50393">
        <ele>792.1</ele>
        <time>2012-10-07T09:53:58Z</time>
      </trkpt>
      <trkpt lat="44.5577" lon="6.50405">
        <ele>791.8</ele>
        <time>2012-10-07T09:54:00Z</time>
      </trkpt>
      <trkpt lat="44.55776" lon="6.50416">
        <ele>791.5</ele>
        <time>2012-10-07T09:54:02Z</time>
      </trkpt>
      <trkpt lat="44.55782" lon="6.50427">
        <ele>791.3</ele>
        <time>2012-10-07T09:54:04Z</time>
      </trkpt>
      <trkpt lat="44.55788" lon="6.50439">
        <ele>791</ele>
        <time>2012-10-07T09:54:06Z</time>
      </trkpt>
      <trkpt lat="44.55797" lon="6.50453">
        <ele>791</ele>
        <time>2012-10-07T09:54:09Z</time>
      </trkpt>
      <trkpt lat="44.55807" lon="6.50454">
        <ele>791</ele>
        <time>2012-10-07T09:54:11Z</time>
      </trkpt>
      <trkpt lat="44.55817" lon="6.50451">
        <ele>791</ele>
        <time>2012-10-07T09:54:13Z</time>
      </trkpt>
      <trkpt lat="44.55829" lon="6.50446">
        <ele>791.1</ele>
        <time>2012-10-07T09:54:15Z</time>
      </trkpt>
      <trkpt lat="44.5584" lon="6.50442">
        <ele>791.2</ele>
        <time>2012-10-07T09:54:17Z</time>
      </trkpt>
      <trkpt lat="44.55851" lon="6.50437">
        <ele>791.3</ele>
        <time>2012-10-07T09:54:19Z</time>
      </trkpt>
      <trkpt lat="44.55863" lon="6.50433">
        <ele>791.4</ele>
        <time>2012-10-07T09:54:21Z</time>
      </trkpt>
      <trkpt lat="44.55874" lon="6.50428">
        <ele>791.5</ele>
        <time>2012-10-07T09:54:23Z</time>
      </trkpt>
      <trkpt lat="44.55884" lon="6.50424">
        <ele>791.5</ele>
        <time>2012-10-07T09:54:25Z</time>
      </trkpt>
      <trkpt lat="44.55895" lon="6.5042">
        <ele>791.6</ele>
        <time>2012-10-07T09:54:27Z</time>
      </trkpt>
      <trkpt lat="44.55905" lon="6.50416">
        <ele>791.7</ele>
        <time>2012-10-07T09:54:29Z</time>
      </trkpt>
      <trkpt lat="44.55916" lon="6.50413">
        <ele>791.9</ele>
        <time>2012-10-07T09:54:31Z</time>
      </trkpt>
      <trkpt lat="44.55926" lon="6.50409">
        <ele>792.1</ele>
        <time>2012-10-07T09:54:33Z</time>
      </trkpt>
      <trkpt lat="44.55936" lon="6.50404">
        <ele>792.3</ele>
        <time>2012-10-07T09:54:35Z</time>
      </trkpt>
      <trkpt lat="44.55946" lon="6.504">
        <ele>792.4</ele>
        <time>2012-10-07T09:54:37Z</time>
      </trkpt>
      <trkpt lat="44.55956" lon="6.50396">
        <ele>792.3</ele>
        <time>2012-10-07T09:54:39Z</time>
      </trkpt>
      <trkpt lat="44.55966" lon="6.50392">
        <ele>792.2</ele>
        <time>2012-10-07T09:54:41Z</time>
      </trkpt>
      <trkpt lat="44.55976" lon="6.50388">
        <ele>792.1</ele>
        <time>2012-10-07T09:54:43Z</time>
      </trkpt>
      <trkpt lat="44.55987" lon="6.50384">
        <ele>792.2</ele>
        <time>2012-10-07T09:54:45Z</time>
      </trkpt>
      <trkpt lat="44.55998" lon="6.5038">
        <ele>792.3</ele>
        <time>2012-10-07T09:54:47Z</time>
      </trkpt>
      <trkpt lat="44.56011" lon="6.50377">
        <ele>792.4</ele>
        <time>2012-10-07T09:54:49Z</time>
      </trkpt>
      <trkpt lat="44.56022" lon="6.50375">
        <ele>792.5</ele>
        <time>2012-10-07T09:54:51Z</time>
      </trkpt>
      <trkpt lat="44.56035" lon="6.50374">
        <ele>792.5</ele>
        <time>2012-10-07T09:54:53Z</time>
      </trkpt>
      <trkpt lat="44.56046" lon="6.50374">
        <ele>792.5</ele>
        <time>2012-10-07T09:54:55Z</time>
      </trkpt>
      <trkpt lat="44.56057" lon="6.50371">
        <ele>792.5</ele>
        <time>2012-10-07T09:54:57Z</time>
      </trkpt>
      <trkpt lat="44.56068" lon="6.50366">
        <ele>792.5</ele>
        <time>2012-10-07T09:54:59Z</time>
      </trkpt>
      <trkpt lat="44.56078" lon="6.50359">
        <ele>792.6</ele>
        <time>2012-10-07T09:55:01Z</time>
      </trkpt>
      <trkpt lat="44.56087" lon="6.50353">
        <ele>793</ele>
        <time>2012-10-07T09:55:03Z</time>
      </trkpt>
      <trkpt lat="44.56097" lon="6.50347">
        <ele>793.4</ele>
        <time>2012-10-07T09:55:05Z</time>
      </trkpt>
      <trkpt lat="44.56107" lon="6.50343">
        <ele>793.5</ele>
        <time>2012-10-07T09:55:07Z</time>
      </trkpt>
      <trkpt lat="44.56118" lon="6.50342">
        <ele>793.7</ele>
        <time>2012-10-07T09:55:09Z</time>
      </trkpt>
      <trkpt lat="44.56127" lon="6.50346">
        <ele>793.9</ele>
        <time>2012-10-07T09:55:11Z</time>
      </trkpt>
      <trkpt lat="44.56135" lon="6.50354">
        <ele>794.1</ele>
        <time>2012-10-07T09:55:13Z</time>
      </trkpt>
      <trkpt lat="44.5614" lon="6.50364">
        <ele>794.3</ele>
        <time>2012-10-07T09:55:15Z</time>
      </trkpt>
      <trkpt lat="44.56146" lon="6.50374">
        <ele>794.5</ele>
        <time>2012-10-07T09:55:17Z</time>
      </trkpt>
      <trkpt lat="44.56154" lon="6.50389">
        <ele>794.6</ele>
        <time>2012-10-07T09:55:20Z</time>
      </trkpt>
      <trkpt lat="44.56163" lon="6.50404">
        <ele>794.8</ele>
        <time>2012-10-07T09:55:23Z</time>
      </trkpt>
      <trkpt lat="44.56168" lon="6.50415">
        <ele>795.1</ele>
        <time>2012-10-07T09:55:25Z</time>
      </trkpt>
      <trkpt lat="44.56173" lon="6.50425">
        <ele>795.2</ele>
        <time>2012-10-07T09:55:27Z</time>
      </trkpt>
      <trkpt lat="44.56179" lon="6.50436">
        <ele>795.3</ele>
        <time>2012-10-07T09:55:29Z</time>
      </trkpt>
      <trkpt lat="44.56184" lon="6.50446">
        <ele>795.5</ele>
        <time>2012-10-07T09:55:31Z</time>
      </trkpt>
      <trkpt lat="44.56189" lon="6.50457">
        <ele>795.8</ele>
        <time>2012-10-07T09:55:33Z</time>
      </trkpt>
      <trkpt lat="44.56196" lon="6.50467">
        <ele>796.1</ele>
        <time>2012-10-07T09:55:35Z</time>
      </trkpt>
      <trkpt lat="44.56204" lon="6.50481">
        <ele>796.4</ele>
        <time>2012-10-07T09:55:38Z</time>
      </trkpt>
      <trkpt lat="44.56212" lon="6.50493">
        <ele>796.6</ele>
        <time>2012-10-07T09:55:41Z</time>
      </trkpt>
      <trkpt lat="44.56221" lon="6.50505">
        <ele>797.2</ele>
        <time>2012-10-07T09:55:44Z</time>
      </trkpt>
      <trkpt lat="44.5623" lon="6.50515">
        <ele>797.7</ele>
        <time>2012-10-07T09:55:47Z</time>
      </trkpt>
      <trkpt lat="44.56239" lon="6.50525">
        <ele>798.3</ele>
        <time>2012-10-07T09:55:50Z</time>
      </trkpt>
      <trkpt lat="44.56248" lon="6.50533">
        <ele>798.7</ele>
        <time>2012-10-07T09:55:53Z</time>
      </trkpt>
      <trkpt lat="44.56257" lon="6.50542">
        <ele>799.5</ele>
        <time>2012-10-07T09:55:56Z</time>
      </trkpt>
      <trkpt lat="44.56264" lon="6.50549">
        <ele>800.2</ele>
        <time>2012-10-07T09:55:59Z</time>
      </trkpt>
      <trkpt lat="44.56274" lon="6.50558">
        <ele>800.7</ele>
        <time>2012-10-07T09:56:03Z</time>
      </trkpt>
      <trkpt lat="44.56282" lon="6.50565">
        <ele>801.3</ele>
        <time>2012-10-07T09:56:06Z</time>
      </trkpt>
      <trkpt lat="44.5629" lon="6.50574">
        <ele>801.8</ele>
        <time>2012-10-07T09:56:09Z</time>
      </trkpt>
      <trkpt lat="44.56297" lon="6.5058">
        <ele>802.4</ele>
        <time>2012-10-07T09:56:12Z</time>
      </trkpt>
      <trkpt lat="44.56306" lon="6.50589">
        <ele>802.9</ele>
        <time>2012-10-07T09:56:16Z</time>
      </trkpt>
      <trkpt lat="44.56314" lon="6.50596">
        <ele>803.3</ele>
        <time>2012-10-07T09:56:19Z</time>
      </trkpt>
      <trkpt lat="44.56321" lon="6.50603">
        <ele>803.6</ele>
        <time>2012-10-07T09:56:22Z</time>
      </trkpt>
      <trkpt lat="44.56329" lon="6.50612">
        <ele>804</ele>
        <time>2012-10-07T09:56:26Z</time>
      </trkpt>
      <trkpt lat="44.56337" lon="6.50618">
        <ele>804.7</ele>
        <time>2012-10-07T09:56:30Z</time>
      </trkpt>
      <trkpt lat="44.56346" lon="6.50626">
        <ele>805.2</ele>
        <time>2012-10-07T09:56:34Z</time>
      </trkpt>
      <trkpt lat="44.56354" lon="6.50632">
        <ele>805.6</ele>
        <time>2012-10-07T09:56:38Z</time>
      </trkpt>
      <trkpt lat="44.56362" lon="6.50639">
        <ele>806.1</ele>
        <time>2012-10-07T09:56:41Z</time>
      </trkpt>
      <trkpt lat="44.56371" lon="6.50645">
        <ele>806.5</ele>
        <time>2012-10-07T09:56:45Z</time>
      </trkpt>
      <trkpt lat="44.5638" lon="6.50651">
        <ele>807</ele>
        <time>2012-10-07T09:56:49Z</time>
      </trkpt>
      <trkpt lat="44.56388" lon="6.50658">
        <ele>807.5</ele>
        <time>2012-10-07T09:56:54Z</time>
      </trkpt>
      <trkpt lat="44.56398" lon="6.50661">
        <ele>807.9</ele>
        <time>2012-10-07T09:57:01Z</time>
      </trkpt>
      <trkpt lat="44.56408" lon="6.50655">
        <ele>808.4</ele>
        <time>2012-10-07T09:57:06Z</time>
      </trkpt>
      <trkpt lat="44.56417" lon="6.50649">
        <ele>809.5</ele>
        <time>2012-10-07T09:57:11Z</time>
      </trkpt>
      <trkpt lat="44.56425" lon="6.50642">
        <ele>810.5</ele>
        <time>2012-10-07T09:57:15Z</time>
      </trkpt>
      <trkpt lat="44.56435" lon="6.50635">
        <ele>811.3</ele>
        <time>2012-10-07T09:57:20Z</time>
      </trkpt>
      <trkpt lat="44.56443" lon="6.50629">
        <ele>812</ele>
        <time>2012-10-07T09:57:24Z</time>
      </trkpt>
      <trkpt lat="44.56452" lon="6.5062">
        <ele>812.7</ele>
        <time>2012-10-07T09:57:29Z</time>
      </trkpt>
      <trkpt lat="44.56461" lon="6.50614">
        <ele>813.5</ele>
        <time>2012-10-07T09:57:33Z</time>
      </trkpt>
      <trkpt lat="44.56469" lon="6.50607">
        <ele>814.2</ele>
        <time>2012-10-07T09:57:37Z</time>
      </trkpt>
      <trkpt lat="44.56479" lon="6.50599">
        <ele>814.9</ele>
        <time>2012-10-07T09:57:41Z</time>
      </trkpt>
      <trkpt lat="44.56487" lon="6.5059">
        <ele>815.6</ele>
        <time>2012-10-07T09:57:45Z</time>
      </trkpt>
      <trkpt lat="44.56496" lon="6.50579">
        <ele>816.4</ele>
        <time>2012-10-07T09:57:49Z</time>
      </trkpt>
      <trkpt lat="44.56504" lon="6.5057">
        <ele>817.5</ele>
        <time>2012-10-07T09:57:53Z</time>
      </trkpt>
      <trkpt lat="44.56512" lon="6.50563">
        <ele>817.9</ele>
        <time>2012-10-07T09:57:57Z</time>
      </trkpt>
      <trkpt lat="44.5652" lon="6.50557">
        <ele>818.4</ele>
        <time>2012-10-07T09:58:01Z</time>
      </trkpt>
      <trkpt lat="44.56529" lon="6.50554">
        <ele>819.5</ele>
        <time>2012-10-07T09:58:05Z</time>
      </trkpt>
      <trkpt lat="44.56539" lon="6.50552">
        <ele>820.7</ele>
        <time>2012-10-07T09:58:09Z</time>
      </trkpt>
      <trkpt lat="44.56549" lon="6.5055">
        <ele>821.9</ele>
        <time>2012-10-07T09:58:13Z</time>
      </trkpt>
      <trkpt lat="44.56559" lon="6.50548">
        <ele>823.1</ele>
        <time>2012-10-07T09:58:17Z</time>
      </trkpt>
      <trkpt lat="44.56569" lon="6.50546">
        <ele>824.3</ele>
        <time>2012-10-07T09:58:21Z</time>
      </trkpt>
      <trkpt lat="44.56578" lon="6.50544">
        <ele>825.5</ele>
        <time>2012-10-07T09:58:25Z</time>
      </trkpt>
      <trkpt lat="44.56589" lon="6.5054">
        <ele>827.3</ele>
        <time>2012-10-07T09:58:30Z</time>
      </trkpt>
      <trkpt lat="44.56599" lon="6.50539">
        <ele>829.1</ele>
        <time>2012-10-07T09:58:34Z</time>
      </trkpt>
      <trkpt lat="44.5661" lon="6.50538">
        <ele>830.5</ele>
        <time>2012-10-07T09:58:38Z</time>
      </trkpt>
      <trkpt lat="44.56621" lon="6.50537">
        <ele>831.8</ele>
        <time>2012-10-07T09:58:42Z</time>
      </trkpt>
      <trkpt lat="44.56631" lon="6.50534">
        <ele>832</ele>
        <time>2012-10-07T09:58:46Z</time>
      </trkpt>
      <trkpt lat="44.56641" lon="6.50531">
        <ele>831.5</ele>
        <time>2012-10-07T09:58:51Z</time>
      </trkpt>
      <trkpt lat="44.5665" lon="6.50531">
        <ele>830.9</ele>
        <time>2012-10-07T09:58:56Z</time>
      </trkpt>
      <trkpt lat="44.56659" lon="6.50535">
        <ele>830.4</ele>
        <time>2012-10-07T09:59:01Z</time>
      </trkpt>
      <trkpt lat="44.56667" lon="6.50541">
        <ele>830.4</ele>
        <time>2012-10-07T09:59:03Z</time>
      </trkpt>
      <trkpt lat="44.56678" lon="6.50549">
        <ele>830.4</ele>
        <time>2012-10-07T09:59:05Z</time>
      </trkpt>
      <trkpt lat="44.56691" lon="6.5056">
        <ele>830.5</ele>
        <time>2012-10-07T09:59:07Z</time>
      </trkpt>
      <trkpt lat="44.56703" lon="6.5057">
        <ele>829.6</ele>
        <time>2012-10-07T09:59:09Z</time>
      </trkpt>
      <trkpt lat="44.56709" lon="6.50576">
        <ele>828.3</ele>
        <time>2012-10-07T09:59:21Z</time>
      </trkpt>
      <trkpt lat="44.56712" lon="6.50589">
        <ele>824</ele>
        <time>2012-10-07T09:59:30Z</time>
      </trkpt>
      <trkpt lat="44.56706" lon="6.50591">
        <ele>824</ele>
        <time>2012-10-07T09:59:34Z</time>
      </trkpt>
      <trkpt lat="44.56697" lon="6.50595">
        <ele>824</ele>
        <time>2012-10-07T09:59:36Z</time>
      </trkpt>
      <trkpt lat="44.56687" lon="6.50596">
        <ele>824</ele>
        <time>2012-10-07T09:59:38Z</time>
      </trkpt>
      <trkpt lat="44.56679" lon="6.50594">
        <ele>824</ele>
        <time>2012-10-07T09:59:49Z</time>
      </trkpt>
      <trkpt lat="44.5668" lon="6.50606">
        <ele>824</ele>
        <time>2012-10-07T10:00:01Z</time>
      </trkpt>
      <trkpt lat="44.5668" lon="6.50605">
        <ele>824</ele>
        <time>2012-10-07T10:00:11Z</time>
      </trkpt>
      <trkpt lat="44.56686" lon="6.50598">
        <ele>824</ele>
        <time>2012-10-07T10:00:26Z</time>
      </trkpt>
      <trkpt lat="44.56687" lon="6.50598">
        <ele>824</ele>
        <time>2012-10-07T10:00:27Z</time>
      </trkpt>
      <trkpt lat="44.56689" lon="6.50598">
        <ele>824</ele>
        <time>2012-10-07T10:00:37Z</time>
      </trkpt>
      <trkpt lat="44.56614" lon="6.50445">
        <ele>830.7</ele>
        <time>2012-10-07T10:01:19Z</time>
      </trkpt>
      <trkpt lat="44.56692" lon="6.50598">
        <ele>830.7</ele>
        <time>2012-10-07T10:01:27Z</time>
      </trkpt>
      <trkpt lat="44.56688" lon="6.50602">
        <ele>830.7</ele>
        <time>2012-10-07T10:01:52Z</time>
      </trkpt>
      <trkpt lat="44.56695" lon="6.50609">
        <ele>824</ele>
        <time>2012-10-07T10:02:07Z</time>
      </trkpt>
      <trkpt lat="44.56704" lon="6.50607">
        <ele>824</ele>
        <time>2012-10-07T10:02:12Z</time>
      </trkpt>
      <trkpt lat="44.56705" lon="6.50603">
        <ele>824</ele>
        <time>2012-10-07T10:02:22Z</time>
      </trkpt>
      <trkpt lat="44.567" lon="6.50613">
        <ele>824</ele>
        <time>2012-10-07T10:02:33Z</time>
      </trkpt>
      <trkpt lat="44.56681" lon="6.50625">
        <ele>824</ele>
        <time>2012-10-07T10:02:34Z</time>
      </trkpt>
      <trkpt lat="44.5668" lon="6.50619">
        <ele>824</ele>
        <time>2012-10-07T10:02:54Z</time>
      </trkpt>
      <trkpt lat="44.56687" lon="6.50606">
        <ele>824</ele>
        <time>2012-10-07T10:03:14Z</time>
      </trkpt>
      <trkpt lat="44.56686" lon="6.50605">
        <ele>824</ele>
        <time>2012-10-07T10:03:25Z</time>
      </trkpt>
      <trkpt lat="44.56692" lon="6.50612">
        <ele>824</ele>
        <time>2012-10-07T10:04:13Z</time>
      </trkpt>
      <trkpt lat="44.56692" lon="6.50612">
        <ele>824</ele>
        <time>2012-10-07T10:04:13Z</time>
      </trkpt>
    </trkseg>
  </trk>
</gpx>